Aviation Digital Data Service (ADDS)

Output produced by METARs form (1111 UTC 22 November 2017)
found at http://aviationweather.gov/adds/metars/
 
K04V 221054Z AUTO 32014KT 10SM OVC110 02/M02 A3044 RMK AO2
K04W 221055Z AUTO 00000KT 10SM CLR M10/M11 A3029 RMK AO2
K05U 221055Z AUTO 19007KT 10SM CLR 03/01 A3045 RMK A01
K06D 221055Z AUTO 21013KT 10SM FEW050 OVC060 M13/M16 A3004 RMK AO2
K08D 221055Z AUTO 16011KT 10SM OVC055 M08/M11 A2995 RMK AO2
K0A9 221055Z AUTO 00000KT 10SM BKN029 OVC034 07/06 A3005 RMK A01
K0CO 221054Z AUTO 34028G38KT OVC001 M06/M12 A3048 RMK AO2 PWINO
K0E0 221055Z AUTO 36004KT 10SM CLR M06/M09 A3041 RMK AO2 T10581088
K0F2 221055Z AUTO 35009KT 10SM CLR 02/M09 A3037 RMK AO2 T00161092
K0J4 221058Z AUTO 35003KT 10SM SCT023 BKN100 12/07 A3003 RMK AO2 SLP166 T01220067 $
K0R0 221055Z AUTO 00000KT 10SM CLR 07/06 A3012 RMK AO2
K0R4 221055Z AUTO A3011 RMK AO2 PWINO TSNO
K0S9 221055Z AUTO VRB05G12KT 10SM OVC009 15/14 A2989 RMK AO2
K0V4 221055Z AUTO 29003KT 10SM OVC080 11/11 A2994 RMK AO1 T01100108
K0VG 221050Z AUTO 00000KT 10SM CLR 03/00 A3011 RMK AO2
K11R 221055Z AUTO 35010KT 10SM SCT014 BKN029 14/12 A3020 RMK AO2 T01410115
K12N 221054Z AUTO 00000KT 02/02 A2989 RMK AO1 SLP128 T00220017
K14Y 220835Z AUTO 25006KT 10SM CLR M10/M12 A3032 RMK AO2
K17J 221055Z AUTO 03004KT 7SM BKN026 OVC034 15/15 A2998 RMK AO2 T01510148
K18A 221055Z AUTO 00000KT 3SM BR CLR 08/08 A2999 RMK AO2 T00770075
K19S 221055Z AUTO 21006KT 10SM CLR M02/M07 A3034 RMK AO2 T10231066
K1A5 221105Z AUTO 00000KT 5SM BR CLR 02/01 A3003 RMK AO2 T00190012
K1A6 221055Z AUTO 00000KT 10SM CLR 05/00 A3012 RMK AO2 T00500000
K1A9 221055Z AUTO 00000KT 10SM CLR 05/03 A3004 RMK AO2 T00490032
K1F0 221055Z AUTO 04005KT 10SM CLR 02/M10 A3038 RMK AO2
K1H2 221055Z AUTO 31005KT 10SM CLR M03/M05 A3035 RMK AO2 T10301053
K1K1 221055Z AUTO 00000KT 10SM CLR M07/M11 A3042 RMK AO2 T10681109
K1M4 221056Z AUTO 01007KT 10SM CLR 04/03 A3014 RMK AO2 SLP233 T00440028
K1M5 221055Z AUTO 34007KT 10SM CLR M00/M03 A3023 RMK A01
K1P1 221115Z AUTO 00000KT 10SM CLR M05/M05 A2996 RMK AO2 T10471051
K1S5 221115Z AUTO 00000KT 3SM BR BKN065 OVC100 05/04 A3009 RMK AO2 T00470043
K1V4 220654Z AUTO 03/M02 A2990 RMK AO1 SLP130 T00331017
K1V6 221050Z AUTO 28012KT 10SM CLR 07/M01 A3026 RMK AO2
K1YT 221058Z AUTO 00000KT 5SM BR SCT100 BKN230 03/02 A3006 RMK AO2 SLPNO T00320023 $
K20U 221055Z AUTO 18011KT 10SM BKN065 M03/M06 A2995 RMK AO2
K20V 221054Z AUTO 00000KT 10SM CLR 02/01 A3046 RMK AO2
K21D 221051Z AUTO 17003KT 10SM CLR M11/M12 A3033 RMK AO2
K22N 221055Z AUTO 00000KT 7SM BKN100 M01/M01 A2993 RMK AO2
K24A 221105Z AUTO 27005KT 10SM SCT022 07/05 A3003 RMK AO2 LTG DSNT SE T00720054
K24J 221055Z AUTO 00000KT M1/4SM FG OVC002 14/14 A2997 RMK A01 P0001
K28J 221055Z AUTO 00000KT 2 1/2SM BR CLR 12/12 A2996 RMK AO2
K2A0 221055Z AUTO 35004KT 10SM FEW026 07/02 A3009 RMK A01
K2C8 221055Z AUTO 20009KT 10SM BKN065 M13/M16 A3016 RMK AO2
K2D5 221055Z AUTO 17007KT 10SM M15/M16 A3022 RMK AO2 PWINO
K2DP 221103Z AUTO 05005KT 10SM FEW055 OVC110 15/14 A2985 RMK AO2 LTG DSNT SE RAE03 SLPNO $
K2F5 221055Z AUTO 02007KT 10SM SCT100 SCT120 01/M04 A3040 RMK AO2
K2G4 221050Z AUTO 29010G17KT 10SM SCT008 BKN015 BKN020 02/00 A2993 RMK AO1
K2G9 221055Z AUTO 29012G20KT 10SM -RA BKN010 BKN015 OVC021 02/00 A2997 RMK AO2
K2I0 221035Z AUTO 36006KT 10SM CLR 00/M03 A3029 RMK AO2 T10051031
K2J3 221050Z AUTO 32004KT 1 1/4SM BR OVC003 10/10 A3000 RMK AO2 T01040103
K2J9 221055Z AUTO VRB04KT 6SM BR BKN004 OVC030 15/15 A2998 RMK AO2
K2P2 221055Z AUTO 33012G16KT 10SM BKN033 M04/M10 A3024 RMK AO2 T10391100
K2V6 221054Z AUTO 25008KT 10SM CLR 02/M02 A3020 RMK AO2
K2W6 221046Z AUTO 00000KT 10SM BKN060 BKN070 OVC090 11/10 A2992 RMK AO1
K2WX 221056Z AUTO 17004KT M03/M07 A2994 RMK AO1 SLP171 T10281067
K33V 221055Z AUTO 20009KT 10SM OVC070 03/M01 A3042 RMK AO1
K3AU 221055Z AUTO 01004KT 10SM CLR M06/M10 A3042 RMK AO2
K3D2 221055Z AUTO 33008KT 310V010 10SM OVC038 M04/M11 A3024 RMK AO2 T10421115
K3F3 221055Z AUTO 33005KT 10SM CLR 09/08 A3023 RMK AO2 T00930077
K3I2 221055Z AUTO 00000KT 10SM OVC012 04/02 A3016 RMK AO2 T00400019
K3J7 221055Z AUTO 00000KT 3SM BR CLR 10/10 A2995 RMK AO2
K3K3 221055Z AUTO 14003KT 10SM CLR M01/M05 A3029 RMK AO2
K3L4 221055Z AUTO 02008KT 10SM BKN070 BKN110 14/13 A3009 RMK A01
K3LF 221055Z AUTO 34007KT 10SM CLR M05/M07 A3035 RMK AO2 T10501071
K3N8 221055Z AUTO 21006KT 10SM CLR M13/M15 A3023 RMK AO2 T11351153
K3R7 221055Z AUTO 36005KT 10SM CLR 11/11 A3010 RMK AO2 T01130105
K3S8 221055Z AUTO 09006KT 3SM BR FEW028 BKN037 OVC100 12/11 A3012 RMK AO2
K3T5 221055Z AUTO 36010G15KT 10SM SCT022 OVC037 15/09 A3019 RMK AO2 T01460089
K40B 221016Z AUTO 00000KT 00/M04 A2988 RMK AO1 SLP139 T10041043 52010
K40J 221055Z AUTO 00000KT 1SM BR OVC002 15/14 A2997 RMK AO2 T01460141
K42J 221055Z AUTO 00000KT 2SM BKN001 12/12 A2996 RMK AO1 VSBY 1V5 TSNO
K46D 221055Z AUTO 19008KT 10SM CLR M10/M13 A3015 RMK AO2
K46U 221040Z AUTO 00000KT 10SM OVC026 04/04 A3041 RMK A01
K49A 221055Z AUTO 01006KT 10SM CLR 09/03 A3006 RMK AO2 LTG DSNT N T00870033
K4A6 221055Z AUTO 00000KT 10SM CLR 02/02 A3010 RMK AO2
K4A9 221055Z AUTO 00000KT 5SM BR CLR 00/00 A3008 RMK AO2
K4BM 221054Z AUTO 32004KT 10SM CLR 00/M07 A3049 RMK AO2 LTG DSNT NW
K4I3 221057Z AUTO 30007KT 10SM SCT017 BKN029 OVC039 01/M01 A3014 RMK AO2
K4M9 220955Z AUTO 36004KT 10SM CLR M00/M05 A3034 RMK AO2 PWINO
K4MR 221058Z AUTO M 10SM CLR 01/M04 A3039 RMK AO2 SLP275 T00071037 $
K4O4 221055Z AUTO 36006KT 10SM CLR 03/M05 A3030 RMK AO2
K4S2 221055Z AUTO 00000KT 4SM BR BKN044 BKN055 OVC090 06/06 A3011 RMK AO2
K4V0 221055Z AUTO 00000KT 10SM CLR 01/M01 A3041 RMK AO2 T00111008
K54J 221055Z AUTO 35005KT 10SM OVC060 13/07 A3000 RMK AO2 T01310068
K57C 221055Z AUTO 32004KT 10SM CLR M07/M10 A3030 RMK AO2 T10741104
K5A6 221055Z AUTO 02007KT 10SM CLR 05/04 A3015 RMK AO2 T00470036
K5C1 221055Z AUTO 36012G19KT 10SM CLR 09/01 A3026 RMK AO1
K5H4 221055Z AUTO 16009KT 10SM FEW065 FEW120 M11/M14 A3008 RMK AO2
K5M9 221055Z AUTO 36004KT 10SM CLR M02/M06 A3029 RMK AO2 T10251061
K5R8 221055Z AUTO 35003KT 10SM SCT060 BKN100 11/10 A3014 RMK AO2 T01080100
K5SM 221053Z AUTO 25007KT 10SM SCT070 M01/M03 A3058 RMK AO2
K5T9 221055Z AUTO 32008G13KT 10SM CLR 11/M00 A3031 RMK A01
K65S 221055Z AUTO 31003KT 3SM RA OVC003 03/03 A3006 RMK AO2 P0005
K66R 221055Z AUTO 35007G16KT 10SM OVC012 A3017 RMK AO2
K6A1 221055Z AUTO 34003KT 10SM 12/12 A3001 RMK AO2 T01200115
K6A2 221055Z AUTO 00000KT 2SM CLR 11/11 A3000 RMK AO2 VIS 1V4
K6B0 221055Z AUTO 17004KT 10SM OVC100 09/00 A2989 RMK AO2 T00850000
K6B9 221055Z AUTO 00000KT 4SM -SN OVC004 01/01 A2995 RMK AO2 P0004
K6I2 221055Z AUTO 33007KT 10SM CLR M02/M04 A3024 RMK AO2
K6L4 221055Z AUTO 33004G10KT 10SM OVC060 06/01 A3008 RMK AO2
K6P9 221055Z AUTO 35006KT 10SM CLR 03/M05 A3036 RMK AO2 T00341050
K6R3 221055Z AUTO 00000KT 7SM SCT042 BKN060 13/11 A3017 RMK AO2 T01270109
K6R6 221053Z AUTO 32006KT 06/M03 A3037 RMK AO1 SLP266 T00611033
K6S0 221055Z AUTO 24010G17KT 10SM CLR 11/03 A3010 RMK A01
K6S2 221055Z AUTO 00000KT 5SM HZ BKN044 OVC050 A3000 RMK AO2
K74V 221055Z AUTO 00000KT 10SM BKN110 02/M01 A3042 RMK AO2
K79J 221056Z AUTO 01006KT 10SM SCT050 BKN110 14/05 A3001 RMK AO2 SLP158 T01390050
K7BM 221054Z AUTO 28010G18KT 250V310 10SM CLR 05/M05 A3045 RMK AO2
K7L2 221055Z AUTO 13008KT 10SM M12/M16 A3014 RMK AO2
K7N0 221056Z AUTO 01005KT 10SM CLR 16/09 A3006 RMK AO2 SLP179 T01560094
K7W4 221057Z AUTO 27006KT 10SM OVC090 10/09 A2992 RMK AO2
K7W6 221045Z AUTO 05005KT 10SM -RA SCT009 SCT060 BKN100 15/15 A2987 RMK AO2 P0014 T01540154
K82C 221055Z AUTO 31003KT 10SM CLR M09/M11 A3032 RMK AO2 T10881115
K82V 221055Z AUTO 10SM CLR 01/00 A3021 RMK AO2
K8A0 221055Z AUTO 35004KT 10SM CLR 06/04 A3007 RMK AO2
K8A3 221055Z AUTO 36008KT 10SM BKN016 BKN023 OVC027 03/01 A3014 RMK A01
K8D3 221056Z AUTO 18006KT M13/M15 A3025 RMK AO1 SLP282 T11281150
K8W2 221055Z AUTO 23003KT 10SM SCT075 OVC085 05/04 A2996 RMK AO1 T00500041
K96D 221055Z AUTO 20007KT 10SM CLR M13/M15 A3015 RMK AO2
K9A5 221055Z AUTO 00000KT 2 1/2SM CLR 01/00 A3008 RMK AO2 VIS 1V5 T00110002
K9D7 221055Z AUTO 19010KT 10SM OVC065 M12/M14 A3013 RMK AO2
K9L2 221058Z AUTO M M M M M M RMK AO2 SLPNO PWINO PNO FZRANO TSNO $
K9MN 221052Z AUTO 28004KT 10SM CLR M09/M11 A3033 RMK AO1 T10861110
K9V9 221055Z AUTO 13004KT 10SM CLR M07/M09 A3021 RMK AO2 T10731091
KA08 221055Z AUTO 31003KT 10SM CLR 05/02 A3006 RMK AO2 T00490022
KA39 221055Z AUTO 10005KT 10SM CLR 11/M05 A3014 RMK AO2
KAAA 221055Z AUTO 31003KT 10SM CLR M05/M07 A3036 RMK AO2 T10511070
KAAF 221107Z AUTO 03007KT 10SM BKN011 OVC050 15/15 A2995 RMK AO2 T01500150 $
KAAO 221054Z AUTO 02004KT 10SM CLR M07/M10 A3041 RMK AO2 SLP312 T10671100 TSNO
KAAT 221055Z AUTO 01005KT 9SM CLR 06/04 A3029 RMK AO2 SLP239 T00610044 TSNO
KABE 221051Z 29003KT 10SM OVC100 03/01 A2990 RMK AO2 SLP126 T00330006
KABH 221056Z AUTO 02005KT A3026 RMK AO2 SLPNO $
KABI 221052Z 34008KT 10SM CLR 02/M02 A3038 RMK AO2 SLP283 T00221022
KABQ 221052Z 35009KT 10SM FEW150 SCT200 05/M02 A3038 RMK AO2 SLP252 T00501022
KABR 221053Z AUTO 15005KT 10SM CLR M15/M17 A3024 RMK AO2 SLP268 T11501167 TSNO
KABY 221106Z AUTO 11004KT 9SM FEW024 BKN050 BKN075 13/13 A2996 RMK AO2 T01330128
KACB 221055Z AUTO 33004KT 2SM -SN SCT010 BKN028 OVC036 M03/M04 A3021 RMK AO2 T10281041
KACJ 221055Z AUTO 00000KT 1 3/4SM BR OVC024 11/09 A3002 RMK AO2
KACK 221053Z 16014KT 10SM CLR 12/12 A3000 RMK AO2 SLP157 T01220117 $
KACP 221055Z AUTO 34004KT 10SM BKN065 10/09 A3014 RMK AO2 T01000090
KACQ 221052Z AUTO 20003KT 10SM CLR M11/M12 A3034 RMK AO2
KACT 221051Z AUTO 35013KT 10SM CLR 09/01 A3029 RMK AO2 SLP253 T00890006
KACV 221053Z AUTO 10005KT 10SM BKN120 15/14 A3002 RMK AO2 SLP171 T01500139
KACY 221054Z 18003KT 10SM OVC080 13/12 A2991 RMK AO2 RAE42 SLP128 P0003 T01280122 $
KADC 221052Z AUTO 00000KT 10SM CLR M14/M15 A3024 RMK AO2
KADF 221056Z AUTO 02011KT 10SM CLR 07/M02 A3029 RMK AO2 SLP262 T00721022
KADG 221053Z AUTO 01006KT 10SM OVC031 M01/M07 A3021 RMK AO2 SLP241 T10111067 TSNO
KADH 221055Z AUTO 01007KT 10SM CLR 00/M08 A3040 RMK AO2
KADM 221055Z AUTO 36007KT 10SM CLR 01/M07 A3039 RMK AO2 T00121075
KADS 221035Z AUTO 36011G16KT 10SM CLR 06/M07 A3033 RMK AO2 T00601072
KADU 221055Z AUTO 00000KT 10SM CLR M11/M13 A3037 RMK AO2
KADW 221056Z AUTO 24004KT 10SM SCT015 OVC100 11/10 A2992 RMK AO2 RAE0957DZB0957E0959 SLP139 P0000 T01070095 $
KAEG 221015Z AUTO 33004KT 10SM CLR 00/M06 A3040 RMK AO2 T10051064
KAEJ 221055Z AUTO 26004KT 10SM CLR 03/M04 A3042 RMK AO2 T00331044
KAEL 221052Z AUTO 00000KT 10SM CLR M11/M13 A3032 RMK AO2
KAEX 221053Z 31004KT 8SM CLR 08/08 A3013 RMK AO2 SLP207 T00830083
KAFF 221058Z AUTO 36010KT 10SM CLR M02/M03 A3028 RMK AO2 SLP265 T10221028
KAFJ 220956Z AUTO 29006KT 9SM -RA BKN007 OVC017 02/01 A3007 RMK AO2 RAE35B56UPB54E56SNB35E54 CIG 005V011 SLP188 P0005 T00170006 FZRANO
KAFK 221055Z AUTO 26004KT 10SM CLR M09/M11 A3040 RMK AO2 T10951110
KAFN 221052Z AUTO 00000KT 10SM CLR 01/01 A2993 RMK AO2 SLP147 T00110011 TSNO
KAFO 221055Z AUTO 10SM OVC029 02/02 A3040 RMK AO2
KAFP 221045Z AUTO 32003KT 1 1/4SM BR OVC001 12/11 A2995 RMK AO2 T01170108
KAFW 221053Z 33008KT 10SM CLR 04/M08 A3034 RMK AO2 SLP274 T00441078
KAGC 221053Z VRB06KT 10SM OVC008 02/00 A3004 RMK AO2 RAE29UPB29E32 SLP183 P0002 T00170000
KAGS 221109Z AUTO 34005KT 1 1/2SM BR OVC002 12/12 A2999 RMK AO2 T01170117 $
KAHN 221051Z AUTO 30004KT 6SM -RA BR CLR 09/09 A2999 RMK AO2 RAB19 SLP157 P0000 T00890089
KAHQ 221055Z AUTO 21003KT 10SM SCT110 M10/M12 A3038 RMK AO2 T11051125
KAIA 221053Z AUTO 22003KT 10SM CLR M03/M04 A3013 RMK AO2 SLP224 T10331039
KAIB 221155Z AUTO 14003KT 10SM CLR 01/M03 A3048 RMK AO2
KAIG 221055Z AUTO 29006KT 10SM BKN030 M08/M11 A3022 RMK AO2 T10851115
KAIK 221055Z AUTO 00000KT 1/2SM FG OVC001 08/08 A3001 RMK AO2
KAIO 221055Z AUTO 00000KT 10SM CLR M11/M12 A3038 RMK AO2
KAIT 221054Z AUTO 00000KT 10SM CLR M14/M16 A3025 RMK AO2
KAIZ 221056Z AUTO 00000KT 10SM CLR M04/M08 A3040 RMK AO2 SLP302 T10391083 FZRANO
KAJG 221055Z AUTO 33007KT 10SM CLR M03/M05 A3032 RMK AO2 T10271055
KAJO 221056Z AUTO 00000KT 10SM CLR 14/06 A3005 RMK AO2 SLP182 T01390061
KAJR 221055Z AUTO 36004KT 10SM CLR 09/06 A3000 RMK AO2 T00870064
KAJZ 221055Z AUTO 00000KT 10SM CLR 01/M03 A3046 RMK AO2 T00131031
KAKH 221103Z AUTO 00000KT 1/4SM FG VV002 07/07 A2996 RMK AO2 T00720067
KAKO 221053Z AUTO 24012KT 10SM CLR 03/M02 A3021 RMK AO2 SLP235 T00331022
KAKQ 221054Z AUTO 00000KT 10SM BKN015 OVC100 12/11 A2993 RMK AO2 RAB0958E08 SLP135 P0000 T01170106
KAKR 221054Z AUTO 34007KT 7SM SCT016 OVC023 02/M01 A3011 RMK AO2 SLP200 T00171006
KALB 221051Z COR 19004KT 10SM FEW100 OVC260 04/00 A2989 RMK AO2 SLP122 T00440000
KALI 221053Z AUTO 35013KT 10SM CLR 16/12 A3013 RMK AO2 SLP199 T01560117
KALK 221056Z AUTO 07005KT 10SM CLR 11/M09 A3027 RMK AO2 SLP174 T01111089
KALM 221055Z AUTO 00000KT 10SM CLR 03/M07 A3038 RMK AO2
KALN 221055Z AUTO 32005KT 10SM CLR M04/M07 A3037 RMK AO2 T10381066
KALO 221054Z AUTO 28005KT 10SM CLR M10/M12 A3037 RMK AO2 SLP298 T11001122
KALS 221052Z AUTO 28003KT 10SM CLR M02/M06 A3043 RMK AO2 SLP279 T10171061
KALW 221053Z AUTO 08004KT 8SM SCT060 OVC070 08/07 A3008 RMK AO2 RAE09B27E39 SLP191 P0000 T00780072
KALX 221055Z AUTO 00000KT 10SM CLR 05/04 A3004 RMK AO2 T00450038
KAMA 221053Z 00000KT 10SM CLR 00/M04 A3038 RMK AO2 SLP284 T00001039
KAMG 221103Z AUTO 26003KT 1/4SM FG VV002 16/15 A2998 RMK AO2 T01560150
KAMN 221055Z AUTO 29006KT 10SM OVC046 M01/M08 A3022 RMK AO2 T10151081
KAMW 221053Z AUTO 31003KT 10SM CLR M09/M12 A3038 RMK AO2 SLP301 T10891117
KANB 221102Z AUTO 00000KT 8SM CLR 02/01 A3007 RMK AO2 T00220011
KAND 221104Z AUTO 00000KT 1 3/4SM BR SCT010 07/07 A2999 RMK AO2 VIS 3/4V5 T00670067
KANE 221054Z AUTO 22003KT 10SM CLR M09/M12 A3031 RMK AO2
KANJ 221105Z AUTO 14004KT 2 1/2SM -SN BR BKN023 OVC040 M06/M08 A3015 RMK AO2 UPE1057SNB1057 P0000 T10611083
KANK 221055Z AUTO 33010G14KT 10SM CLR 06/M04 A3048 RMK AO1 T00601037
KANW 221055Z AUTO 20012KT 10SM CLR M02/M08 A3016 RMK AO2 T10201083
KAOH 221053Z AUTO 34011KT 10SM OVC029 00/M05 A3019 RMK AO2 SLP231 T00001050
KAOO 221053Z AUTO 30008KT 10SM BKN045 OVC055 08/01 A2994 RMK AO2 SLP143 T00780006
KAPA 221053Z 17006KT 10SM BKN120 05/M02 A3024 RMK AO2 SLP240 T00501022
KAPC 221104Z AUTO 08003KT 2 1/2SM BR SCT004 11/11 A3014 RMK AO2 T01110106
KAPF 221053Z AUTO 00000KT 10SM CLR 19/19 A2991 RMK AO2 SLP128 T01940189
KAPG 221058Z 00000KT 9SM -RA FEW025 OVC070 10/09 A2991 RMK AO2A RAB07 SLP132 P0000 T01020093 $
KAPN 221054Z AUTO 00000KT 10SM OVC048 M04/M06 A3017 RMK AO2 SNE16 SLP228 P0000 T10391061
KAPS 221055Z AUTO 03005KT 10SM CLR 15/09 A3006 RMK AO2 T01470090
KAPY 221055Z AUTO 32009G14KT 10SM SCT038 OVC060 15/05 A3019 RMK AO2 T01560053
KAQO 221050Z AUTO 32010KT 10SM CLR 08/01 A3034 RMK AO2
KAQP 221054Z AUTO 00000KT 10SM CLR M12/M13 A3030 RMK AO2
KAQR 221055Z AUTO 01009KT 01/M08 A3038 RMK AO2 PWINO
KAQV 221056Z AUTO 00000KT 2SM BR CLR 08/08 A3013 RMK AO2 VIS 1 1/4V4 SLP203 T00830078 $
KAQW 221052Z AUTO 11004KT 10SM CLR 02/M01 A2991 RMK AO2 SLP132 T00171006
KAQX 221055Z AUTO 00000KT 3/4SM BR OVC002 12/12 A2998 RMK AO2 TSNO
KARA 221053Z AUTO 01007KT 10SM CLR 13/10 A3008 RMK AO2 SLP185 T01280100
KARB 221053Z AUTO 32010KT 10SM OVC032 M01/M07 A3020 RMK AO2 SLP233 T10111072
KARG 221056Z AUTO 01009KT 10SM 01/M07 A3037 RMK AO2 SLP287 T00061067 FZRANO $
KARM 221055Z AUTO 36010KT 7SM SCT032 OVC055 15/12 A3013 RMK AO2 LTG DSNT SE T01540123
KARR 221052Z AUTO 30004KT 10SM CLR M08/M10 A3032 RMK AO2 SLP280 T10831100
KART 221056Z AUTO 29005KT 3SM -RA BR FEW007 SCT011 OVC018 02/02 A2997 RMK AO2 SLP153 P0006 T00170017
KARV 221055Z AUTO 29004KT 10SM -SN CLR M07/M10 A3020 RMK AO2 T10711101
KARW 221055Z AUTO 31004KT 2SM BR OVC002 15/15 A2996 RMK AO2
KASD 221053Z AUTO 36005KT 10SM CLR 12/09 A3005 RMK AO2 SLP176 T01220089
KASE 221053Z AUTO 21005KT 10SM OVC100 M01/M03 A3048 RMK AO2 SLP285 T10061028
KASH 221056Z AUTO 31004KT 10SM OVC100 02/01 A2996 RMK AO2 SLP155 T00170006
KASJ 221105Z AUTO 00000KT 10SM -RA BKN018 OVC025 11/11 A2993 RMK AO2 T01100110
KASL 221055Z AUTO 36005KT 10SM CLR 09/06 A3026 RMK AO1 T00860056
KASN 221055Z AUTO 00000KT 10SM CLR 02/02 A3008 RMK AO2 T00220022
KAST 221055Z AUTO 19013G31KT 6SM -RA BR BKN016 OVC022 16/14 A2995 RMK AO2 PK WND 21036/1009 SLP143 P0000 T01560139
KASW 221055Z AUTO 31008KT 10SM OVC038 00/M05 A3023 RMK AO2
KASX 221053Z AUTO 22005KT 10SM OVC022 M08/M12 A3027 RMK AO2 SLP268 T10781117
KATL 221052Z 32009KT 10SM CLR 10/10 A3001 RMK AO2 SLP160 T01000100
KATP 221055Z AUTO 03020KT 9SM SCT021 BKN037 OVC050 22/18 A2991 RMK A01
KATS 221055Z AUTO 00000KT 10SM CLR 01/M05 A3041 RMK AO2
KATT 221051Z AUTO 35008G16KT 320V030 10SM OVC028 12/02 A3026 RMK AO2 SLP244 T01220022 $
KATW 221055Z AUTO 28006KT 10SM OVC030 M06/M11 A3027 RMK AO2
KATY 221053Z AUTO 17007KT 10SM CLR M13/M14 A3023 RMK AO2 SLP272 T11281139
KAUG 221053Z AUTO 22003KT 10SM CLR 03/01 A2997 RMK AO2 SLP151 T00330006
KAUH 221055Z AUTO 00000KT 10SM CLR M08/M11 A3034 RMK AO2 T10841114
KAUM 221055Z AUTO 30003KT 10SM CLR M11/M12 A3032 RMK AO2
KAUN 221055Z AUTO 09007KT 10SM CLR 14/09 A3019 RMK AO1
KAUO 221056Z AUTO 02007KT 10SM CLR 11/10 A3002 RMK AO2 SLP188 T01110100
KAUS 221053Z 36016G23KT 10SM OVC029 13/03 A3024 RMK AO2 SLP237 T01280033
KAUW 221054Z AUTO 30004KT 10SM SCT029 M08/M12 A3025 RMK AO2 SLP270 T10831122
KAVC 221055Z AUTO 00000KT 10SM SCT015 BKN040 OVC050 10/10 A3000 RMK AO2 T01030103
KAVK 221055Z AUTO 29006KT 10SM CLR M05/M11 A3044 RMK AO2
KAVL 221054Z AUTO 34008KT 10SM BKN035 07/06 A3002 RMK AO2 SLP159 T00720056
KAVP 221054Z 21003KT 10SM SCT060 BKN075 OVC110 04/02 A2990 RMK AO2 PRESRR SLP129 T00390022
KAVQ 221055Z AUTO 00000KT 10SM CLR 11/M06 A3012 RMK AO2 T01101065
KAVX 221051Z AUTO 01008KT 10SM CLR 26/M02 A3010 RMK AO2 SLP158 T02611017
KAWG 221055Z AUTO 30004KT 10SM CLR M09/M10 A3039 RMK AO2
KAWM 221053Z AUTO 01012KT 10SM CLR 02/M03 A3030 RMK AO2 SLP261 T00171033
KAWO 221056Z AUTO 14012KT 10SM OVC014 15/14 A2994 RMK AO2 RAE00 SLP142 P0000 T01500139
KAXA 221055Z AUTO 28006KT 10SM CLR M11/M13 A3035 RMK AO2 PWINO
KAXH 221055Z AUTO 01006KT 10SM SCT017 OVC044 15/13 A3014 RMK AO2 T01540128
KAXN 221053Z AUTO 20006KT 10SM CLR M12/M14 A3026 RMK AO2 SLP279 I1000 T11221139
KAXS 221055Z AUTO 36005KT 10SM CLR M01/M07 A3045 RMK AO2 T10081068
KAXV 221054Z AUTO 34011KT 10SM OVC030 00/M01 A3021 RMK AO2
KAXX 221055Z AUTO 25008KT 10SM CLR 01/M04 A3042 RMK AO2 T00071041
KAYS 221055Z AUTO 00000KT 1/4SM FG OVC001 14/12 A2998 RMK AO2 T01350120
KAZC 221055Z AUTO 00000KT 10SM CLR 03/M03 A3040 RMK AO2
KAZE 221055Z AUTO 00000KT 1/4SM FG OVC002 14/13 A2998 RMK AO2 T01400128
KAZO 221053Z 35010KT 10SM OVC032 M02/M09 A3024 RMK AO2 SLP250 T10171094
KBAB 221058Z 00000KT 4SM BR CLR 10/09 A3015 RMK AO2A SLP213 T00990093 $
KBAC 221055Z AUTO 19005KT 10SM CLR M15/M16 A3021 RMK AO2
KBAD 221056Z AUTO 01008KT 10SM CLR 10/03 A3021 RMK AO2 SLP233 T00960031
KBAF 221053Z AUTO 32003KT 10SM SCT085 03/03 A2993 RMK AO2 SLP138 T00330028
KBAX 221055Z AUTO 33011G16KT 10SM OVC041 M02/M08 A3018 RMK AO2 T10171083
KBAZ 221051Z AUTO 01015KT 10SM FEW022 12/04 A3022 RMK AO2 SLP228 T01220039
KBBB 221049Z AUTO 22003KT 10SM M13/M15 A3030 RMK AO2
KBBF 221055Z AUTO 04031KT 4SM HZ 20/16 A3002 RMK A01
KBBG 221055Z AUTO 00000KT 10SM CLR M04/M08 A3037 RMK AO2
KBBP 221055Z AUTO 00000KT 3SM BR BKN055 11/11 A2994 RMK AO2
KBBW 221053Z AUTO 18007KT 10SM CLR M03/M11 A3023 RMK AO2 SLP264 T10331111
KBCB 221055Z AUTO 30010G14KT 270V340 10SM CLR 08/01 A3002 RMK AO2 T00750014
KBCE 221053Z AUTO 34005KT 10SM CLR M03/M04 A3049 RMK AO2 SLP272 T10331044
KBCK 221055Z AUTO 00000KT 10SM CLR M14/M16 A3033 RMK AO2 T11421163
KBDE 221053Z AUTO 21004KT 10SM CLR M15/M17 A3016 RMK AO2 SLP242 T11501167 $
KBDG 221055Z AUTO 01004KT 10SM 03/M02 A3048 RMK AO1 T00261023
KBDH 221055Z AUTO 00000KT 10SM CLR M12/M13 A3031 RMK AO2
KBDL 221051Z 00000KT 10SM FEW080 BKN120 OVC180 05/04 A2992 RMK AO2 SLP133 T00500039
KBDN 221055Z AUTO 20005KT 10SM FEW120 12/08 A3017 RMK AO2
KBDR 221052Z AUTO 00000KT 10SM FEW034 BKN043 OVC095 10/07 A2992 RMK AO2 SLP130 T01000072
KBDU 221053Z AUTO 00000KT 10SM CLR 01/01 A3024 RMK AO2
KBEA 221055Z AUTO 36009KT 10SM CLR 15/13 A3014 RMK AO2 T01500128
KBEC 221055Z AUTO 10SM CLR M06/M10 A3041 RMK AO2 T10601105
KBED 221056Z AUTO 13003KT 10SM OVC090 10/06 A2994 RMK AO2 SLP152 T01000061
KBEH 221053Z AUTO VRB06KT 10SM OVC034 01/M07 A3025 RMK AO2 SLP251 T00061072
KBFD 221053Z AUTO 33011KT 9SM FEW006 BKN010 OVC060 01/M01 A2995 RMK AO2 SNE50 SLP154 P0001 T00061006
KBFF 221053Z AUTO 00000KT 10SM CLR 01/M03 A3017 RMK AO2 SLP223 T00061033
KBFI 221053Z 16006KT 6SM BR FEW022 BKN030 OVC036 13/13 A2995 RMK AO2 RAE45 SLP142 P0002 T01330133
KBFL 221054Z AUTO 13004KT 9SM CLR 12/04 A3015 RMK AO2 SLP207 T01170044
KBFM 221053Z 01008KT 10SM CLR 12/07 A3006 RMK AO2 SLP177 T01220072
KBFW 221102Z AUTO 00000KT 10SM CLR M13/M14 A3022 RMK AO2
KBGD 221051Z AUTO 24003KT 10SM CLR 00/M04 A3039 RMK AO2 SLP292 T00001039
KBGE 221055Z AUTO 00000KT 7SM OVC027 16/16 A2998 RMK AO2
KBGF 221055Z AUTO 36009KT 10SM CLR 03/01 A3013 RMK
KBGM 221053Z AUTO 31007KT 10SM -RA OVC039 04/02 A2988 RMK AO2 RAB09 SLP126 P0001 T00440017
KBGR 221053Z 00000KT 10SM BKN200 03/02 A2999 RMK AO2 SLP155 T00280017
KBHB 221056Z AUTO 20003KT 10SM CLR 06/05 A3000 RMK AO2 SLP162 T00610050 PNO $
KBHC 221055Z AUTO 00000KT 1/4SM FG OVC003 15/15 A2998 RMK AO2
KBHK 221051Z AUTO 00000KT 10SM CLR M02/M04 A2996 RMK AO2 SLP175 T10221044
KBHM 221053Z 00000KT 10SM CLR 03/02 A3010 RMK AO2 SLP194 T00280022
KBID 221056Z AUTO 18014KT 10SM OVC085 14/13 A2993 RMK AO2 LTG DSNT SW SLP138 T01440133
KBIE 221055Z AUTO 00000KT 10SM CLR M10/M12 A3040 RMK AO2 T10961116
KBIF 221058Z AUTO 00000KT 10SM CLR 09/M04 A3035 RMK AO2 VIS 2 1/4 RWY21 SLP240 T00871039 $
KBIH 221056Z AUTO 32007KT 10SM CLR 03/01 A3035 RMK AO2 SLP253 T00280006 TSNO
KBIJ 221055Z AUTO 00000KT 10SM SCT032 SCT040 BKN065 15/13 A2999 RMK AO2
KBIL 221053Z 25020KT 10SM FEW120 SCT200 08/02 A3002 RMK AO2 PK WND 24026/1008 SLP177 T00830017
KBIS 221052Z AUTO 13006KT 10SM CLR M09/M12 A3010 RMK AO2 SLP223 T10941117 $
KBIV 221053Z AUTO 02004KT 10SM OVC031 M01/M08 A3025 RMK AO2 SLP253 T10111078
KBIX 221056Z AUTO 03007KT 10SM FEW170 12/08 A3004 RMK AO2 SLP176 T01180081 CHINO RWY21 $
KBJC 221051Z AUTO 36004KT 10SM CLR 02/00 A3024 RMK AO2
KBJI 221052Z AUTO 18004KT 10SM CLR M15/M16 A3019 RMK AO2 T11481163
KBKB 221054Z AUTO 00000KT 10SM BKN036 11/09 A3012 RMK AO2 SLP227 T01060094
KBKD 221055Z AUTO 36006KT 7SM CLR 04/M06 A3038 RMK AO2 T00391059
KBKE 221053Z AUTO 13015KT 10SM BKN055 OVC070 12/08 A3022 RMK AO2 RAE10 SLP231 P0000 T01220083
KBKF 221058Z 18007KT 10SM FEW110 BKN220 05/M03 A3024 RMK AO2A SLP226 T00471029
KBKL 221104Z 33016KT 10SM BKN033 OVC041 02/M04 A3013 RMK AO2 T00221039
KBKN 221055Z AUTO 01003KT 10SM CLR M05/M09 A3047 RMK AO2
KBKS 221055Z AUTO 34009KT 10SM CLR 17/12 A3011 RMK AO1 T01650120
KBKV 221053Z AUTO 06003KT 1SM BR VV002 17/16 A2995 RMK AO2 SLP139 T01670161
KBKW 221051Z AUTO 32008KT 10SM FEW034 04/M02 A3003 RMK AO2 SLP172 T00441017 TSNO
KBKX 221056Z AUTO 18008KT 10SM CLR M12/M14 A3027 RMK AO2 SLP296 T11171139 FZRANO
KBLF 221052Z AUTO 30006KT 10SM CLR 04/M02 A3003 RMK AO2 SLP162 T00441017
KBLH 221052Z AUTO 00000KT 10SM CLR 17/M09 A3009 RMK AO2 SLP185 T01671094
KBLI 221053Z AUTO 33003KT 4SM -RA BR OVC012 08/08 A2991 RMK AO2 RAB0956 SLP137 P0004 T00830083
KBLM 221056Z AUTO 15005KT 10SM -RA SCT034 SCT075 OVC090 12/12 A2993 RMK AO2 RAB23 SLP141 P0001 T01220117
KBLU 221052Z AUTO 11004KT 10SM CLR 14/01 A3035 RMK AO2 SLP212 T01390006 TSNO
KBLV 221056Z AUTO 33006KT 10SM CLR M03/M08 A3036 RMK AO2 VIS 2 3/4 RWY14R SLP288 T10311078 $
KBMC 221055Z AUTO 00000KT 10SM BKN070 OVC085 08/05 A3040 RMK AO1 T00800047
KBMG 221053Z AUTO 00000KT 10SM CLR M03/M07 A3026 RMK AO2 SLP253 T10331072
KBMI 221056Z AUTO 33007KT 10SM CLR M06/M09 A3033 RMK AO2 SLP298 T10611089
KBML 221052Z AUTO 00000KT 10SM CLR M04/M06 A2992 RMK AO2 SLP150 T10441056
KBMQ 221053Z AUTO 35007KT 10SM CLR 09/01 A3031 RMK AO2 SLP256 T00890006 $
KBMT 221055Z AUTO 36008KT 10SM SCT075 OVC085 14/12 A3014 RMK AO2 T01350115
KBNA 221053Z 36013G19KT 10SM CLR 02/M02 A3022 RMK AO2 SLP235 T00221022
KBNL 221055Z AUTO 00000KT M1/4SM FG 11/11 A2998 RMK AO2
KBNO 221053Z AUTO 00000KT 5SM BR FEW120 06/06 A3025 RMK AO2 SLP244 T00610056 TSNO
KBNW 221055Z AUTO 29004KT 10SM CLR M09/M12 A3037 RMK AO2
KBOI 221053Z 12008KT 10SM OVC085 13/09 A3025 RMK AO2 SLP236 T01280094
KBOK 220956Z AUTO VRB06KT 9SM -RA FEW080 OVC100 16/14 A3005 RMK AO2 SLP189 P0006 T01560144
KBOS 221054Z 17008KT 10SM OVC080 09/08 A2996 RMK AO2 SLP145 T00940083
KBOW 221055Z AUTO 00000KT 3/4SM BR BKN004 16/ A2994 RMK AO2
KBPC 221055Z AUTO 00000KT 10SM CLR M03/M05 A3039 RMK AO2
KBPG 221055Z AUTO 02003KT 10SM CLR 03/M02 A3042 RMK AO2 T00321025
KBPI 221053Z AUTO 05004KT 10SM BKN035 OVC043 02/01 A3040 RMK AO2 RAE40 SLP268 P0000 T00170011
KBPK 221053Z AUTO 00000KT 10SM CLR M02/M07 A3036 RMK AO2 SLP284 T10221067
KBPT 221053Z AUTO 36010KT 10SM OVC080 13/11 A3012 RMK AO2 SLP199 T01330111
KBQK 221055Z AUTO 32005KT 10SM CLR 13/12 A2998 RMK AO2
KBQP 221055Z AUTO 35004KT 10SM CLR 08/05 A3019 RMK AO2 T00810052
KBQX 221055Z AUTO 02031KT 6SM HZ OVC012 17/15 A3005 RMK A01
KBRD 221053Z AUTO 21004KT 10SM CLR M13/M14 A3027 RMK AO2 SLP278 I1000 T11281144
KBRL 221053Z AUTO 33003KT 10SM CLR M07/M09 A3038 RMK AO2 SLP298 T10671094
KBRO 221053Z AUTO 33012G20KT 10SM BKN013 20/18 A3004 RMK AO2 SLP170 T02000183
KBTA 221055Z AUTO 00000KT 10SM CLR M09/M12 A3036 RMK AO2 T10891118
KBTL 221053Z 34010KT 10SM OVC031 M02/M08 A3023 RMK AO2 SLP247 T10171078
KBTM 221053Z AUTO 00000KT 10SM FEW060 SCT110 09/02 A3020 RMK AO2 SLP226 T00890022
KBTP 221056Z AUTO 28004KT 10SM OVC005 01/01 A3005 RMK AO2 RAE06 SLP188 P0001 T00110006 FZRANO
KBTR 221053Z 34004KT 10SM CLR 12/09 A3008 RMK AO2 SLP184 T01170089 $
KBTV 221054Z 19010KT 10SM FEW080 OVC100 08/M02 A2987 RMK AO2 SLP118 T00831017
KBUF 221054Z 30007KT 10SM FEW042 OVC050 02/M02 A3002 RMK AO2 SNE01 SLP172 P0000 T00171017 $
KBUR 221053Z 00000KT 10SM CLR 18/02 A3005 RMK AO2 SLP163 T01780022
KBUU 221050Z AUTO 00000KT 10SM CLR M06/M08 A3031 RMK AO2 T10641079
KBUY 221054Z AUTO 27003KT 8SM OVC070 11/11 A2995 RMK AO2 SLP141 T01060106
KBVE 221051Z AUTO 02008KT 9SM CLR 18/14 A3003 RMK AO2 SLP169 T01780139
KBVN 221055Z AUTO 00000KT 10SM CLR M10/M13 A3031 RMK AO2 T11021130
KBVO 221053Z AUTO 00000KT 10SM CLR M04/M09 A3045 RMK AO2 SNB23E32 SLP313 P0000 T10391094
KBVS 221055Z AUTO 13008KT 10SM OVC012 15/14 A2992 RMK A01
KBVU 221055Z AUTO 00000KT 10SM 13/M06 A3026 RMK AO2
KBVX 221056Z AUTO 34007KT 300V010 10SM CLR 02/M07 A3037 RMK AO2 SLP285 T00171067 FZRANO
KBVY 221053Z AUTO 17004KT 10SM OVC085 11/08 A2995 RMK AO2 SLP138 T01060078
KBWD 221055Z AUTO 36009KT 10SM CLR 05/M04 A3035 RMK AO2
KBWG 221053Z AUTO 34004KT 10SM CLR 01/M03 A3026 RMK AO2 SLP249 T00061033
KBWI 221054Z 21003KT 10SM FEW027 BKN055 OVC110 10/09 A2992 RMK AO2 RAE49 SLP131 P0001 T01000094
KBWW 221055Z AUTO 20012KT 10SM OVC060 M03/M07 A2987 RMK AO2
KBXK 221055Z AUTO 00000KT 10SM CLR 10/M07 A3009 RMK AO1
KBYG 221053Z AUTO 20007KT 10SM CLR 04/M04 A3006 RMK AO2 SLP181 T00441039
KBYI 221053Z AUTO 00000KT 10SM SCT120 06/05 A3032 RMK AO2 SLP259 T00610050
KBYL 221055Z AUTO 32004KT 10SM FEW019 03/01 A3016 RMK AO1
KBYS 221055Z AUTO VRB02KT 10SM CLR 11/M10 A3025 RMK AO2 SLP233 WND DATA ESTMD T01061105 PWINO $
KBYY 221055Z AUTO 01010KT 10SM BKN029 BKN036 16/13 A3010 RMK AO2 T01630133
KBZN 221056Z AUTO 04004KT 10SM OVC060 09/02 A3017 RMK AO2 SLP222 T00940022
KC07 221054Z AUTO 26005KT 1/4SM FG OVC002 A3049 RMK AO2
KC09 221055Z AUTO 31005KT 10SM CLR M07/M09 A3032 RMK AO2 T10681088
KC29 221055Z AUTO 30003KT 10SM CLR M07/M10 A3032 RMK AO1 T10731101
KC35 221055Z AUTO 00000KT 10SM CLR M08/M12 A3032 RMK AO2 T10821120
KC62 221115Z AUTO 34003KT 10SM OVC035 00/M04 A3022 RMK AO2 T10051041
KC75 221055Z AUTO 31006KT 10SM CLR M06/M09 A3036 RMK AO2 T10631090
KC83 221055Z AUTO 00000KT M1/4SM FG VV000 08/08 A3016 RMK AO2
KCAD 221055Z AUTO 32006KT 10SM OVC032 M03/M09 A3017 RMK AO2 T10331095
KCAE 221056Z 30003KT 1/4SM BR OVC002 13/13 A2997 RMK AO2 SFC VIS 1 1/2 SLP146 T01280128
KCAG 221053Z AUTO 00000KT 10SM CLR 00/M02 A3042 RMK AO2 SLP297 T00001017
KCAK 221051Z 34013KT 8SM -SN SCT015 OVC021 02/M02 A3010 RMK AO2 SNB18 SLP199 P0000 T00171017
KCAO 221055Z AUTO 24013G19KT 10SM CLR 01/M03 A3030 RMK AO2 SLP256 T00111033
KCAR 221054Z AUTO 00000KT 10SM CLR M01/M03 A2992 RMK AO2 SLP142 I1000 T10061028
KCAV 221055Z AUTO 00000KT 10SM CLR M11/M12 A3036 RMK AO2 PWINO
KCBE 221046Z AUTO 00000KT 10SM BKN060 BKN070 03/01 A3000 RMK AO1
KCBF 221055Z AUTO 28004KT 10SM CLR M09/M11 A3038 RMK AO2
KCBG 221055Z AUTO 00000KT 10SM CLR M11/M14 A3031 RMK AO2
KCBK 221055Z AUTO 19006KT 10SM CLR 00/M03 A3027 RMK AO2
KCBM 221056Z AUTO 34010KT 10SM CLR 05/03 A3013 RMK AO2 SLP206 T00450030 TSNO $
KCCA 221115Z AUTO 35008G14KT 330V040 10SM CLR 02/M06 A3036 RMK AO2
KCCO 221055Z AUTO 01006KT 10SM CLR 11/08 A3001 RMK AO2 T01070078
KCCR 221053Z AUTO 00000KT 5SM BR CLR 11/09 A3015 RMK AO2 SLP196 T01060094
KCCU 221052Z AUTO 10SM OVC006 M02/M04 A3054 RMK AO2
KCCY 221115Z AUTO 31005KT 10SM CLR M10/M11 A3034 RMK AO2
KCDA 221055Z AUTO 11004KT 10SM CLR 02/M03 A2992 RMK AO2 T00171026
KCDC 221053Z AUTO 00000KT 10SM CLR 01/M01 A3041 RMK AO2 SLP271 T00061011
KCDD 221049Z AUTO 00000KT 10SM CLR M14/M16 A3024 RMK AO2
KCDH 221055Z AUTO 02006G12KT 10SM BKN039 08/M02 A3025 RMK AO2
KCDI 221104Z AUTO 00000KT 10SM SCT036 OVC045 02/00 A3014 RMK AO2 T00200003
KCDJ 221052Z AUTO 00000KT M07/M11 A3044 RMK AO1 SLP323 T10721106
KCDN 221055Z AUTO 00000KT M1/4SM FG OVC002 12/12 A2996 RMK AO2
KCDR 221053Z AUTO 24003KT 10SM OVC100 02/M01 A3012 RMK AO2 SLP224 T00171006 $
KCDS 221053Z AUTO 35005KT 10SM CLR M01/M05 A3044 RMK AO2 SLP307 T10061050
KCDW 221053Z AUTO 00000KT 10SM BKN040 04/03 A2991 RMK AO2 SLP135 T00440033 TSNO
KCEC 221056Z AUTO 32008KT 6SM BR BKN110 14/13 A3001 RMK AO2 RAE29 SLP160 P0001 T01390133
KCEF 221056Z AUTO 04003KT 10SM BKN080 BKN150 03/02 A2992 RMK AO2 SLP139 T00270017
KCEU 221054Z AUTO 00000KT 5SM BR CLR 08/08 A2999 RMK AO2 SLP153 T00780078
KCEW 221053Z AUTO 01003KT 10SM OVC025 14/06 A3002 RMK AO2 SLP164 T01390056
KCEY 221055Z AUTO 35006KT 10SM CLR M02/M05 A3029 RMK AO1
KCEZ 221053Z AUTO 00000KT 10SM CLR M03/M06 A3041 RMK AO2 SLP276 T10281056
KCFD 221055Z AUTO 35009G14KT 10SM CLR 11/06 A3023 RMK AO2 T01120061
KCFE 221055Z AUTO 00000KT 10SM CLR M10/M12 A3033 RMK AO2 T11021121
KCFJ 221055Z AUTO 10SM CLR M06/M08 A3024 RMK AO2 T10561080
KCFS 221055Z AUTO 28008KT 10SM SCT028 SCT036 BKN048 M02/M06 A3019 RMK AO2 T10211063
KCFV 221052Z AUTO 35006KT 10SM CLR M04/M08 A3044 RMK AO2 SLP312 T10441083
KCGC 221055Z AUTO 09003KT 3/4SM BR OVC003 16/15 A2995 RMK AO2
KCGE 221045Z AUTO 00000KT 3SM BR FEW003 BKN024 OVC036 12/11 A2992 RMK A01
KCGI 221053Z AUTO 36011KT 10SM CLR M01/M07 A3035 RMK AO2 SLP279 T10111067
KCGS 221046Z AUTO 00000KT 10SM SCT034 SCT049 OVC120 11/09 A2991 RMK AO1 T01050086
KCHA 221053Z 00000KT 10SM CLR 03/02 A3009 RMK AO2 SLP190 T00330022
KCHK 221055Z AUTO 35007KT 10SM CLR M02/M08 A3040 RMK AO2 T10231083
KCHO 221053Z 00000KT 10SM OVC100 08/06 A2993 RMK AO2 SLP135 T00830056
KCHS 221056Z 32008KT 8SM OVC008 16/15 A2995 RMK AO2 CIG 005V012 SLP141 T01560150
KCIC 221055Z AUTO 00000KT 3/4SM BKN001 09/09 A3018 RMK AO1
KCID 221052Z 00000KT 10SM CLR M10/M12 A3036 RMK AO2 SLP297 T11001122
KCIN 221055Z AUTO 00000KT 8SM CLR M11/M13 A3037 RMK AO2
KCIR 221055Z AUTO 34009KT 10SM CLR M01/M05 A3034 RMK AO2 T10151053
KCIU 221107Z AUTO 20004KT 1 3/4SM -SN BR FEW011 BKN024 OVC041 M07/M08 A3016 RMK AO2 FZRANO PNO $
KCJR 221055Z AUTO 00000KT 10SM OVC095 08/05 A2995 RMK AO2 T00830051
KCKB 221053Z AUTO 30010KT 10SM BKN016 BKN021 OVC028 06/02 A3006 RMK AO2 RAB00E51 SLP176 P0001 T00560022
KCKC 221053Z AUTO 00000KT 10SM CLR M13/M16 A3014 RMK AO2
KCKF 221055Z AUTO 00000KT 1/2SM FG OVC002 14/13 A3001 RMK AO2 T01400126
KCKI 221055Z AUTO 00000KT 7SM BKN035 13/12 A2994 RMK AO2
KCKM 221115Z AUTO 35013G18KT 10SM 05/M01 A3025 RMK A01
KCKN 221054Z AUTO 19005KT 10SM CLR M13/M16 A3024 RMK AO2
KCKP 221055Z AUTO 00000KT 10SM CLR M11/M13 A3036 RMK AO2 T11151126
KCKV 221052Z AUTO 35006KT 10SM CLR M01/M06 A3027 RMK AO2 SLP253 T10061056
KCKZ 221055Z AUTO 00000KT 7SM -RA FEW033 SCT047 BKN065 05/05 A2990 RMK AO2
KCLE 221051Z 33011KT 9SM -SN OVC027 02/M03 A3016 RMK AO2 SLP218 P0000 T00171028
KCLI 221101Z AUTO 31004KT 10SM OVC035 M05/M11 A3030 RMK AO2
KCLK 221055Z AUTO 31003KT 10SM CLR M02/M10 A3043 RMK AO2
KCLL 221053Z AUTO 36013KT 10SM CLR 12/08 A3020 RMK AO2 SLP225 T01220078
KCLM 221053Z AUTO 00000KT 2 1/2SM -RA BR FEW002 SCT046 OVC085 09/09 A2989 RMK AO2 VIS 1 1/4V4 SLP122 P0003 T00940089
KCLS 221055Z AUTO 19010G15KT 10SM OVC040 15/15 A2997 RMK AO2
KCLT 221052Z 32005KT 1/4SM R18C/1800V2000FT BR VV001 09/09 A2997 RMK AO2 SFC VIS 3/4 SLP146 T00890089
KCLW 221055Z AUTO 00000KT 5SM BR SCT003 SCT013 17/17 A2993 RMK AO2
KCMA 221055Z AUTO 04008KT 10SM CLR 20/02 A3002 RMK AO2 SLP172 T02000017 $
KCMD 221055Z AUTO 34004KT 10SM CLR 04/01 A3012 RMK AO2 T00410005
KCMH 221051Z 32008KT 10SM BKN044 01/M02 A3016 RMK AO2 SLP217 T00111017 $
KCMI 221053Z AUTO 31006KT 10SM CLR M07/M08 A3032 RMK AO2 SLP278 T10671083
KCMR 221055Z AUTO 16010KT 10SM CLR 02/M04 A3040 RMK AO2
KCMX 221053Z AUTO 27008KT 10SM OVC020 M04/M09 A3017 RMK AO2 SLP234 T10441094 $
KCMY 221055Z AUTO 00000KT 10SM CLR M10/M12 A3034 RMK AO2 T10981122
KCNB 221054Z AUTO 18004KT 10SM CLR M09/M12 A3030 RMK AO2 T10951123
KCNC 221055Z AUTO 31005KT 10SM CLR M09/M11 A3038 RMK AO2
KCNI 221055Z AUTO 32005KT 10SM CLR 10/10 A3003 RMK AO2
KCNK 221055Z AUTO 00000KT CLR M08/M11 A3040 RMK AO2 SLP311 T10831111
KCNM 221053Z AUTO 29004KT 10SM CLR 01/M03 A3041 RMK AO2 SLP278 T00061028
KCNO 221053Z AUTO 00000KT 8SM CLR 12/07 A3006 RMK AO2 SLP174 T01220067
KCNU 221052Z AUTO 00000KT 10SM CLR M05/M09 A3042 RMK AO2 SLP309 T10501094
KCNY 221053Z AUTO 00000KT 10SM CLR 01/M12 A3041 RMK AO2 SLP295 T00111117
KCOD 221056Z AUTO 27015G21KT 10SM SCT120 13/03 A3013 RMK AO2 SLP196 T01330028
KCOE 221056Z AUTO VRB03KT 10SM SCT017 BKN023 OVC029 10/09 A3008 RMK AO2 SLP211 T01000089
KCOF 221058Z AUTO 35004KT 10SM OVC013 20/20 A2992 RMK AO2 SLP136 T01980198 $
KCOM 221055Z AUTO 36009KT 10SM CLR 05/M04 A3036 RMK AO2 T00461037
KCON 221051Z AUTO 00000KT 10SM CLR M01/M02 A2995 RMK AO2 SLP144 T10061022
KCOQ 221055Z AUTO 00000KT 10SM CLR M12/M14 A3023 RMK AO2
KCOS 221054Z 01009KT 10SM SCT250 00/M03 A3027 RMK AO2 SLP259 T00001028
KCOT 221053Z AUTO 36012G17KT 10SM CLR 13/03 A3023 RMK AO2 SLP231 T01330033
KCOU 221054Z AUTO 35005KT 10SM CLR M06/M09 A3038 RMK AO2 SLP295 T10561094
KCPC 221045Z AUTO 00000KT 7SM BKN004 BKN009 OVC015 14/14 A2993 RMK AO2 T01410137
KCPK 221055Z AUTO 00000KT 7SM CLR 13/13 A2990 RMK AO2 T01330131
KCPR 221053Z AUTO 21017KT 10SM CLR 07/01 A3017 RMK AO2 SLP205 T00720011
KCPS 221053Z AUTO 34007KT 10SM CLR M03/M08 A3038 RMK AO2 SLP292 T10281078
KCPT 221055Z AUTO 01012KT 10SM CLR 06/M06 A3033 RMK AO2
KCPU 221055Z AUTO 13003KT 10SM CLR 11/09 A3018 RMK AO2 T01050092
KCPW 221052Z AUTO 31004KT 10SM CLR 00/M12 A3060 RMK AO2
KCQB 221050Z AUTO 03005KT 10SM CLR M03/M09 A3042 RMK AO2 T10251092
KCQC 221053Z AUTO 28005KT 10SM CLR M01/M05 A3040 RMK AO2 SLP268 T10061050
KCQF 221055Z AUTO 01005KT 10SM CLR 11/06 A3003 RMK AO2
KCQM 221055Z AUTO 00000KT 10SM CLR M16/M17 A3022 RMK AO2
KCQT 221047Z AUTO 05003KT 10SM CLR 21/M01 A3002 RMK AO2 SLP163 T02061006
KCQW 221115Z AUTO 31004KT 8SM BKN003 BKN065 12/12 A2995 RMK AO2
KCQX 221052Z AUTO VRB06KT 10SM FEW022 SCT044 BKN055 13/12 A3001 RMK AO2 RAB16E44 SLP162 P0000 T01330117
KCRE 221053Z AUTO 33005KT 7SM BKN003 16/16 A2992 RMK AO1 SLP131 T01560156
KCRG 221053Z AUTO 32003KT 8SM CLR 14/13 A2994 RMK AO2 SLP139 T01440133
KCRP 221051Z 02015G27KT 10SM BKN023 OVC090 18/14 A3010 RMK AO2 PK WND 04027/1043 SLP192 T01780139
KCRQ 221053Z AUTO 23003KT 10SM CLR 17/04 A3001 RMK AO2 SLP160 T01720039
KCRS 221053Z AUTO 36015G20KT 10SM CLR 09/M03 A3030 RMK AO2 SLP258 T00891028
KCRW 221054Z 33006KT 10SM BKN020 OVC025 06/02 A3011 RMK AO2 SLP195 T00560017
KCRX 221055Z AUTO 34008KT 10SM CLR 03/M02 A3021 RMK AO2
KCSG 221051Z AUTO 00000KT 10SM CLR 14/10 A3000 RMK AO2 SLP155 T01390100
KCSM 221053Z AUTO 34006KT 10SM CLR M02/M08 A3042 RMK AO2 SLP307 T10221083
KCSQ 221055Z AUTO 36003KT 10SM CLR M09/M11 A3038 RMK AO2
KCSV 221053Z AUTO 34007KT 10SM CLR 03/00 A3011 RMK AO2 SLP197 T00330000
KCTB 221056Z AUTO 27023G30KT 10SM CLR 09/05 A2986 RMK AO2 PK WND 26040/1020 SLP128 T00940050
KCTJ 221055Z AUTO 34006KT 10SM CLR 08/06 A3008 RMK AO2 T00800060
KCTY 221055Z AUTO 00000KT 1/2SM FG OVC002 13/ A3000 RMK AO2 T0126////
KCTZ 221045Z AUTO 32005KT 5SM BKN005 OVC011 14/14 A2994 RMK AO2 T01350135
KCUB 221104Z AUTO 26004KT 1/2SM FG VV002 12/12 A2999 RMK AO2 T01170117
KCUH 221055Z AUTO 03006KT 10SM CLR M03/M09 A3042 RMK AO2 T10261090
KCUL 221055Z AUTO 31006KT 10SM CLR M03/M05 A3032 RMK AO2 T10331054
KCUT 221053Z AUTO 29009KT 10SM FEW110 07/M08 A3009 RMK AO2 SLP188 T00671078
KCVB 221055Z AUTO 36013G20KT 10SM CLR 12/02 A3025 RMK AO2 T01220015
KCVC 221055Z AUTO 00000KT 1 3/4SM VV007 09/08 A2999 RMK AO2
KCVG 221052Z 31008KT 9SM CLR M02/M04 A3022 RMK AO2 SLP236 T10171039
KCVH 221055Z AUTO 11003KT 10SM CLR 11/09 A3013 RMK A01
KCVN 221056Z AUTO 32006KT 10SM CLR M03/M05 A3039 RMK AO2 SLP298 T10281050 FZRANO
KCVO 221056Z AUTO 00000KT 7SM OVC060 14/13 A3002 RMK AO2 RAE52 SLP165 P0001 T01390133
KCVS 221058Z AUTO 30006KT 10SM CLR 01/M02 A3040 RMK AO2 SLP283 T00071024 $
KCVW 221100Z AUTO 01010KT 10SM BKN055 13/12 A3010 RMK A01
KCVX 221055Z AUTO 33014G19KT 10SM OVC041 M01/M10 A3022 RMK AO2 T10121097
KCWA 221055Z AUTO 30004KT 7SM BKN027 M08/M11 A3028 RMK AO2
KCWC 221055Z AUTO 36011KT 10SM CLR 03/M10 A3042 RMK AO2 T00301105
KCWF 221055Z AUTO 36007KT 10SM OVC095 12/11 A3011 RMK AO2 T01240108
KCWI 221056Z AUTO 30007KT 10SM CLR M09/M11 A3036 RMK AO2 SLP311 T10941111 FZRANO
KCWN 221058Z AUTO 30005KT 10SM CLR 07/M07 A3023 RMK AO2 SLP132 T00701070
KCWV 221055Z AUTO 00000KT 1/4SM FG OVC002 15/15 A2998 RMK AO2 T01480146
KCXE 221055Z AUTO 00000KT 10SM BKN065 OVC090 10/10 A2994 RMK AO1 P0001 T01000100
KCXO 221053Z AUTO 01008KT 10SM OVC060 14/13 A3016 RMK AO2 SLP210 T01440128
KCXP 221055Z AUTO 00000KT 10SM CLR 04/03 A3037 RMK AO2
KCXU 221055Z AUTO 00000KT 5SM SCT011 OVC031 15/15 A2999 RMK AO1 T01490145
KCXY 221056Z AUTO 00000KT 10SM SCT065 BKN080 OVC110 05/02 A2992 RMK AO2 SLP132 T00500022
KCYS 221053Z AUTO 29012G19KT 10SM BKN110 09/01 A3022 RMK AO2 SLP209 T00890011 $
KCZL 221055Z AUTO 35005KT 10SM CLR 08/01 A3006 RMK AO2 T00810012
KCZT 221055Z AUTO 35008G14KT 10SM CLR 12/02 A3025 RMK AO2
KCZZ 221052Z AUTO 08009KT 16/00 A3011 RMK AO1 SLP164 T01610000
KD07 221056Z AUTO 17017KT M07/M11 A3004 RMK AO1 SLP215 T10721106
KD25 221055Z AUTO 26004KT 10SM -SN OVC024 M09/M11 A3020 RMK AO2 T10901113
KD39 221053Z AUTO 00000KT 10SM CLR M12/M14 A3028 RMK AO2 T11251140
KD50 221055Z AUTO 16006KT 10SM OVC055 M07/M12 A2991 RMK AO2
KD55 221115Z AUTO 21012KT 10SM OVC060 M12/M13 A3009 RMK AO2
KD60 221055Z AUTO 17006G12KT 10SM OVC060 M07/M11 A2993 RMK AO2
KD73 221055Z AUTO 00000KT 1SM BR VV007 07/07 A3000 RMK AO2 T00730072
KD95 221054Z AUTO 32007KT 10SM OVC043 M01/M07 A3019 RMK AO2 T10141072
KDAA 221056Z AUTO 00000KT 10SM FEW070 BKN110 09/08 A2993 RMK AO2 SLP139 P0001 T00930082 $
KDAB 221053Z 26003KT 1/2SM FG BKN010 BKN021 16/16 A2995 RMK AO2 SLP139 T01560156 RVRNO $
KDAG 221050Z AUTO 27010KT 10SM CLR 12/M06 A3023 RMK AO2 SLP221 T01171056
KDAL 221053Z 34008KT 10SM CLR 07/M07 A3032 RMK AO2 SLP265 T00721072
KDAN 221053Z AUTO 21003KT 6SM BR OVC075 09/09 A2996 RMK AO2 SLP137 T00890089
KDAW 221051Z AUTO 33003KT 10SM CLR 01/01 A2996 RMK AO2 SLP146 T00110011
KDAY 221056Z 31007KT 10SM OVC031 M01/M02 A3020 RMK AO2 SLP233 T10061022
KDBN 221055Z AUTO 00000KT 1/2SM FG OVC002 12/11 A3001 RMK AO2
KDBQ 221053Z AUTO 00000KT 10SM CLR M08/M11 A3033 RMK AO2 SLP288 T10831111
KDCA 221052Z 21003KT 10SM FEW075 BKN110 11/09 A2993 RMK AO2 SLP136 T01110094
KDCM 221115Z AUTO 00000KT 5SM BR SCT002 08/08 A2998 RMK AO2
KDCU 221053Z AUTO 36009KT 10SM CLR 05/02 A3014 RMK AO2 SLP207 T00500022 $
KDCY 221055Z AUTO 33004KT 10SM CLR M03/M06 A3030 RMK AO2 T10311058
KDDC 221052Z AUTO 20008KT 10SM CLR M04/M10 A3035 RMK AO2 SLP292 T10391100
KDDH 221054Z AUTO 00000KT 10SM CLR 01/M02 A2987 RMK AO2 SLP119 T00111017
KDEC 221054Z AUTO 32007KT 10SM CLR M04/M08 A3034 RMK AO2 SLP281 T10441078
KDED 221055Z AUTO 00000KT 10SM SCT007 BKN019 16/16 A2995 RMK AO2
KDEH 221055Z AUTO 32006KT 10SM CLR M09/M11 A3031 RMK AO2
KDEN 221053Z 27003KT 10SM FEW150 SCT220 02/M02 A3024 RMK AO2 SLP232 T00221017
KDEQ 221053Z AUTO 35003KT 10SM CLR 06/01 A3028 RMK AO2 SLP253 T00610011
KDET 221053Z 35013KT 10SM OVC037 M01/M08 A3019 RMK AO2 SLP230 T10061083
KDEW 221053Z AUTO 00000KT 10SM OVC011 06/06 A3008 RMK AO2 SLP198 T00610061
KDFI 221053Z AUTO 34010KT 10SM OVC036 00/M07 A3022 RMK AO2 SLP240 T00001072 $
KDFW 221053Z 36016KT 10SM CLR 07/M07 A3031 RMK AO2 SLP260 T00721072
KDGW 221053Z AUTO 17003KT 10SM CLR M02/M03 A3014 RMK AO2 SLP218 T10171028
KDHN 221053Z AUTO 36004KT 10SM BKN055 13/13 A3001 RMK AO2 SLP161 T01330128 $
KDHT 221053Z AUTO 25006KT 10SM CLR 00/M03 A3036 RMK AO2 SLP274 T00001033
KDIJ 221056Z AUTO 10SM OVC021 07/05 RMK AO2 SLPNO T00720050 $
KDIK 221056Z AUTO 20014KT 10SM FEW080 M03/M08 A2993 RMK AO2 SLP171 T10281083
KDKB 221055Z AUTO 30006KT 10SM CLR M08/M10 A3032 RMK AO2 T10761098
KDKK 221053Z AUTO 33009KT 10SM OVC027 02/M02 A3005 RMK AO2 UPB04E13 SLP180 P0000 T00171017
KDKR 221050Z AUTO 36008KT 10SM 12/09 A3024 RMK AO2
KDKX 221055Z AUTO 00000KT M1/4SM FG OVC001 04/04 A3010 RMK A01
KDLF 221057Z 31007KT 10SM CLR 08/00 A3033 RMK SLP265 AO2A T00820002
KDLH 221055Z 26005KT 10SM CLR M13/M14 A3022 RMK AO2 SLP266 T11331144
KDLL 221055Z AUTO 00000KT 10SM CLR M08/M12 A3031 RMK AO2 T10831118
KDLN 221053Z AUTO 17008KT 10SM FEW049 06/01 A3022 RMK AO2 SLP229 T00560006
KDLO 221055Z AUTO 09003KT 10SM CLR 06/04 A3015 RMK AO2 T00570038
KDLP 221055Z AUTO 05007G14KT 020V080 10SM FEW085 BKN110 20/14 A3001 RMK A01
KDLS 221053Z AUTO 00000KT 3SM BR SCT006 BKN070 OVC085 08/07 A3012 RMK AO2 RAB34E46 SLP199 P0000 T00780072
KDLZ 221059Z AUTO 33010KT 10SM OVC037 00/M03 A3017 RMK AO2
KDMA 221058Z AUTO 16007KT 10SM CLR 14/M07 A3012 RMK AO2 SLP171 T01381070 $
KDMH 221054Z AUTO 12/09 A2991 RMK AO1 SLP128 T01170094
KDMN 221053Z AUTO 07011KT 10SM CLR 08/M07 A3035 RMK AO2 SLP228 T00781072 $
KDMO 221053Z AUTO 31004KT 10SM CLR M06/M07 A3042 RMK AO2 SLP310 T10561072
KDMW 221045Z AUTO 25005KT 10SM SCT120 10/07 A2991 RMK AO2
KDNA 221055Z AUTO 14006KT 10SM CLR 10/M04 A3037 RMK AO2 PWINO
KDNL 221100Z AUTO 32004KT 3SM BR OVC003 12/12 A2999 RMK AO2 T01220117
KDNN 221055Z AUTO 34008KT 10SM CLR 07/02 A3008 RMK AO2
KDNS 221055Z AUTO 00000KT 10SM CLR M11/M12 A3038 RMK AO2
KDNV 221055Z AUTO 33007KT 10SM CLR M05/M08 A3028 RMK AO2 T10481081
KDOV 221106Z 22006KT 4SM R01/5500FT +RA BR SCT008 OVC026 12/11 A2991 RMK AO2A CIG 008V026 SLP132 $
KDPA 221052Z 33004KT 10SM CLR M07/M09 A3031 RMK AO2 SLP274 T10671094
KDPL 221045Z AUTO 00000KT 2 1/2SM BR BKN017 BKN023 OVC120 12/12 A2993 RMK AO2
KDQH 221055Z AUTO 00000KT 1/2SM FG OVC005 15/15 A3001 RMK AO2
KDRA 221055Z AUTO 09005KT 10SM CLR 13/01 A3028 RMK AO2 SLP222 T01280011
KDRI 221055Z AUTO 00000KT 10SM SCT038 10/10 A3016 RMK AO2 T01030096
KDRM 221053Z AUTO 00000KT 10SM OVC050 M05/M12 A3017 RMK AO2 T10551124
KDRO 221053Z AUTO 02005KT 10SM CLR M04/M08 A3040 RMK AO2 SLP291 T10441083
KDRT 221053Z AUTO 28008KT 10SM CLR 10/01 A3033 RMK AO2 SLP260 T01000011
KDSM 221054Z 31004KT 10SM CLR M07/M12 A3040 RMK AO2 SLP306 T10721117
KDSV 221102Z AUTO 32006KT 3SM -SN BR OVC003 01/M01 A3001 RMK AO2 P0000 T00061006
KDTA 221055Z AUTO 06004KT 10SM CLR 01/M02 A3042 RMK AO1
KDTL 221053Z AUTO 00000KT 10SM CLR M12/M13 A3023 RMK AO2
KDTN 221053Z AUTO 01007KT 10SM CLR 11/04 A3022 RMK AO2 SLP233 T01060039
KDTO 221053Z AUTO 34010KT 10SM CLR 03/M07 A3035 RMK AO2 SLP276 T00331072
KDTS 221053Z AUTO 36009KT 10SM OVC055 16/07 A2999 RMK AO2 SLP154 T01610067
KDTW 221053Z 34011KT 8SM -SN OVC035 M01/M07 A3020 RMK AO2 SNB49 SLP233 P0000 T10061072
KDUA 221055Z AUTO 32011KT 240V360 10SM 02/M07 A3035 RMK AO2
KDUB 221055Z AUTO 34008KT 10SM SCT033 SCT041 BKN048 04/01 A3028 RMK AO2
KDUC 221055Z AUTO 03009KT 10SM CLR 01/M09 A3041 RMK AO2 T00081094
KDUG 221056Z AUTO 10008KT 10SM CLR 13/M09 A3025 RMK AO2 SLP191 T01331094 $
KDUH 221054Z AUTO 32005KT 10SM OVC034 01/M05 A3020 RMK AO2 T00081052
KDUJ 221053Z AUTO 30007KT 3SM -SN BR OVC004 01/M01 A2997 RMK AO2 SLP159 P0002 T00061006
KDUX 221055Z AUTO 26005KT 10SM CLR M03/M05 A3036 RMK AO2 T10271053
KDVK 221055Z AUTO 34007KT 10SM CLR M01/M03 A3022 RMK AO2
KDVL 221056Z AUTO 19009KT 10SM FEW050 OVC070 M11/M13 A3013 RMK AO2 SLP251 T11111133 FZRANO
KDVN 221052Z AUTO 29004KT 10SM CLR M08/M11 A3039 RMK AO2 SLP297 T10781106 $
KDVO 221055Z AUTO 21006KT 4SM BR CLR 12/11 A3015 RMK AO2
KDVP 221100Z AUTO 19005KT 10SM CLR M14/M29 A3030 RMK AO2 T11361288
KDVT 221053Z AUTO 00000KT 10SM CLR 14/M02 A3009 RMK AO2 SLP174 T01391022
KDWH 221053Z AUTO 01005KT 10SM FEW070 15/13 A3015 RMK AO2 SLP207 T01500128
KDWX 221055Z AUTO 11004KT 10SM OVC039 02/01 A3044 RMK AO2 T00170005
KDXR 221053Z AUTO 00000KT 10SM FEW040 BKN075 OVC120 06/04 A2992 RMK AO2 SLP132 T00610039
KDXX 221054Z AUTO 18003KT 10SM CLR M12/M14 A3030 RMK AO2
KDYA 221115Z AUTO 00000KT 10SM 03/02 A3009 RMK AO2 T00310020
KDYB 221115Z AUTO 34003KT 7SM OVC004 15/14 A2997 RMK AO1
KDYL 221054Z AUTO VRB03KT 10SM BKN037 OVC046 08/07 A2989 RMK AO2 SLP125 T00830067
KDYR 221056Z AUTO 36009KT 10SM CLR 00/M04 A3031 RMK AO2 SLP284 T00001044 FZRANO PNO $
KDYS 221056Z AUTO 32008KT 10SM CLR 01/M02 A3038 RMK AO2 SLP281 T00141022 $
KDYT 221053Z AUTO 25007KT 10SM CLR M08/M11 A3030 RMK AO2
KDZB 221055Z AUTO 35008G16KT 10SM CLR 11/02 A3030 RMK AO2 LTG DSNT SE T01050022
KE11 221055Z AUTO 02005KT 10SM CLR 01/M04 A3039 RMK AO2 T00081040
KE16 221055Z AUTO 35005KT 5SM CLR 11/10 A3016 RMK AO2 PWINO PNO
KE38 221055Z AUTO 00000KT 10SM CLR 03/M06 A3045 RMK AO2 T00281057
KE80 221055Z AUTO 00000KT 10SM CLR 00/M05 A3039 RMK AO2 T00001051
KEAN 221054Z AUTO 24007KT 10SM CLR 11/02 A3017 RMK AO2
KEAR 221056Z AUTO 19006KT 10SM CLR M06/M10 A3031 RMK AO2 SLP285 T10561100 FZRANO
KEAT 221055Z AUTO 00000KT 8SM FEW090 02/02 A3008 RMK AO2 SLP195 T00220017
KEAU 221056Z AUTO 00000KT 10SM CLR M12/M15 A3032 RMK AO2 SLP284 T11221150
KEBA 221055Z AUTO 35003KT 2 1/2SM BR CLR 08/06 A3001 RMK AO2 T00830063
KEBG 221055Z AUTO 34011G14KT 10SM SCT021 18/13 A3010 RMK AO2 T01750132
KEBS 221055Z AUTO 27006KT 10SM CLR M11/M14 A3035 RMK AO2
KECG 221054Z AUTO 10004KT 10SM FEW004 SCT075 BKN110 16/16 A2988 RMK AO2 RAE42 PRESFR SLP119 P0002 T01560156
KECP 221101Z AUTO 34008KT 9SM OVC005 16/14 A2997 RMK AO2 T01560144
KECS 221055Z AUTO 00000KT 10SM CLR 00/M03 A3012 RMK AO2
KEDC 221055Z AUTO 36015G18KT 10SM OVC028 11/03 A3026 RMK AO2
KEDE 221105Z AUTO 00000KT 1 3/4SM BR SCT022 15/14 A2990 RMK AO2 VIS 3/4V4 T01510144
KEDJ 221055Z AUTO 35012KT 10SM OVC025 M01/M04 A3018 RMK AO1
KEDN 221055Z AUTO 36005KT 10SM SCT044 SCT055 SCT110 12/08 A3000 RMK AO2 T01220078
KEDU 221055Z AUTO 34004KT 7SM CLR 10/10 A3018 RMK AO1
KEDW 221058Z AUTO 00000KT 10SM CLR 05/M14 A3023 RMK AO2 SLP230 T00491140
KEEN 221056Z AUTO 00000KT 10SM CLR M01/M02 A2994 RMK AO2 SLP162 T10111022 FZRANO
KEEO 221053Z AUTO 00000KT 10SM BKN100 01/M01 A3043 RMK AO2 SLP284 T00111006
KEET 221053Z AUTO 34003KT 10SM CLR 07/03 A3006 RMK AO2 SLP177 T00670028
KEFD 221050Z 01011KT 10SM FEW015 BKN030 OVC050 16/13 A3012
KEFK 221055Z AUTO 23005KT 10SM BKN090 02/M03 A2989 RMK AO2 T00211028
KEFT 221055Z AUTO 28005KT 10SM CLR M07/M10 A3030 RMK AO2
KEGE 221056Z AUTO 00000KT 10SM OVC110 00/M02 A3049 RMK AO2 SLP338 T00001017 FZRANO
KEGI 221106Z AUTO 34006KT 10SM SCT024 BKN050 13/06 A2999 RMK AO2 SLP157 $
KEGV 221055Z AUTO 26003KT 10SM -SN OVC025 M08/M11 A3019 RMK AO2 T10801113
KEHA 221055Z AUTO 21008KT 10SM CLR 02/M01 A3030 RMK AO2 T00171015
KEHC 221055Z AUTO 03032KT 4SM HZ BKN015 OVC022 19/17 A2998 RMK A01
KEHO 221105Z AUTO 00000KT 1/4SM FG BKN001 05/05 A2998 RMK AO2 T00500050
KEHR 221056Z AUTO 33007KT 10SM CLR M02/M05 A3032 RMK AO2 SLP280 T10171050 FZRANO
KEHY 221055Z AUTO 25025G34KT 10SM BKN022 05/01 A3028 RMK AO2
KEIK 221100Z AUTO 00000KT 10SM CLR M01/M02 A3029 RMK AO2 T10101017
KEIR 221055Z AUTO 07029KT 5SM HZ BKN016 OVC022 18/14 A2999 RMK A01
KEKN 221051Z AUTO 28012KT 10SM SCT043 BKN050 BKN060 07/M01 A3001 RMK AO2 SLP172 T00671011 TSNO
KEKO 221056Z AUTO 06003KT 10SM CLR 02/01 A3040 RMK AO2 SLP283 T00220006 TSNO
KEKQ 221056Z AUTO 02015KT 10SM OVC013 04/02 A3019 RMK AO2 SLP253 T00390017 PNO $
KEKS 221055Z AUTO 19016KT 10SM OVC050 07/02 A3027 RMK AO2
KEKY 221056Z AUTO 35005KT 10SM CLR 05/02 A3007 RMK AO2 SLP208 T00500017
KELA 221055Z AUTO 01009KT 10SM SCT012 BKN032 OVC055 16/14 A3015 RMK AO2 T01560140
KELD 221053Z AUTO 01008KT 10SM CLR 08/03 A3024 RMK AO2 SLP239 T00830033
KELK 221055Z AUTO 35005KT 10SM CLR M03/M08 A3040 RMK AO2 T10291076
KELM 221053Z 35008KT 9SM -RA BKN022 BKN034 OVC042 06/03 A2992 RMK AO2 RAB30 SLP137 P0000 T00610028
KELN 221053Z AUTO 04004KT 5SM BR OVC060 04/02 A3006 RMK AO2 SLP191 T00390022 $
KELO 221054Z AUTO 00000KT 10SM -SN SCT010 M13/M14 A3020 RMK AO2
KELP 221051Z 00000KT 10SM FEW250 09/M03 A3036 RMK AO2 SLP235 T00941028
KELY 221053Z AUTO 17012KT 10SM CLR M01/M03 A3046 RMK AO2 SLP276 T10061028
KELZ 221056Z AUTO 31011KT 1 1/2SM -SN BKN005 OVC015 02/M01 A2995 RMK AO2 SLP154 P0002 T00221006
KEMK 221055Z AUTO 08018KT 7SM SCT024 BKN030 OVC075 24/17 A2997 RMK A01
KEMM 221055Z AUTO 23006KT 10SM BKN020 OVC028 03/02 A3043 RMK AO2
KEMP 221053Z AUTO 35004KT 10SM CLR M07/M11 A3042 RMK AO2 SLP315 T10721111
KEMV 221055Z AUTO 00000KT 3SM UP OVC019 10/10 A2995 RMK AO2 P0008
KEND 221056Z AUTO 35004KT M M CLR M04/M10 A3042 RMK AO2 SLP311 T10411101 RVRNO $
KENL 221055Z AUTO 33006KT 10SM CLR M02/M05 A3035 RMK AO2 T10251054
KENV 221056Z AUTO 22003KT 10SM CLR 03/M01 A3039 RMK AO2 SLP298 T00331006
KENW 221053Z AUTO 29005KT 10SM CLR M07/M11 A3031 RMK AO2 SLP274 T10671106 $
KEOE 221055Z AUTO 00000KT 1/2SM FG OVC002 06/06 A2999 RMK AO2
KEOK 221055Z AUTO 33004KT 10SM CLR M06/M10 A3039 RMK AO2
KEPH 221102Z AUTO 00000KT 7SM OVC004 04/02 A3008 RMK AO2 T00440017
KEQA 221055Z AUTO 05003KT 10SM CLR M06/M09 A3040 RMK AO2
KEQY 221053Z AUTO 33004KT 1/4SM FG VV002 11/11 A2995 RMK AO2 SLP152 T01060106
KERI 221051Z 34007KT 310V010 8SM FEW021 OVC029 02/M02 A3007 RMK AO2 UPB22E32 SLP189 P0000 T00171017 VISNO NE $
KERV 221055Z AUTO 35008KT 10SM CLR 08/01 A3028 RMK AO2 T00750012
KERY 221054Z AUTO 25005KT 10SM OVC048 M06/M06 A3016 RMK AO2 T10561060
KESC 221056Z AUTO 29007KT 10SM BKN045 M06/M09 A3025 RMK AO2 SLP269 T10561089 FZRANO
KESF 221053Z AUTO 35005KT 9SM CLR 10/09 A3013 RMK AO2 SLP202 T01000089
KESN 221045Z 23004KT 3SM RA BKN009 OVC015 13/09 A2995
KEST 221052Z AUTO 29005KT 10SM CLR M13/M14 A3034 RMK AO2 SLP298 T11331144
KETB 221055Z AUTO 31004KT 10SM CLR M08/M11 A3029 RMK AO2
KETH 221056Z AUTO 17006KT 10SM CLR M12/M14 A3030 RMK AO2
KETN 221055Z AUTO 35007KT 10SM CLR 03/M06 A3036 RMK AO2 T00311061
KEUF 221058Z AUTO 00000KT 10SM OVC019 14/13 A2999 RMK AO2 SLP154 I1000 T01390133
KEUG 221054Z AUTO 21005KT 10SM FEW100 13/13 A3003 RMK AO2 RAE0957 SLP166 P0000 T01280128
KEUL 221056Z AUTO 17003KT 10SM OVC080 12/10 A3026 RMK AO2 SLP249 T01170100
KEVM 221055Z AUTO 00000KT 10SM CLR M15/M17 A3023 RMK AO2
KEVU 221055Z AUTO 00000KT 10SM CLR M07/M13 A3039 RMK AO2
KEVV 221054Z AUTO 34007KT 10SM CLR M02/M05 A3031 RMK AO2 SLP267 T10221050
KEVW 221053Z AUTO 22008KT 10SM FEW050 OVC085 05/02 A3045 RMK AO2 SLP280 T00500022
KEWB 221053Z AUTO 00000KT 6SM BR OVC023 12/11 A2996 RMK AO2 RAE08B28E40 SLP144 P0000 T01170111
KEWK 221056Z AUTO 02004KT 10SM CLR M07/M11 A3041 RMK AO2 SLP311 T10671106 FZRANO
KEWN 221054Z 00000KT 1/2SM FG VV002 13/13 A2992 RMK AO2 SLP131 T01330133
KEWR 221051Z 36004KT 10SM BKN022 OVC040 09/06 A2990 RMK AO2 RAE0957 SLP125 P0000 T00940056 $
KEXX 221045Z AUTO 00000KT 2 1/2SM BR CLR 06/06 A2996 RMK AO2 VIS 1 1/2V4 T00630063
KEYE 221053Z AUTO 32008KT 10SM CLR M03/M07 A3025 RMK AO2 SLP250 T10331072
KEYW 221053Z AUTO 04005KT 10SM CLR A2991 RMK AO2 SLP129 $
KEZF 221055Z AUTO 00000KT 10SM OVC100 11/11 A2991 RMK AO2 T01050105
KEZM 221055Z AUTO 00000KT 1/2SM HZ OVC002 12/09 A3002 RMK AO2 T01230092
KEZS 221055Z AUTO 30004KT 10SM OVC036 M04/M10 A3029 RMK AO2 T10401098
KF00 221050Z AUTO 35007KT 10SM CLR 03/M09 A3034 RMK AO2 T00301093
KF05 221055Z AUTO 01006KT 10SM CLR 02/M10 A3045 RMK AO1 T00191098
KF17 221055Z AUTO 33004KT 10SM CLR 08/07 A3020 RMK AO2 T00780071
KF44 221055Z AUTO 36010G16KT 10SM CLR 07/M01 A3026 RMK AO2
KF46 221055Z AUTO 36011G14KT 10SM CLR 07/M07 A3031 RMK AO2 T00651066
KF70 221055Z AUTO 04003KT 10SM CLR 14/02 A3009 RMK AO1
KFAF 221100Z AUTO 30004KT 10SM FEW041 BKN095 12/11 A2990 RMK AO2 DZE00 SLP128 $
KFAM 221056Z AUTO 35005KT 10SM CLR M03/M07 A3035 RMK AO2 SLP283 T10331072 FZRANO
KFAR 221053Z AUTO 18006KT 10SM CLR M12/M15 A3025 RMK AO2 SLP264 T11221150
KFAT 221053Z 00000KT 6SM HZ CLR 11/08 A3015 RMK AO2 SLP208 T01110078 $
KFAY 221053Z 36007KT 10SM FEW020 SCT041 SCT060 13/12 A2992 RMK AO2 SLP125 T01280122
KFBG 221058Z AUTO 04003KT 10SM SCT004 SCT028 BKN034 BKN045 OVC055 12/12 A2992 RMK AO2 SLP134 $
KFBL 221055Z AUTO 00000KT 10SM CLR M11/M12 A3032 RMK AO2
KFBR 221055Z AUTO 24007KT 10SM OVC030 07/03 A3046 RMK AO2 T00660029
KFCH 221055Z AUTO 00000KT 3SM BR CLR 10/09 A3015 RMK A01
KFCM 221053Z AUTO 00000KT 10SM CLR M09/M12 A3032 RMK AO2 SLP282 T10941122
KFCS 221058Z AUTO 35008KT 10SM CLR M01/M03 A3026 RMK AO2 SLPNO T10081027
KFDK 221045Z AUTO 19004KT 10SM SCT080 SCT095 06/06 A2995 RMK AO2
KFDR 221053Z AUTO 35011KT 10SM CLR 02/M09 A3040 RMK AO2 SLP295 T00171094
KFDW 221055Z AUTO 00000KT 1/4SM FG OVC002 10/10 A2996 RMK AO1
KFDY 221053Z AUTO 32009KT 10SM OVC039 01/M06 A3018 RMK AO2 SLP223 T00061061
KFEP 221055Z AUTO 28003KT 10SM CLR M08/M11 A3035 RMK AO2 T10791109
KFET 221055Z AUTO 30003KT 10SM CLR M10/M12 A3037 RMK AO2 T11051125
KFEW 221058Z AUTO 29025G33KT 10SM BKN110 BKN250 09/00 A3023 RMK AO2 SLP224 T00900003 $
KFFA 221040Z AUTO 00000KT 2 1/2SM RA BKN029 OVC036 A2990 RMK AO2
KFFC 221058Z AUTO 00000KT 3SM BR SCT004 08/08 A3002 RMK AO2 T00780078
KFFL 221055Z AUTO 29006KT 10SM CLR M08/M12 A3038 RMK AO2 PWINO
KFFM 221054Z AUTO 16005KT 10SM CLR M13/M15 A3030 RMK AO2
KFFO 221056Z AUTO 29005KT 10SM OVC033 00/M03 A3020 RMK AO2 SLP235 T10031028
KFFT 221053Z AUTO 33005KT 10SM CLR M01/M05 A3022 RMK AO2 SLP239 T10111050
KFFX 221053Z AUTO 33008KT 10SM OVC032 M02/M08 A3023 RMK AO2 T10161076
KFGN 221053Z AUTO 23010KT 10SM CLR M13/M15 A3015 RMK AO2
KFHR 221053Z AUTO 05004KT 10SM OVC006 13/13 A2989 RMK AO2 RAB08E26 SLP122 P0000 T01330128
KFHU 221058Z AUTO 10004KT 10SM CLR 12/M09 A3026 RMK AO2 SLP195 T01151089
KFIG 221054Z AUTO 33010KT 10SM -RA FEW018 BKN042 OVC050 03/02 A2996 RMK AO2 RAB17 SLP152 P0000 T00280017
KFIN 221050Z 00000KT 5SM BR SKC 14/14 A2994
KFIT 221052Z AUTO 00000KT 10SM OVC100 05/03 A2995 RMK AO2 SLP143 T00500033
KFKA 221055Z AUTO 30004KT M11/M13 A3032 RMK AO2 T11121130 PWINO
KFKL 221056Z AUTO VRB05KT 10SM -RA OVC007 01/M01 A3003 RMK AO2 RAE17B50UPB03E50 CIG 003V010 SLP181 P0000 T00061006 FZRANO
KFKN 221055Z AUTO 00000KT 10SM SCT039 BKN100 12/10 A2992 RMK AO2 T01150103
KFKR 221055Z AUTO 32005KT 10SM SCT031 BKN120 M03/M06 A3028 RMK AO2 T10271061
KFKS 221056Z AUTO 32006KT 10SM OVC039 M01/M08 A3023 RMK AO2 T10111085
KFLD 221053Z AUTO 31005KT 10SM CLR M08/M12 A3030 RMK AO2 SLP274 T10781122
KFLG 221057Z AUTO 10SM CLR 03/M03 A3043 RMK AO2 SLP249 T00331033
KFLL 221053Z 00000KT 10SM FEW012 21/21 A2991 RMK AO2 SLP128 T02110211
KFLO 221053Z AUTO 36004KT 9SM FEW046 12/12 A2994 RMK AO2 SLP136 T01220117
KFLP 221056Z AUTO 35006KT 10SM CLR 00/M07 A3039 RMK AO2 SLP292 T00001067 FZRANO PNO $
KFLY 221055Z AUTO 28008KT 10SM CLR 01/M04 A3029 RMK AO2 T00101040
KFME 221045Z AUTO 19003KT 7SM SCT035 BKN070 OVC110 08/07 A2994 RMK AO1
KFMH 221055Z AUTO 00000KT 6SM -RA FEW018 BKN035 BKN055 12/11 A2998 RMK AO2
KFMM 221055Z AUTO 28005KT 10SM CLR M01/M04 A3022 RMK AO2 T10111036
KFMN 221053Z AUTO 08006KT 10SM CLR M01/M07 A3038 RMK AO2 SLP282 T10111072
KFMY 221053Z AUTO 00000KT 7SM CLR 18/18 A2991 RMK AO2 SLP129 T01830183
KFNB 221053Z AUTO 29004KT 10SM CLR M09/M12 A3042 RMK AO2 SLP312 T10941122 $
KFNL 221056Z AUTO 00000KT 6SM BR CLR 01/00 A3024 RMK AO2 SLP246 T00060000 FZRANO
KFNT 221053Z 29011KT 10SM OVC048 M02/M08 A3021 RMK AO2 SLP239 T10171083
KFOA 221055Z AUTO 33005KT 10SM CLR M02/M05 A3035 RMK AO2 T10221055
KFOD 221056Z AUTO 29003KT 10SM CLR M10/M13 A3037 RMK AO2 SLP333 T11001128 FZRANO
KFOE 221053Z AUTO 32005KT 10SM CLR M07/M11 A3041 RMK AO2 SLP310 T10721111
KFOK 221053Z AUTO 23007KT 4SM RA BR OVC055 12/11 A2995 RMK AO2 SLP140 P0046 T01220111
KFOT 221055Z AUTO 14006KT 10SM CLR 17/12 A3005 RMK AO1
KFOZ 221052Z AUTO 00000KT 10SM CLR M17/M19 A3021 RMK AO2
KFPK 221055Z AUTO 34008KT 10SM OVC032 M02/M09 A3022 RMK AO2 T10201089
KFPR 221053Z AUTO 00000KT 1/4SM FG VV002 17/17 A2991 RMK AO2 SLP129 T01720172
KFQD 221105Z AUTO 00000KT 7SM CLR 04/04 A3000 RMK AO2 T00400040
KFRG 221105Z AUTO 00000KT 9SM -RA SCT009 OVC075 11/11 A2992 RMK AO2 P0000 T01110106
KFRH 221055Z AUTO 00000KT 10SM CLR M02/M06 A3027 RMK AO1
KFRI 221058Z AUTO 00000KT 10SM CLR M07/M11 A3041 RMK AO2 SLP308 T10741114
KFRM 221056Z AUTO 28005KT 10SM CLR M11/M13 A3035 RMK AO2 SLP303 T11111133 FZRANO
KFRR 221055Z AUTO 00000KT 10SM SCT060 OVC075 07/06 A2994 RMK AO1
KFSD 221056Z 20004KT 10SM CLR M11/M14 A3031 RMK AO2 SLP291 T11061139
KFSE 221055Z AUTO 19006KT 10SM CLR M14/M16 A3021 RMK AO2
KFSI 221056Z AUTO 36008KT 10SM CLR M01/M08 A3040 RMK AO2 SLP298 T10121076
KFSM 221053Z AUTO 34006KT 10SM CLR 02/M06 A3036 RMK AO2 SLP281 T00221056
KFSO 221055Z AUTO 27003KT 10SM OVC060 07/M01 A2989 RMK AO2 T00691010
KFST 221053Z AUTO 35003KT 10SM CLR 04/M04 A3041 RMK AO2 SLP273 T00441039
KFSW 221055Z AUTO 31003KT 10SM CLR M08/M09 A3039 RMK AO2
KFTG 221049Z AUTO 30003KT 10SM CLR 03/00 A3025 RMK AO2 T00261004
KFTK 221056Z AUTO 34005KT 10SM CLR M02/M05 A3024 RMK AO2 SLP247 T10201055
KFTN 221055Z AUTO 33008KT 10SM BKN047 12/02 A3026 RMK A01
KFTW 221053Z 33009KT 10SM CLR 06/M07 A3033 RMK AO2 SLP270 T00611072
KFTY 221053Z 32004KT 10SM CLR 09/08 A3002 RMK AO2 SLP162 T00940083
KFUL 221053Z AUTO 00000KT 10SM CLR 14/09 A3001 RMK AO2 SLP160 T01440089
KFVE 221053Z AUTO 14007KT 10SM CLR M02/M03 A2990 RMK AO2 SLP138 T10171033
KFVX 221055Z AUTO 00000KT 7SM OVC085 10/10 A2993 RMK AO2 T01000100
KFWA 221054Z 31006KT 10SM SCT027 OVC038 01/M03 A3022 RMK AO2 SLP242 T00111033 $
KFWB 221055Z AUTO 00000KT 10SM CLR M03/M08 A3037 RMK AO2
KFWC 221055Z AUTO 00000KT 10SM CLR M03/M06 A3033 RMK AO1 T10271059
KFWN 221053Z AUTO 00000KT 10SM FEW090 02/01 A2989 RMK AO2 SLP123 T00170006
KFWS 221055Z AUTO 35011KT 10SM CLR 06/M07 A3034 RMK AO2 T00581070
KFWZ 221055Z AUTO 29009G25KT 10SM CLR 04/01 A3025 RMK AO2 TSNO
KFXE 221053Z 00000KT 6SM BR CLR 20/20 A2992 RMK AO2 SLP134 T02000200
KFXY 221055Z AUTO 34003KT 10SM CLR M09/M11 A3033 RMK AO2
KFYE 221055Z AUTO 36012G19KT 10SM BKN035 03/M03 A3024 RMK A01
KFYG 221055Z AUTO 00000KT 10SM CLR M04/M08 A3040 RMK AO2
KFYJ 221055Z AUTO 00000KT 10SM SCT019 BKN028 OVC095 11/11 A2993 RMK AO2 T01110107
KFYM 221055Z AUTO 36013KT 10SM CLR 05/02 A3012 RMK A01
KFYV 221053Z AUTO 02003KT 10SM CLR M02/M06 A3035 RMK AO2 SLP283 T10221061
KFZG 221055Z AUTO 00000KT 5SM BR BKN002 OVC060 13/13 A3001 RMK AO2 T01270127
KFZY 221054Z AUTO 33009G16KT 6SM -RA BR OVC007 02/01 A2998 RMK AO2 SLP154 P0006 T00220011
KGAD 221056Z AUTO 00000KT 5SM BR CLR 01/01 A3010 RMK AO2 SLP198 T00110011 FZRANO
KGAF 221055Z AUTO 22009KT 10SM CLR M14/M16 A3021 RMK AO2 PWINO
KGAG 221053Z AUTO 23004KT 10SM CLR M05/M08 A3041 RMK AO2 SLP308 T10501083
KGAI 221056Z AUTO 26003KT 10SM BKN100 09/06 A2994 RMK AO2 SLP169 T00940061
KGAO 221055Z AUTO 03005KT 10SM CLR 15/12 A3004 RMK AO2 T01500115
KGBD 221056Z AUTO 22005KT 10SM CLR M08/M11 A3038 RMK AO2 SLP308 T10781106 FZRANO
KGBG 221055Z AUTO 28004KT 10SM CLR M08/M10 A3038 RMK AO2 T10851099
KGBK 221055Z AUTO 04021KT 9SM OVC100 21/16 A2994 RMK A01
KGCC 221053Z AUTO 24013KT 10SM CLR 08/M02 A3004 RMK AO2 SLP171 T00831017
KGCD 221055Z AUTO 12007KT 10SM -DZ SCT070 OVC085 11/10 A3022 RMK AO2 P0001 T01120102
KGCK 221054Z AUTO 20007KT 10SM CLR M06/M08 A3032 RMK AO2 SLP285 T10561083
KGCM 221055Z AUTO 01006KT 10SM CLR M02/M07 A3043 RMK AO2
KGCN 221054Z AUTO 07003KT 9SM FU CLR M02/M07 A3043 RMK AO2 SLP273 T10221072
KGDB 221049Z AUTO 19004KT 10SM CLR M13/M14 A3033 RMK AO2 T11271145
KGDJ 221055Z AUTO 31007KT 10SM CLR 06/M03 A3035 RMK AO2 T00611032
KGDP 221051Z AUTO 05021KT 10SM CLR 03/M04 A3040 RMK AO2 PK WND 05029/1001 SLP265 T00281044
KGDV 221056Z AUTO 19013KT 10SM CLR M02/M04 A2991 RMK AO2 SLP160 T10171039 FZRANO
KGED 221054Z AUTO 00000KT 10SM -RA SCT046 BKN055 OVC095 13/13 A2990 RMK AO2 RAE33B54 SLP123 P0003 T01330128
KGEG 221053Z 20008KT 10SM FEW030 FEW090 SCT150 BKN240 09/08 A3006 RMK AO2 SLP188 T00940083
KGEV 221045Z AUTO 31007G15KT 10SM SCT024 07/02 A2998 RMK AO2 T00650016
KGEY 221053Z AUTO 16003KT 10SM CLR M02/M03 A3016 RMK AO2 SLP236 T10171028
KGEZ 221053Z AUTO 31005KT 10SM CLR M04/M07 A3024 RMK AO2 SLP245 T10391067
KGFA 221058Z AUTO 22020G29KT 10SM BKN190 12/04 A2995 RMK AO2 PK WND 22029/46 SLP159 T01220044 $
KGFK 221053Z AUTO 19005KT 10SM CLR M13/M15 A3021 RMK AO2 SLP250 T11331150
KGFL 221053Z AUTO 00000KT 10SM OVC100 M01/M01 A2989 RMK AO2 SLP128 T10061011
KGGE 221115Z AUTO 32005KT 10SM OVC004 15/15 A2995 RMK AO2
KGGG 221053Z 33006KT 10SM CLR 09/07 A3023 RMK AO2 SLP238 T00890067
KGGI 221055Z AUTO 30003KT 10SM CLR M09/M11 A3039 RMK AO2 T10921110
KGGP 221055Z AUTO 30006KT 10SM CLR M03/M07 A3027 RMK AO2
KGGW 221053Z AUTO 10008KT 10SM CLR M04/M08 A2982 RMK AO2 SLP137 T10441078
KGHB 221055Z AUTO 07016KT 10SM FEW022 OVC100 22/17 A2997 RMK A01
KGHG 221055Z AUTO 00000KT 4SM BR FEW032 SCT042 SCT049 11/11 A2997 RMK AO2 P0001
KGHW 221054Z AUTO 22003KT 10SM CLR M13/M14 A3027 RMK AO2
KGIC 221055Z AUTO 21017G24KT 10SM BKN080 OVC090 12/10 A3016 RMK AO1 P0001
KGIF 221053Z AUTO 00000KT 1/2SM FG VV002 17/17 A2995 RMK AO2 SLP141 T01670167
KGJT 221053Z AUTO 11005KT 10SM CLR 02/M03 A3042 RMK AO2 SLP289 T00171033
KGKT 221055Z AUTO 00000KT 10SM FEW044 05/02 A3009 RMK A01
KGKY 221053Z AUTO 35009KT 10SM CLR 07/M05 A3032 RMK AO2 SLP263 T00671050 $
KGLD 221053Z AUTO 20011KT 10SM CLR M01/M05 A3022 RMK AO2 SLP247 T10111050
KGLE 221055Z AUTO 34008KT 10SM CLR 02/M10 A3039 RMK AO2 T00241102
KGLH 221053Z AUTO 01012KT 10SM CLR 07/00 A3020 RMK AO2 SLP234 T00670000
KGLR 221108Z AUTO 05004KT 3SM -SN BKN028 OVC035 M05/M08 A3015 RMK AO2 P0000 T10501078
KGLS 221100Z AUTO 02017G24KT 10SM BKN016 OVC035 16/13 A3012 RMK AO2 T01560128
KGLW 221055Z AUTO 35010G14KT 10SM CLR 00/M02 A3023 RMK AO2 T10011025
KGLY 221055Z AUTO 10SM CLR M05/M09 A3042 RMK AO2
KGMJ 221055Z AUTO 00000KT 10SM CLR M01/M06 A3042 RMK AO2
KGMU 221053Z AUTO 00000KT 10SM CLR 10/07 A2999 RMK AO2 SLP152 T01000072
KGNA 221056Z AUTO VRB03KT M07/M11 A3023 RMK AO1 SLP254 T10671106 $
KGNB 221110Z AUTO 12003KT 10SM OVC031 01/M01 A3047 RMK AO2 T00111006
KGNC 221055Z AUTO 04005KT 10SM CLR 03/M04 A3039 RMK AO2 T00271037
KGNR 221056Z AUTO 09004KT 01/M02 A2990 RMK AO1 SLP142 T00061022
KGNT 221055Z AUTO 31013G16KT 10SM CLR M04/M07 A3046 RMK AO2 T10361073
KGNV 221101Z AUTO 00000KT 3SM BR CLR 12/12 A2998 RMK AO2 T01170117
KGOK 221053Z AUTO 04005KT 10SM CLR M02/M09 A3041 RMK AO2 SLP306 T10221089
KGON 221104Z AUTO 17006KT 3SM -RA BR BKN010 OVC065 12/12 A2994 RMK AO2 LTG DSNT S P0001 T01220117 $
KGOO 221100Z AUTO 11005KT 10SM CLR 18/03 A3024 RMK AO1
KGOP 221055Z AUTO 35010KT 10SM CLR 08/M00 A3031 RMK AO2
KGOV 221055Z AUTO 27003KT 7SM -SN SCT015 BKN046 OVC050 M04/M06 A3017 RMK AO2 T10411065
KGPC 221055Z AUTO 33003KT 10SM CLR M03/M08 A3028 RMK AO2
KGPH 221115Z AUTO 00000KT 10SM CLR M06/M10 A3043 RMK AO2
KGPI 221055Z AUTO 00000KT 9SM OVC032 04/04 A3005 RMK AO2 RAE39 SLP192 P0001 T00440044
KGPM 221055Z AUTO 34011G14KT 10SM CLR 07/M06 A3033 RMK AO2 T00701065
KGPT 221053Z AUTO 01006KT 10SM CLR 13/07 A3004 RMK AO2 SLP171 T01280072
KGPZ 221056Z AUTO 00000KT 10SM CLR M14/M15 A3025 RMK AO2 SNE15 SLP279 P0000 T11391150 FZRANO
KGRB 221053Z AUTO 30007KT 10SM OVC037 M04/M08 A3029 RMK AO2 SLP269 T10441083
KGRD 221102Z AUTO 31004KT 3SM BR CLR 07/07 A2999 RMK AO2 T00670067 $
KGRF 221058Z 15006KT 10SM BKN040 OVC048 16/16 A2995 RMK AO2A SLP146 T01620162 $
KGRI 221053Z AUTO 17005KT 10SM CLR M07/M09 A3034 RMK AO2 SLP303 T10671094
KGRK 221058Z 33012KT 7SM CLR 08/01 A3028 RMK AO2A SLP253 WND DATA ESTMD T00750011 $
KGRN 221055Z AUTO 25005KT 10SM CLR 01/M02 A3010 RMK AO2 T00061024
KGRR 221053Z 34006KT 10SM OVC035 M02/M07 A3024 RMK AO2 SLP248 T10171072
KGRY 221100Z AUTO 04027KT 10SM FEW022 OVC075 21/16 A2993 RMK A01
KGSB 221102Z AUTO 28004KT 10SM OVC010 13/12 A2992 RMK AO2 CIG 008V010 CIG 008 RWY26 SLP135 $
KGSH 221053Z AUTO 31006KT 10SM OVC038 00/M07 A3023 RMK AO2 SLP245 T00001067
KGSO 221054Z 31006KT 9SM BKN250 09/09 A2995 RMK AO2 SLP141 T00940089
KGSP 221053Z 00000KT 9SM CLR 08/07 A2999 RMK AO2 SLP152 T00780072
KGTB 221101Z AUTO 00000KT 2 1/4SM R21/5000FT -SN BR OVC002 01/00 A2994 RMK AO2 VIS 2 1/4V3 CIG 002V004 SLP145 CHINO RWY03 $
KGTF 221053Z 22018KT 10SM CLR 12/03 A2997 RMK AO2 PK WND 22037/1003 SLP154 T01170033
KGTR 221056Z AUTO 34010KT 10SM CLR 05/03 A3013 RMK AO2 SLP206 T00500028
KGTU 221056Z AUTO 35014G19KT 9SM CLR 10/02 A3028 RMK AO2 SLP255 T01000017
KGUC 221056Z AUTO 10003KT 10SM CLR M04/M06 A3051 RMK AO2 SLP338 T10441061 FZRANO
KGUL 221055Z AUTO 07020KT 10SM FEW025 FEW042 OVC060 23/15 A2996 RMK A01
KGUP 221053Z AUTO 04004KT 10SM CLR M06/M10 A3043 RMK AO2 SLP268 T10561100
KGUS 221056Z AUTO 30009KT 10SM BKN035 M03/M06 A3024 RMK AO2 SLP252 T10281061 $
KGUY 221053Z AUTO 19003KT 10SM CLR M02/M04 A3034 RMK AO2 SLP275 T10221039
KGVE 221055Z AUTO 23003KT 10SM OVC090 06/06 A2993 RMK AO1 T00610061
KGVL 221053Z AUTO 30005KT 10SM CLR 09/09 A3002 RMK AO2 SLP159 T00890089
KGVT 221050Z AUTO 35012G16KT 10SM CLR 07/M06 A3031 RMK AO2
KGWB 221055Z AUTO 34003KT 10SM OVC039 00/M05 A3022 RMK AO2
KGWO 221053Z AUTO 01004KT 10SM CLR 04/03 A3017 RMK AO2 SLP217 T00440028 $
KGWR 221055Z AUTO 21008KT 10SM M14/M16 A3023 RMK A01
KGWW 221110Z AUTO 00000KT 10SM OVC010 12/12 A2994 RMK AO2 T01210121
KGXA 221055Z AUTO 14005KT 10SM CLR 12/M02 A3024 RMK AO2 SLP199 WND DATA ESTMD T01181020
KGXY 221056Z AUTO 00000KT 10SM CLR 00/M02 A3025 RMK AO2 SLP268 T00001017 FZRANO
KGYB 221055Z AUTO 36006G14KT 330V030 10SM BKN022 OVC032 12/05 A3023 RMK AO2 T01180053
KGYI 221055Z AUTO 36009KT 10SM CLR 04/M07 A3036 RMK AO2 T00351070
KGYL 221054Z AUTO 00000KT 10SM CLR M10/M11 A3031 RMK AO2 T11011115
KGYY 221045Z 30010KT 10SM SCT027 M02/M09 A3030
KGZH 221053Z AUTO 00000KT 10SM CLR 07/04 A3004 RMK AO2 SLP172 T00670044
KGZL 221055Z AUTO 34008KT 10SM CLR M03/M09 A3039 RMK AO2
KGZN 221040Z AUTO 36008G14KT 10SM CLR 04/M06 A3036 RMK AO2
KGZS 221055Z AUTO 36008KT 10SM FEW033 FEW041 04/01 A3015 RMK A01
KHAE 221055Z AUTO 35005KT 10SM SCT060 M05/M10 A3038 RMK AO2
KHAF 221055Z AUTO 06003KT 10SM CLR 12/10 A3006 RMK AO2
KHAI 221056Z AUTO 01008KT 10SM OVC032 00/M06 A3024 RMK AO2 T10041058
KHAO 221053Z AUTO 29005KT 10SM CLR M01/M03 A3024 RMK AO2 SLP244 T10111033
KHBE 221055Z AUTO 31003KT 10SM CLR M03/M05 A3027 RMK AO2 PWINO
KHBG 221053Z AUTO 00000KT 10SM CLR 09/07 A3009 RMK AO2 SLP186 T00890072
KHBI 221055Z AUTO 00000KT M1/4SM FG OVC001 09/09 A2998 RMK AO2 T00880088
KHBR 221053Z AUTO 34007KT 10SM CLR M02/M08 A3044 RMK AO2 SLP311 T10221083
KHBV 221055Z AUTO 36010KT 7SM BKN044 15/09 A3017 RMK AO2 T01470089
KHCD 221054Z AUTO 00000KT 10SM CLR M12/M13 A3032 RMK AO2 T11161130
KHCO 221054Z AUTO 18004KT 10SM CLR M16/M18 A3018 RMK AO2
KHDC 221055Z AUTO 36004KT 10SM CLR 10/08 A3007 RMK AO2
KHDE 221055Z AUTO 20007KT 10SM CLR M04/M10 A3029 RMK AO2 T10411104
KHDN 221056Z AUTO 09005KT 10SM CLR 01/M01 A3043 RMK AO2 SLP295 T00061006 FZRANO
KHDO 221051Z AUTO 02018KT 10SM CLR 13/01 A3024 RMK AO2 SLP232 T01280011 $
KHEF 221056Z AUTO 00000KT 10SM OVC100 08/07 A2995 RMK AO2 SLP154 T00830067 PNO $
KHEI 221053Z AUTO 19006KT 10SM OVC060 M03/M09 A3002 RMK AO2 SLP201 T10331089
KHEQ 221050Z AUTO 24006KT 10SM CLR 00/M02 A3019 RMK AO2
KHEY 221100Z AUTO 32006KT 10SM SCT025 13/11 A2998 RMK AO2 SLP154 $
KHEZ 221109Z AUTO 00000KT 1 3/4SM BR CLR 08/08 A3013 RMK AO2 VIS 1/2V5
KHFD 221053Z 00000KT 10SM FEW075 SCT110 07/06 A2992 RMK AO2 SLP133 T00720056
KHFF 221056Z AUTO 00000KT 3/8SM FG VV001 10/10 A2994 RMK AO2 SLP154 T01030098 $
KHFJ 221050Z AUTO 36004KT 10SM CLR M05/M08 A3038 RMK AO2
KHFY 221055Z AUTO 00000KT 10SM CLR M02/M05 A3026 RMK AO2 T10191048
KHGR 221053Z AUTO 24005KT 10SM BKN075 OVC090 10/02 A2993 RMK AO2 SLP147 T01000022 TSNO
KHHF 221055Z AUTO 00000KT 10SM CLR M05/M06 A3040 RMK AO2 T10501063
KHHG 221055Z AUTO 31003KT 10SM OVC040 00/M04 A3022 RMK AO2 T10031040 TSNO
KHHR 221053Z AUTO 00000KT 10SM CLR 16/09 A3003 RMK AO2 SLP166 T01610089
KHHV 221055Z AUTO 02015G21KT 10SM FEW075 23/17 A2996 RMK A01
KHHW 221055Z AUTO 34006KT 10SM CLR 03/M07 A3032 RMK AO2 T00331073
KHIB 221053Z AUTO 21003KT 10SM CLR M16/M17 A3023 RMK AO2 SLP270 I1000 T11561172
KHIE 221052Z AUTO 00000KT 10SM CLR M05/M06 A2993 RMK AO2 SLP149 I1000 T10501061
KHIF 221058Z AUTO 11008KT 10SM OVC046 09/03 A3039 RMK AO2 SLP268 T00940032
KHII 221055Z AUTO 34007KT 10SM CLR 20/M07 A3011 RMK AO2
KHIO 221053Z AUTO 04003KT 9SM OVC048 13/13 A3000 RMK AO2 SLP156 T01330128
KHJH 221055Z AUTO 00000KT 10SM CLR M10/M12 A3040 RMK AO2 T10981118
KHJO 221053Z AUTO 00000KT 1 3/4SM BR CLR 08/07 A3016 RMK AO2 SLP216 T00830072 TSNO
KHKA 221053Z AUTO 01013KT 10SM CLR M01/M04 A3033 RMK AO2 SLP270 T10061039
KHKS 221053Z AUTO 31004KT 9SM CLR 05/04 A3011 RMK AO2 SLP192 T00500039
KHKY 221053Z AUTO 33006KT 10SM CLR 06/06 A2998 RMK AO2 SLP141 T00610056 $
KHLC 221053Z AUTO 00000KT 10SM CLR M04/M09 A3035 RMK AO2 SLP293 T10391089
KHLG 221053Z AUTO 29006KT 8SM FEW008 BKN033 OVC041 01/M01 A3008 RMK AO2 SLP194 T00111006
KHLN 221053Z AUTO 23006KT 10SM CLR 03/01 A3010 RMK AO2 SLP227 T00330011
KHLR 221058Z 35012KT 9SM CLR 08/01 A3025 RMK AO2A SLP240 T00800006 $
KHLX 221055Z AUTO 31007KT 10SM CLR 07/02 A2998 RMK AO2 T00650015
KHMN 221058Z AUTO 09004KT 10SM CLR 04/M05 A3039 RMK AO2 SLP252 T00361053 $
KHMP 221055Z AUTO 00000KT 1/2SM FG SCT002 08/08 A3001 RMK AO2 T00820076
KHMZ 221055Z AUTO 31009KT 10SM BKN045 OVC050 05/00 A2995 RMK AO2 T00491001
KHNB 221056Z AUTO 33004KT 10SM CLR M03/M05 A3029 RMK AO2 SLP262 T10281050 FZRANO
KHND 221056Z AUTO 16007KT 10SM CLR 12/M03 A3027 RMK AO2 SLP242 T01171033 $
KHNR 221055Z AUTO 00000KT 10SM CLR M11/M12 A3041 RMK AO2
KHOB 221055Z AUTO 01007KT 10SM CLR M01/M05 A3038 RMK AO2
KHOE 221055Z AUTO 00000KT 10SM OVC050 14/14 A2998 RMK AO2
KHON 221055Z AUTO 15006KT 10SM CLR M12/M14 A3027 RMK AO2 SLP273 T11171144
KHOP 221058Z AUTO 34009KT 10SM CLR M01/M05 A3026 RMK AO2 SLP252 T10121050 FZRANO
KHOT 221053Z AUTO 00000KT 10SM CLR 07/M03 A3030 RMK AO2 SLP260 T00671028
KHOU 221053Z 01014KT 10SM FEW014 BKN040 OVC050 16/13 A3013 RMK AO2 SLP208 T01560128
KHPN 221056Z 00000KT 10SM -DZ SCT036 BKN050 OVC090 08/06 A2989 RMK AO2 DZB49 SLP124 P0000 T00830061
KHQG 221055Z AUTO 20004KT 10SM CLR M04/M07 A3033 RMK AO2 T10411071
KHQI 221055Z AUTO 04018KT 10SM FEW029 BKN044 BKN100 22/16 A2997 RMK A01
KHQM 221053Z AUTO 16017G28KT 3SM -RA BR BKN013 OVC022 14/13 A2994 RMK AO2 PK WND 18030/1019 RAB09E27B51 SLP142 P0000 T01440133
KHQU 221055Z AUTO 00000KT 3 1/2SM BR OVC003 11/10 A3004 RMK AO2 T01080104
KHQZ 221055Z AUTO 35011G19KT 10SM CLR 07/M07 A3031 RMK AO1 T00681066
KHRI 221053Z AUTO 00000KT 9SM BKN080 OVC100 07/07 A3010 RMK AO2 SLP195 T00720072
KHRJ 221045Z AUTO 00000KT 7SM SCT013 BKN025 OVC050 12/12 A2996 RMK AO2 P0001 T01200115
KHRL 221052Z AUTO 34015KT 10SM SCT014 17/15 A3005 RMK AO2 PK WND 35027/1005 SLP176 T01720150
KHRO 221053Z AUTO 32004KT 10SM CLR M03/M07 A3036 RMK AO2 SLP285 T10281072
KHRT 221057Z 02010KT 10SM BKN050 14/06 A2998 RMK SLP154 T01380059 $
KHRX 221055Z AUTO 10SM CLR M04/M06 A3038 RMK AO2 T10381061
KHSB 221055Z AUTO 32004KT 10SM CLR M03/M06 A3035 RMK AO2 T10261056
KHSD 221055Z AUTO 02005KT 10SM CLR M03/M09 A3042 RMK A01
KHSE 221051Z AUTO 07006KT 5SM RA BR BKN080 OVC100 16/16 A2986 RMK AO2 PRESFR SLP110 P0025 T01560156 TSNO
KHSG 221050Z AUTO 36003KT 10SM CLR 00/M01 A3017 RMK AO2 T00021015
KHSI 221053Z AUTO 19004KT 10SM CLR M07/M12 A3033 RMK AO2 SLP297 T10721117
KHSP 221055Z AUTO 29016G25KT 10SM CLR 04/M02 A2994 RMK AO2 T00371020
KHST 221056Z AUTO 00000KT 10SM CLR 19/19 A2990 RMK AO2 VIS 2 1/4 RWY24 SLP128 T01920192
KHSV 221053Z AUTO 01011KT 10SM CLR 07/03 A3012 RMK AO2 SLP200 T00670028
KHTL 221100Z AUTO 31007KT 7SM -SN SCT029 BKN037 OVC045 M04/M06 A3018 RMK AO2 P0000 T10391061
KHTO 221055Z AUTO 24004KT 5SM RA SCT029 OVC037 12/11 A2993 RMK AO2 LTG DSNT NE AND E P0039 T01150105
KHTS 221051Z 32009KT 10SM OVC017 04/M01 A3015 RMK AO2 SLP210 T00391006
KHUA 221058Z AUTO 03012KT 10SM CLR 06/02 A3011 RMK AO2 SLP198 T00560023
KHUF 221053Z 30003KT 10SM CLR M04/M08 A3030 RMK AO2 SLP266 T10391078
KHUL 221053Z AUTO 00000KT 10SM CLR 02/01 A2994 RMK AO2 SLP143 T00220011
KHUM 221055Z AUTO 01008KT 10SM CLR 14/12 A3004 RMK AO2 T01360120
KHUT 221052Z AUTO 00000KT 10SM CLR M08/M11 A3040 RMK AO2 SLP300 T10781106
KHVE 221055Z AUTO 00000KT 10SM CLR M01/M12 A3044 RMK AO2
KHVN 221053Z 00000KT 10SM BKN042 OVC080 11/09 A2992 RMK AO2 SLP130 T01060094
KHVR 221053Z AUTO 22020G29KT 10SM CLR 11/04 A2983 RMK AO2 PK WND 22034/1033 SLP118 T01060039
KHVS 221055Z AUTO 00000KT 10SM BKN070 12/11 A2994 RMK AO2
KHWD 221054Z AUTO 12003KT 4SM HZ CLR 13/09 A3012 RMK AO2 SLP209 T01330094
KHWO 221053Z AUTO 00000KT 10SM -RA CLR 21/19 A2993 RMK AO2 RAB40 SLP135 P0000 T02060194
KHWV 221056Z AUTO 19005KT 5SM RA BR OVC070 12/12 A2994 RMK AO2 SLP137 P0013 T01220122
KHXD 220935Z AUTO VRB04KT 3SM BR OVC002 16/16 A2995 RMK AO2
KHYA 221056Z 19004KT 9SM FEW040 SCT065 SCT075 13/12 A2997 RMK AO2 RAE15B32E52 SLP151 P0003 T01280117
KHYI 221056Z AUTO 36013KT 10SM OVC026 13/04 A3025 RMK AO2 SLP237 T01280039 $
KHYR 221053Z AUTO 22004KT 10SM SCT020 M09/M13 A3026 RMK AO2 SLP271 T10941128
KHYS 221056Z AUTO 25004KT 10SM CLR M06/M10 A3037 RMK AO2 SLP304 T10611100 FZRANO
KHYW 221055Z AUTO 00000KT 5SM BR SCT017 BKN024 OVC030 14/14 A2994 RMK AO2
KHYX 221055Z AUTO 29007KT 10SM OVC050 M01/M07 A3021 RMK AO2
KHZD 221055Z AUTO 00000KT 10SM CLR 00/M04 A3026 RMK A01
KHZE 221055Z AUTO 00000KT 10SM SCT085 M09/M13 A3004 RMK AO2
KHZL 221055Z AUTO 00000KT 10SM BKN050 OVC065 07/04 A2992 RMK AO2
KHZR 221055Z AUTO 33004KT 10SM CLR 11/09 A3010 RMK AO2 T01060090
KHZX 221055Z AUTO 00000KT 10SM CLR M11/M12 A3026 RMK AO2
KHZY 221053Z AUTO 33010KT 10SM OVC030 01/M03 A3010 RMK AO2 SLP198 T00111028
KI16 221055Z AUTO 10SM 03/01 A3010 RMK AO2 T00250005
KI19 221050Z AUTO 35005KT 10SM BKN035 08/08 A3020 RMK AO2 T00780078
KI23 221051Z AUTO 29008KT 10SM CLR M02/M02 A3018 RMK AO1
KI35 221055Z AUTO 00000KT 10SM CLR 06/00 A3010 RMK AO1
KI63 221055Z AUTO 32006KT 10SM CLR M06/M09 A3037 RMK AO2 T10641090
KI67 221055Z AUTO 00000KT 10SM CLR M01/M05 A3024 RMK AO1
KI68 221055Z AUTO 00000KT 10SM CLR M01/M02 A3021 RMK AO2
KI69 221053Z AUTO 31006KT 10SM CLR M01/M03 A3022 RMK AO2 T10101030
KI75 221055Z AUTO 00000KT 10SM CLR M09/M12 A3038 RMK AO2 T10891116
KIAB 221056Z AUTO 04007KT 10SM CLR M05/M11 A3041 RMK AO2 SLP313 T10531107
KIAD 221052Z 00000KT 10SM OVC100 08/06 A2994 RMK AO2 SLP139 T00780061
KIAG 221053Z AUTO 29011KT 10SM OVC060 03/M03 A3003 RMK AO2 SLP177 T00281028
KIAH 221053Z 36009KT 10SM FEW013 SCT055 SCT075 14/13 A3014 RMK AO2 SLP206 T01440128
KIBM 221055Z AUTO 26010KT 10SM CLR 04/01 A3019 RMK AO2 T00390005
KICL 221055Z AUTO 00000KT 10SM M11/M11 A3042 RMK AO2 PWINO
KICR 221053Z AUTO 13006KT 10SM CLR M04/M09 A3016 RMK AO2 SLP243 T10441089
KICT 221053Z 01005KT 10SM CLR M04/M09 A3042 RMK AO2 SLP310 T10391094
KIDA 221053Z AUTO 00000KT 10SM OVC028 03/03 A3035 RMK AO2 SLP287 T00330033
KIDI 221055Z AUTO 33006G11KT 7SM SCT008 BKN013 OVC042 03/02 A3004 RMK A01
KIDP 221055Z AUTO 36007KT 10SM CLR M05/M09 A3044 RMK AO2 T10461091
KIEN 221052Z AUTO 26006KT 10SM CLR 01/M02 A3011 RMK AO2 SLP216 T00111022
KIER 221055Z AUTO 01007KT 10SM CLR 09/09 A3015 RMK AO2 T00940093
KIFA 221115Z AUTO 29005KT 10SM CLR M10/M12 A3037 RMK AO2 T11031120
KIFP 221055Z AUTO 02020G27KT 10SM CLR 22/M10 A3012 RMK AO2
KIGM 221051Z AUTO 09005KT 10SM CLR 11/M06 A3027 RMK AO2 SLP201 T01061056
KIGQ 221055Z AUTO 31006KT 10SM CLR M04/M09 A3030 RMK AO2 T10451086
KIGX 221056Z AUTO 00000KT 7SM OVC060 11/11 A2996 RMK AO2 SLP144 T01060106
KIIB 221055Z AUTO 30005KT 10SM CLR M11/M12 A3036 RMK AO2 T11101121
KIIY 221055Z AUTO 29003KT 5SM BR CLR 08/08 A2998 RMK AO2 TSNO
KIJD 221052Z AUTO 05003KT 10SM SCT048 BKN065 OVC110 07/05 A2994 RMK AO2 RAE19 SLP140 P0000 T00670050
KIJX 221055Z AUTO 31006KT 10SM CLR M06/M09 A3038 RMK AO2 T10651088
KIKG 221055Z AUTO 33008KT 10SM SCT055 17/14 A3013 RMK AO2 T01650142
KIKK 221055Z AUTO 32007KT 10SM CLR M05/M09 A3032 RMK AO2 T10471086
KIKV 221055Z AUTO 00000KT 10SM CLR M08/M12 A3041 RMK AO2
KIKW 221054Z AUTO 27004KT 10SM BKN037 OVC047 M01/M07 A3021 RMK AO2 T10111070
KILE 221056Z AUTO 35011G18KT 10SM CLR 09/01 A3029 RMK AO2 SLP273 T00890011
KILG 221051Z AUTO 22004KT 4SM RA BR BKN033 BKN050 OVC075 11/09 A2992 RMK AO2 RAB19 SLP130 P0005 T01060094 $
KILM 221106Z AUTO 30004KT 2SM R35/6000VP6000FT -RA BR OVC002 16/16 A2993 RMK AO2 RAB06 P0000 T01560156
KILN 221054Z AUTO 30005KT 9SM CLR M02/M03 A3019 RMK AO2 SLP242 T10171028
KIML 221053Z AUTO 19006KT 10SM CLR 00/M03 A3021 RMK AO2 SLP247 T00001033
KIMM 221055Z AUTO 00000KT 9SM FEW065 SCT075 BKN100 17/16 A2993 RMK AO2
KIMS 221053Z AUTO 33003KT 10SM CLR M02/M05 A3026 RMK AO1
KIMT 221054Z AUTO 31004KT 10SM OVC032 M06/M11 A3021 RMK AO2 SLP251 T10561106
KIND 221054Z 30007KT 10SM CLR M04/M07 A3026 RMK AO2 SLP253 T10391072
KINF 221055Z AUTO 00000KT 3/4SM BR BKN004 16/16 A2995 RMK AO2
KINJ 221055Z AUTO 34011KT 10SM CLR 07/M01 A3029 RMK AO2 T00731006
KINK 221053Z AUTO 26007KT 10SM CLR 02/M03 A3041 RMK AO2 SLP279 T00221033
KINL 221055Z AUTO 21004KT 10SM M16/M19 A3018 RMK AO2 SLP251 T11611189 VISNO RWY 31 $
KINS 221058Z AUTO 00000KT 10SM CLR 07/M03 A3028 RMK AO2 SLP227 T00721028 $
KINT 221054Z AUTO 32006KT 7SM CLR 08/07 A2998 RMK AO2 SLP150 T00830072
KINW 221056Z AUTO 00000KT 10SM CLR M01/M12 A3039 RMK AO2 SLP273 T10111117
KIOB 221055Z AUTO 35006KT 10SM OVC019 01/M01 A3021 RMK AO2
KIOW 221052Z AUTO 31003KT 10SM CLR M07/M11 A3040 RMK AO2 SLP304 T10671106
KIPJ 221115Z AUTO 00000KT 1/4SM FG OVC002 05/05 A2997 RMK AO2 T00500050
KIPL 221053Z AUTO 24004KT 10SM CLR 13/01 A3004 RMK AO2 SLP170 T01330006 TSNO
KIPT 221054Z AUTO 22003KT 10SM OVC090 04/01 A2990 RMK AO2 RAB11E31 SLP128 P0000 T00390011
KIRK 221055Z AUTO 33003KT 10SM CLR M08/M10 A3039 RMK AO2 SLP307 T10781100
KIRS 221054Z AUTO 01008KT 10SM OVC031 M01/M05 A3022 RMK AO2 T10071049
KISM 221056Z AUTO 06003KT 1/4SM FG OVC002 18/18 A2995 RMK AO2 SLP143 T01780178
KISN 221052Z AUTO 17006KT 10SM OVC070 M06/M12 A2992 RMK AO2 SLP169 T10561117
KISO 221105Z AUTO 00000KT 10SM SCT011 BKN024 OVC042 13/13 A2993 RMK AO2 T01330131
KISP 221056Z 25003KT 4SM -RA BR BKN055 OVC070 12/12 A2991 RMK AO2 SLP129 P0015 T01220122
KISQ 221054Z AUTO 28006KT 7SM -SN SCT032 OVC040 M06/M09 A3021 RMK AO2 T10601087
KISW 221054Z AUTO 34005KT 10SM CLR M09/M13 A3031 RMK AO2 SLP284 T10941133
KITH 221056Z AUTO 33014KT 9SM -RA BKN008 OVC012 03/02 A2994 RMK AO2 CIG 007V010 SLP143 P0002 T00280017
KITR 221053Z AUTO 24011KT 10SM CLR 02/M03 A3023 RMK AO2 SLP241 T00171028
KIWA 221055Z AUTO 16004KT 10SM CLR 10/M03 A3011 RMK AO2
KIWD 221056Z AUTO 23010KT 9SM -SN OVC019 M08/M11 A3024 RMK AO2 SLP264 P0000 T10831111 FZRANO
KIWI 221053Z AUTO 00000KT 10SM CLR 03/02 A2998 RMK AO2 SLP152 T00280017
KIXA 221050Z AUTO 00000KT 10SM -RA BKN015 OVC024 11/11 A2993 RMK AO2 P0003
KIXD 221053Z AUTO 35004KT 10SM CLR M08/M10 A3041 RMK AO2 SLP310 T10781100
KIYA 221055Z AUTO 36005KT 10SM SCT060 BKN095 12/11 A3008 RMK AO2 T01170114
KIZG 221054Z AUTO 00000KT 10SM CLR M03/M03 A2997 RMK AO2 SLP154 T10281028
KJAC 221056Z AUTO 00000KT 10SM OVC029 05/04 A3035 RMK AO2 RAE12 SLP281 P0000 T00500044
KJAN 221054Z AUTO 36003KT 10SM CLR 07/05 A3010 RMK AO2 SLP193 T00720050
KJAQ 221055Z AUTO 00000KT 10SM CLR 17/11 A3018 RMK AO1 T01730110
KJAS 221055Z AUTO 35003KT 10SM CLR 12/11 A3017 RMK AO2 T01210111
KJAU 221055Z AUTO 00000G10KT 10SM SCT032 SCT037 07/01 A3014 RMK A01
KJAX 221056Z 35003KT 10SM FEW055 FEW250 14/14 A2994 RMK AO2 SLP139 T01440139 $
KJBR 221053Z AUTO 01009G14KT 10SM CLR 02/M05 A3035 RMK AO2 SLP279 T00171050
KJCA 221055Z AUTO 00000KT 10SM CLR 08/08 A3000 RMK AO2
KJCT 221051Z AUTO 35008KT 10SM CLR 08/M01 A3031 RMK AO2 SLP243 T00781006
KJDD 221055Z AUTO 36008G14KT 10SM CLR 08/M02 A3028 RMK AO2
KJDN 221048Z AUTO 26005KT 04/01 A2986 RMK AO1 SLP133 T00440011
KJEF 221053Z AUTO 32003KT 10SM CLR M03/M09 A3041 RMK AO2 SLP292 T10331089
KJER 221053Z AUTO 06009KT 10SM BKN100 10/07 A3032 RMK AO2 SLP254 T01000072 $
KJES 221101Z AUTO 00000KT 1/2SM FG OVC002 15/14 A2998 RMK AO2
KJFK 221051Z 00000KT 10SM -RA BKN033 OVC060 11/10 A2992 RMK AO2 SLP131 P0001 T01110100
KJFX 221055Z AUTO 00000KT 10SM CLR 03/03 A3010 RMK AO2 PWINO
KJFZ 221055Z AUTO 30005KT 10SM CLR 05/M17 A3005 RMK AO2 T00501166
KJGG 221055Z AUTO 00000KT 10SM SCT018 SCT040 BKN095 13/11 A2992 RMK AO1
KJHN 221055Z AUTO 18006KT 10SM CLR M03/M05 A3030 RMK AO2 T10271055
KJHW 221056Z AUTO 33013KT 4SM UP BR BKN006 OVC014 00/M01 A3000 RMK AO2 UPB01 CIG 003V009 SLP176 P0002 T00001006 FZRANO
KJKA 221055Z AUTO 01005KT 10SM CLR 12/06 A3002 RMK AO2 T01160061
KJKJ 221054Z AUTO 00000KT 10SM CLR M13/M16 A3026 RMK AO2
KJKL 221053Z AUTO VRB03KT 10SM OVC013 04/01 A3013 RMK AO2 SLP205 T00440011
KJLN 221053Z AUTO 36004KT 10SM CLR M05/M08 A3041 RMK AO2 SLP304 T10501078
KJMR 221059Z AUTO 00000KT 10SM SCT019 M10/M12 A3031 RMK AO2
KJMS 221056Z AUTO 18006KT 10SM CLR M14/M16 A3016 RMK AO2 SLP248 T11391156
KJNX 221055Z AUTO 00000KT 10SM -RA SCT014 SCT027 OVC060 13/12 A2994 RMK AO2
KJOT 221055Z AUTO 33004KT 10SM CLR M05/M08 A3033 RMK AO2 T10491079
KJQF 221045Z AUTO 32006KT 2SM BR 07/07 A2998 RMK AO2 SKY OBSCURED VIS 1/2V5
KJRB 221056Z AUTO 00000KT 10SM OVC020 13/09 RMK AO2 SLPNO T01280089 $
KJSO 221115Z AUTO 36009KT 10SM OVC033 11/06 A3025 RMK AO2 T01120060
KJST 221054Z AUTO 30013G25KT 6SM -SN BR BKN007 BKN011 OVC018 02/01 A2995 RMK AO2 PK WND 31026/1040 RAB15E43SNB43 CIG 005V009 SLP152 P0000 T00170006
KJSV 221055Z AUTO 36003KT 10SM CLR 00/M06 A3039 RMK AO2
KJTC 221055Z AUTO 00000KT 10SM CLR M01/M07 A3044 RMK AO2
KJVL 221055Z AUTO 00000KT 10SM CLR M07/M10 A3032 RMK AO2
KJVW 221055Z AUTO 31003KT 4SM BR CLR 04/03 A3012 RMK AO2
KJWG 221055Z AUTO 34005KT 10SM CLR M02/M07 A3043 RMK AO2 T10241073
KJWN 221055Z AUTO 35009G15KT 10SM SCT028 SCT033 01/M03 A3022 RMK A01
KJWY 221055Z AUTO 36012G19KT 10SM CLR 07/M02 A3030 RMK AO2 T00681024
KJXI 221055Z AUTO 33006KT 10SM CLR 08/03 A3026 RMK AO2 T00770031
KJXN 221056Z AUTO 30007KT 10SM OVC031 M01/M08 A3020 RMK AO2 SLP239 T10111078
KJYG 221055Z AUTO 22004KT 10SM CLR M12/M14 A3035 RMK AO2
KJYL 221055Z AUTO 31003KT 1/4SM FG OVC002 14/14 A2999 RMK AO2 T01350135
KJYM 221054Z AUTO 32009KT 10SM OVC028 M01/M07 A3019 RMK AO2
KJYO 221055Z AUTO 24003KT 10SM SCT100 09/06 A2995 RMK AO2
KJYR 221055Z AUTO 00000KT 10SM CLR M10/M11 A3037 RMK AO2
KJZI 221055Z AUTO 30007KT 10SM OVC006 16/16 A2996 RMK AO2
KJZP 221055Z AUTO 35004KT 10SM CLR 08/06 A3004 RMK AO2 T00820056 PNO
KK88 221055Z AUTO 00000KT 10SM CLR M06/M09 A3043 RMK AO1 T10611091
KKLS 221056Z AUTO 14010KT 10SM OVC042 13/12 A3000 RMK AO2 SLP162 T01280117
KKY8 221055Z AUTO 33005KT 10SM M02/M04 A3029 RMK AO1
KL18 221055Z AUTO 03007KT 10SM CLR 21/01 A3004 RMK AO2
KL35 221055Z AUTO 00000KT 10SM CLR 00/M05 A3043 RMK AO2
KLAA 221053Z AUTO 22003KT 10SM CLR M04/M07 A3026 RMK AO2 SLP252 T10441072
KLAF 221054Z AUTO 32007KT 10SM CLR M05/M08 A3029 RMK AO2 SLP263 T10501083
KLAL 221050Z 00000KT 1SM BR BKN003 16/16 A2994
KLAM 221055Z AUTO 00000KT 10SM SCT090 02/M03 A3042 RMK AO2 T00221026
KLAN 221053Z 31006KT 10SM BKN034 OVC044 M02/M08 A3023 RMK AO2 SLP248 T10221083
KLAR 221053Z AUTO 25021KT 10SM CLR 04/01 A3028 RMK AO2 SLP221 T00440006
KLAS 221056Z 20007KT 10SM BKN250 13/M01 A3024 RMK AO2 SLP228 T01281006
KLAW 221053Z AUTO 35007KT 10SM CLR 00/M08 A3042 RMK AO2 SLP306 T00001078
KLAX 221053Z 00000KT 10SM CLR 17/10 A3003 RMK AO2 SLP164 T01720100
KLBB 221053Z 35005KT 10SM CLR M01/M05 A3039 RMK AO2 SLP282 T10111050 $
KLBE 221055Z AUTO 30007KT 8SM -RA SCT010 BKN015 OVC020 03/02 A3005 RMK AO2 P0006
KLBF 221053Z AUTO 17007KT 10SM CLR M01/M08 A3020 RMK AO2 SLP247 T10061078
KLBL 221056Z AUTO 21005KT 10SM CLR M04/M07 A3036 RMK AO2 SLP293 T10441067 FZRANO
KLBO 221115Z AUTO 00000KT 10SM CLR M03/M08 A3037 RMK AO2
KLBT 221054Z AUTO 02003KT 9SM FEW050 13/13 A2991 RMK AO2 SLP129 T01280128
KLBX 221053Z AUTO 01013KT 10SM BKN035 OVC060 16/13 A3011 RMK AO2 SLP194 T01610128
KLCG 221055Z AUTO 20003KT 10SM CLR M13/M14 A3034 RMK AO2 T11281141
KLCH 221053Z AUTO 01010KT 10SM CLR 13/11 A3011 RMK AO2 SLP202 T01280111
KLCI 221056Z AUTO 00000KT 10SM CLR M01/M01 A2996 RMK AO2 SLP164 T10061011 FZRANO
KLCK 221055Z AUTO 30006KT 10SM SCT042 00/M01 A3017 RMK AO2 T10031015
KLCQ 221055Z AUTO 00000KT 3/4SM BR BKN002 12/12 A2996 RMK AO2
KLDJ 221055Z AUTO 00000KT 10SM OVC019 09/05 A2991 RMK AO2 T00850046
KLDM 221056Z AUTO 35006KT 10SM OVC034 M02/M08 A3025 RMK AO2 T10171082
KLEB 221053Z AUTO 00000KT 10SM CLR M03/M04 A2993 RMK AO2 SLP141 I1000 T10281039
KLEE 221053Z AUTO 00000KT 1/4SM FG VV002 17/17 A2995 RMK AO2 SLP141 T01720172
KLEW 221056Z AUTO VRB03KT 10SM CLR M01/M02 A2996 RMK AO2 SLP164 T10061017 FZRANO
KLEX 221054Z 32005KT 10SM CLR M01/M04 A3022 RMK AO2 SLP236 T10111039
KLFI 221056Z 30006KT 10SM SCT045 BKN100 OVC150 15/14 A2991 RMK AO2A SLP135 T01460140
KLFK 221053Z AUTO 34005KT 10SM FEW028 BKN038 12/11 A3018 RMK AO2 SLP218 T01170106
KLFT 221053Z AUTO 01007KT 10SM FEW065 12/11 A3008 RMK AO2 SLP187 T01220106
KLGA 221056Z 00000KT 10SM -RA BKN022 BKN041 OVC095 11/08 A2990 RMK AO2 P0000 T01060083
KLGB 221053Z AUTO 29004KT 10SM CLR 19/03 A3002 RMK AO2 SLP163 T01890033
KLGC 221055Z AUTO 00000KT 10SM CLR 10/10 A3003 RMK AO2 T01000097
KLGD 221056Z AUTO 19008KT 10SM RA FEW034 OVC055 12/10 A3020 RMK AO2 SLP357 P0004 T01170100
KLGU 221051Z AUTO 00000KT 10SM FEW090 OVC110 07/06 A3038 RMK AO2 SLP269 T00720056 $
KLHB 221055Z AUTO 34013G16KT 10SM BKN033 11/05 A3024 RMK AO2 T01050045
KLHM 221055Z AUTO 06003KT 3/4SM VV005 07/06 A3016 RMK AO1
KLHQ 221053Z AUTO 31006KT 10SM OVC022 01/M02 A3016 RMK AO2 SLP220 T00061017
KLHW 221106Z AUTO 30004KT 1SM BR VV001 15/15 A2996 RMK AO2 SLP148 RVRNO $
KLHX 221053Z AUTO 19003KT 10SM CLR M01/M03 A3026 RMK AO2 SLP242 T10061033 TSNO
KLHZ 221100Z AUTO 00000KT 2 1/2SM BR SCT048 OVC070 10/10 A2997 RMK AO2 VIS 1 3/4V5
KLIC 221055Z AUTO 02003KT 10SM CLR M03/M04 A3025 RMK AO2 SLP251 T10331039
KLIT 221053Z 36008G17KT 10SM CLR 05/M04 A3033 RMK AO2 SLP271 T00501039
KLJF 221053Z AUTO 00000KT 10SM CLR M10/M11 A3031 RMK AO2
KLKR 221115Z AUTO 00000KT 1/4SM FG OVC001 09/09 A2997 RMK AO2
KLKU 221055Z AUTO 23003KT 5SM -RA BR BKN002 OVC090 09/09 A2998 RMK AO2 T00930091
KLKV 221056Z AUTO VRB05KT 10SM CLR 08/04 A3029 RMK AO2 SLP250 T00830044 PNO $
KLLJ 221055Z AUTO 00000KT 10SM OVC050 04/02 A3030 RMK AO2 SLP258 T00390022
KLLQ 221053Z AUTO 03008KT 10SM CLR 08/M01 A3023 RMK AO2 SLP237 T00831011
KLMO 221055Z AUTO 31003KT 10SM CLR 01/00 A3026 RMK AO2 T00120000
KLMT 221053Z AUTO 16010KT 10SM SCT080 10/06 A3024 RMK AO2 SLP216 T01000061
KLNA 221055Z AUTO 00000KT 7SM CLR 21/20 A2992 RMK AO2 T02050203
KLNC 221055Z AUTO 36011KT 10SM CLR 07/M05 A3032 RMK AO2 T00711046
KLND 221053Z AUTO 25008KT 10SM CLR 04/M02 A3020 RMK AO2 SLP216 T00391017
KLNK 221054Z AUTO 10SM CLR M09/M12 A3041 RMK AO2 SLP314 T10941122
KLNL 221055Z AUTO 26003KT 10SM -SN OVC025 M08/M10 A3019 RMK AO2 T10801101
KLNN 221055Z AUTO 34013G19KT 10SM OVC030 01/M04 A3013 RMK AO1 T00121038
KLNP 221055Z AUTO 31006KT 10SM CLR 04/00 A3008 RMK AO2
KLNR 221056Z AUTO 00000KT 10SM CLR M09/M12 A3034 RMK AO2 SLP280 T10891117
KLNS 221053Z 28004KT 9SM OVC080 06/06 A2990 RMK AO2 SLP128 T00610061
KLOL 221053Z AUTO 13005KT 10SM CLR 00/M03 A3033 RMK AO2 SLP267 T00001028 TSNO
KLOM 221055Z AUTO 00000KT 10SM BKN033 OVC041 08/07 A2991 RMK AO1
KLOR 221058Z AUTO 32007KT 10SM SCT050 BKN060 13/10 A2999 RMK AO2 SLP138 T01290096 $
KLOT 221055Z AUTO 32007KT 10SM CLR M06/M08 A3032 RMK AO2 T10571082
KLOU 221053Z AUTO 34006KT 10SM CLR M01/M04 A3026 RMK AO2 SLP251 T10061044
KLOZ 221053Z AUTO 35004KT 10SM CLR 02/M01 A3015 RMK AO2 SLP212 T00221011 FZRANO $
KLPC 221056Z AUTO 08007KT 10SM CLR 11/07 A3006 RMK AO2 SLP184 T01060067
KLPR 221053Z AUTO 36009KT 10SM OVC028 01/M06 A3015 RMK AO2 SLP216 T00061061
KLQK 221115Z AUTO 00000KT 7SM CLR 04/04 A2998 RMK AO2 T00420042
KLRD 221056Z AUTO 33012KT 10SM FEW041 14/06 A3022 RMK AO2 SLP238 T01390056
KLRF 221056Z AUTO 36006KT 10SM CLR 05/M05 A3032 RMK AO2 SLP271 T00501051
KLRJ 221055Z AUTO 00000KT 10SM CLR M12/M13 A3036 RMK AO2
KLRO 221055Z AUTO 31007KT 9SM OVC008 16/16 A2995 RMK AO2
KLRU 221055Z AUTO 18006KT 10SM CLR 08/M04 A3037 RMK AO2 T00821040
KLRY 221055Z AUTO 36004KT 10SM CLR M05/M09 A3044 RMK AO2
KLSE 221053Z AUTO 36004KT 10SM CLR M08/M12 A3035 RMK AO2 SLP293 T10781117 $
KLSF 221056Z AUTO 00000KT 1/2SM R33/1400V2000FT FG CLR 11/11 A3000 RMK AO2 SLP164 T01060106
KLSV 221058Z AUTO 00000KT 10SM CLR 11/M08 A3024 RMK AO2 SLP232 T01061081 $
KLTS 221056Z AUTO 33006KT 10SM CLR 00/M11 A3043 RMK AO2 SLP308 T10041106 $
KLUA 221055Z AUTO 00000KT 10SM OVC070 10/07 A2995 RMK AO2
KLUD 220955Z AUTO 01006KT 10SM CLR 04/M10 A3033 RMK AO2 T00441101
KLUF 221058Z 00000KT 10SM CLR 12/02 A3008 RMK AO2A SLP180 T01150022 RVRNO $
KLUK 221053Z AUTO 31006KT 10SM CLR M01/M03 A3025 RMK AO2 SLP245 T10061033
KLUL 221115Z AUTO 35004KT 10SM CLR 06/05 A3009 RMK AO2 T00590050
KLUM 221055Z AUTO 00000KT 10SM CLR M10/M13 A3032 RMK AO2 T11011126
KLUX 221055Z AUTO 00000KT 1/2SM FG BKN001 06/06 A2998 RMK AO2
KLVJ 221053Z AUTO 02013KT 10SM FEW016 OVC045 17/13 A3014 RMK AO2 SLP205 T01670133
KLVK 221053Z AUTO 00000KT 2 1/2SM BR CLR 10/09 A3015 RMK AO2 SLP207 T01000094
KLVL 221055Z AUTO 32003KT 3SM BKN020 OVC032 11/10 A2994 RMK AO1 P0008 T01070102
KLVM 221053Z AUTO 27026G39KT 10SM SCT060 13/03 A3009 RMK AO2 PK WND 24039/1048 SLP182 T01280033
KLVN 221050Z AUTO 00000KT 10SM CLR M11/M12 A3032 RMK AO2
KLVS 221053Z AUTO 18012KT 10SM CLR M01/M04 A3036 RMK AO2 SLP247 T10111044
KLWA 221057Z AUTO 04007KT 10SM OVC032 00/M07 A3025 RMK AO2 T10051072
KLWB 221055Z AUTO 30005KT 10SM CLR 06/00 A3001 RMK AO2 T00601005
KLWC 221052Z AUTO 00000KT 10SM CLR M07/M10 A3042 RMK AO2 SLP311 T10721100
KLWD 220853Z AUTO 35006KT 10SM CLR M08/M12 A3038 RMK AO2 SLP305 T10831117 51014
KLWM 221054Z AUTO 20003KT 10SM OVC090 11/06 A2997 RMK AO2 SLP148 T01110061
KLWS 221056Z AUTO 00000KT 8SM -RA BKN065 OVC080 09/09 A3012 RMK AO2 SLP204 P0003 T00890089
KLWT 221054Z AUTO 24025G33KT 10SM CLR 11/04 A2997 RMK AO2 PK WND 23033/1054 SLP148 T01110039
KLWV 221053Z AUTO 35007KT 10SM CLR M02/M06 A3032 RMK AO2 SLP270 T10221061
KLXL 221051Z AUTO 00000KT 10SM CLR M12/M15 A3029 RMK AO2
KLXN 221055Z AUTO 19007KT 10SM CLR M02/M10 A3027 RMK AO2 T10221098
KLXT 221053Z AUTO 36005KT 10SM CLR M06/M10 A3041 RMK AO2 SLP309 T10561100
KLXV 221053Z AUTO 03008KT 10SM CLR M05/M07 A3048 RMK AO2 SLP281 T10501072
KLXY 221055Z AUTO 33012G17KT 10SM CLR 09/M01 A3026 RMK AO2 T00871009
KLYH 221054Z AUTO VRB06KT 10SM OVC080 10/08 A2996 RMK AO2 SLP143 T01000078
KLYV 221059Z AUTO 00000KT 10SM CLR M13/M15 A3033 RMK AO2
KLZU 221056Z AUTO 00000KT 3SM BR CLR 08/08 RMK AO2 SLPNO T00830078 $
KLZZ 221055Z AUTO 36010G14KT 10SM CLR 07/01 A3028 RMK AO2 T00730011
KM04 221055Z AUTO 02009KT 10SM CLR 01/M04 A3030 RMK A01
KM08 221055Z AUTO VRB06G12KT 10SM OVC035 03/M03 A3024 RMK A01
KM19 221056Z AUTO 03010KT 10SM CLR 02/M04 A3037 RMK AO2 SLP290 T00171039
KM21 221055Z AUTO 00000KT 10SM CLR M02/M05 A3029 RMK AO2 T10211053
KM25 221115Z AUTO 36006KT 10SM CLR M01/M05 A3031 RMK AO2
KM30 221055Z AUTO 34004KT 10SM CLR M01/M06 A3033 RMK AO2 T10151057
KM33 221055Z AUTO 33006KT 10SM FEW031 SCT039 02/M01 A3024 RMK A01
KM40 221055Z AUTO 01008KT 10SM CLR 04/04 A3016 RMK AO2
KM75 221055Z AUTO 08003KT 10SM CLR M06/M09 A2981 RMK A01
KM91 221055Z AUTO 35008G13KT 10SM CLR M01/M04 A3024 RMK A01
KMAE 221053Z AUTO 00000KT 4SM BR CLR 08/07 A3016 RMK AO2 SLP210 T00830067 TSNO
KMAF 221053Z AUTO 01005KT 10SM CLR 02/M04 A3040 RMK AO2 SLP274 T00171039
KMAI 221053Z AUTO 36006KT 7SM SCT016 OVC024 16/16 A2997 RMK AO2 SLP148 T01610156
KMAN 221055Z AUTO 00000KT 10SM 11/11 A3025 RMK A01
KMAO 221055Z AUTO 00000KT 5SM BR CLR 12/12 A2994 RMK AO2
KMAW 221135Z AUTO 35006KT 10SM CLR 00/M05 A3038 RMK AO2
KMBG 221052Z AUTO 17011KT 10SM CLR M06/M11 A3010 RMK AO2 SLP222 T10561106
KMBL 221056Z AUTO 31006KT 9SM -SN OVC033 M02/M07 A3024 RMK AO2 SLP263 T10171072 FZRANO PNO $
KMBO 221055Z AUTO 00000KT 10SM CLR 05/03 A3011 RMK AO2
KMBS 221053Z 29008KT 10SM OVC044 M02/M07 A3022 RMK AO2 SLP240 T10171072 $
KMBY 221115Z AUTO 30004KT 10SM CLR M05/M10 A3040 RMK AO2
KMCB 221053Z AUTO 35005KT 10SM CLR 11/05 A3009 RMK AO2 SLP185 T01060050
KMCC 221050Z AUTO 34004KT M1/4SM FG VV000 10/10 A3018 RMK AO2
KMCD 221054Z AUTO 29006KT 10SM SCT013 SCT033 SCT042 M03/M07 A3017 RMK AO2 T10351066
KMCE 221053Z AUTO 00000KT 1/4SM FG VV012 08/07 A3014 RMK AO2 SLP208 T00830067
KMCF 221057Z 09006KT 7SM FEW004 OVC014 18/18 A2993 RMK AO2A SLP138 T01750175
KMCI 221053Z 00000KT 10SM CLR M09/M11 A3041 RMK AO2 SLP310 T10891111
KMCJ 221055Z AUTO 01010KT 10SM FEW014 OVC045 15/12 A3012 RMK A01
KMCK 221053Z AUTO 15004KT 10SM CLR M04/M08 A3026 RMK AO2 SLP268 T10391078
KMCN 221053Z AUTO 28003KT 7SM OVC014 11/11 A3000 RMK AO2 SLP157 T01110111
KMCO 221055Z 36006KT 1/2SM R35L/1600V2200FT FG VV002 18/18 A2994 RMK AO2 T01780178
KMCW 221053Z AUTO 31005KT 10SM CLR M11/M13 A3036 RMK AO2 SLP297 T11111133
KMCX 221115Z AUTO 31006KT 10SM CLR M05/M08 A3028 RMK AO2 T10481085
KMDD 221055Z AUTO 00000KT 10SM CLR 03/M02 A3041 RMK AO2 T00301025
KMDH 221052Z AUTO 33006KT 10SM CLR M03/M06 A3036 RMK AO2 SLP284 T10281061
KMDQ 221055Z AUTO 36007KT 10SM CLR 05/01 A3013 RMK AO2
KMDS 221050Z AUTO 20004KT 10SM CLR M12/M12 A3027 RMK AO2
KMDT 221056Z 33007KT 9SM SCT060 OVC080 05/03 A2991 RMK AO2 SLP131 T00500033
KMDW 221053Z 32009KT 10SM CLR M04/M10 A3031 RMK AO2 SLP276 T10391100
KMDZ 221055Z AUTO 34004KT 10SM OVC022 M09/M13 A3026 RMK AO2 T10871130
KMEB 221052Z AUTO 00000KT 2SM BR FEW065 12/12 A2994 RMK AO2 VIS 1V4 SLP138 T01170117
KMEH 221056Z AUTO 00000KT 4SM RA BR OVC047 10/09 A3018 RMK AO2 SLP219 P0008 T01000089
KMEI 221058Z AUTO 00000KT 10SM R01/3500VP6000FT CLR 06/04 A3009 RMK AO2 SLP187 T00560039
KMEM 221054Z 36011KT 10SM CLR 03/M02 A3028 RMK AO2 SLP252 T00331022
KMER 221055Z AUTO 00000KT 09/09 A3015 RMK AO1
KMEV 221055Z AUTO 08003KT 10SM CLR 00/00 A3036 RMK AO2
KMEZ 221055Z AUTO 00000KT 10SM CLR 04/M02 A3031 RMK AO2
KMFD 221107Z 31008KT 10SM FEW020 SCT027 OVC041 00/M03 A3014 RMK AO2 T00001033
KMFE 221053Z AUTO 34013G21KT 10SM OVC021 18/13 A3010 RMK AO2 SLP192 T01830128
KMFI 221054Z AUTO 33004KT 10SM BKN020 M09/M13 A3027 RMK AO2 SLP274 T10891133 TSNO
KMFR 221053Z AUTO 00000KT 8SM OVC090 12/12 A3014 RMK AO2 SLP201 T01220122
KMFV 221050Z AUTO 16007KT 10SM SCT039 BKN048 BKN095 16/15 A2991 RMK AO2 T01600150
KMGC 221055Z AUTO 33009KT 10SM OVC030 00/M05 A3027 RMK AO2
KMGE 221056Z AUTO 33005KT 10SM CLR 10/06 A3001 RMK AO2 SLP162 T01030057 $
KMGG 221053Z AUTO 00000KT 10SM CLR M10/M11 A3032 RMK AO2 T11051115
KMGJ 221054Z AUTO 29003KT 10SM CLR 01/M01 A2989 RMK AO2 SLP124 T00061011
KMGM 221053Z AUTO 00000KT 10SM CLR 04/02 A3004 RMK AO2 SLP172 T00440017
KMGN 221054Z AUTO 30005KT 10SM OVC047 M02/M10 A3018 RMK AO2 T10221097
KMGR 221055Z AUTO 00000KT 1 1/4SM -DZ BKN001 BKN009 OVC028 15/15 A2999 RMK AO2
KMGW 221107Z AUTO 30004KT 10SM SCT010 BKN019 OVC036 03/01 A3007 RMK AO2 RAE1054 P0000 T00330011
KMGY 221053Z AUTO 32006KT 10SM SCT034 M02/M04 A3019 RMK AO2 SLP229 T10171044
KMHE 221053Z AUTO 12004KT 10SM CLR M11/M13 A3030 RMK AO2 SLP283 T11111133
KMHK 221052Z AUTO 00000KT 10SM CLR M09/M12 A3043 RMK AO2 SLP317 T10891117
KMHL 221055Z AUTO 00000KT 10SM CLR M04/M07 A3042 RMK AO2
KMHR 221045Z 06004KT 10SM VV002 10/10 A3015 FG
KMHS 221056Z AUTO 00000KT 2SM BR CLR 07/06 A3024 RMK AO2 SLP250 T00670061
KMHT 221053Z 00000KT 10SM SCT100 BKN200 03/02 A2994 RMK AO2 SLP153 T00330017
KMHV 221040Z AUTO 33006KT 10SM CLR 10/M03 A3025 RMK A01
KMIA 221053Z 00000KT 10SM CLR 22/21 A2991 RMK AO2 SLP130 T02170206
KMIB 221056Z AUTO 14006KT 10SM SCT090 M10/M13 A2998 RMK AO2 SLP193 T11001130
KMIC 221053Z AUTO 00000KT 10SM CLR M10/M14 A3031 RMK AO2 SLP280 T11001139 TSNO
KMIE 221053Z 31008KT 10SM FEW035 M01/M04 A3022 RMK AO2 SLP237 T10111044
KMIS 221055Z AUTO 05018KT 10SM SCT120 19/12 A3002 RMK A01
KMIV 221054Z AUTO 00000KT 10SM FEW050 OVC100 12/12 A2990 RMK AO2 RAB27E38 SLP124 T01220122 PNO $
KMIW 221053Z AUTO 30005KT 10SM CLR M10/M12 A3037 RMK AO2 SLP300 T11001122
KMJQ 221054Z AUTO 00000KT 10SM SCT120 M11/M13 A3032 RMK AO2
KMJX 221056Z AUTO 17003KT 7SM -RA SCT046 SCT055 OVC075 11/11 A2992 RMK AO2 SLP139 P0000 T01110106
KMKC 221054Z 35005KT 10SM CLR M05/M10 A3043 RMK AO2 SLP313 T10501100
KMKE 221052Z 33005KT 10SM CLR M06/M10 A3031 RMK AO2 SLP274 T10561100
KMKG 221055Z 35008KT 10SM OVC035 M01/M08 A3026 RMK AO2 SLP254 T10061078
KMKJ 221055Z AUTO 28014G19KT 10SM CLR 07/M02 A3004 RMK AO2 T00711016
KMKL 221053Z AUTO 35010KT 10SM CLR 02/M03 A3027 RMK AO2 SLP252 T00171028
KMKN 221055Z AUTO 35009KT 10SM CLR 05/M02 A3035 RMK AO2 T00491022
KMKO 221053Z AUTO 34007KT 10SM CLR M02/M07 A3041 RMK AO2 SLP299 T10171067
KMKS 221055Z AUTO 00000KT 5SM BR OVC012 14/13 A2995 RMK AO2
KMKT 221056Z AUTO 21004KT 10SM CLR M11/M13 A3034 RMK AO2 SLP294 T11061128 FZRANO
KMKY 221056Z AUTO 06003KT 10SM CLR 19/19 A2992 RMK AO2 SLP132 T01940189
KMLB 221053Z AUTO 34005KT 9SM FEW004 OVC008 21/19 A2992 RMK AO2 SLP132 T02060194
KMLC 221053Z AUTO 01011KT 10SM CLR 01/M07 A3038 RMK AO2 SLP289 T00061067
KMLE 221055Z AUTO 00000KT 10SM CLR M07/M11 A3040 RMK AO2 T10741107
KMLF 221052Z AUTO 24006KT 10SM CLR 02/M02 A3041 RMK AO2 SLP276 T00171017
KMLI 221052Z AUTO 26003KT 10SM CLR M07/M11 A3038 RMK AO2 SLP294 T10671111
KMLJ 221055Z AUTO 00000KT 1SM BR OVC003 12/12 A3000 RMK AO2
KMLP 221053Z AUTO 21011G27KT 1/4SM -RA FG VV001 05/04 A3011 RMK AO2 PK WND 23027/1045 SLP158 P0002 T00500044 TSNO $
KMLS 221053Z AUTO 16008KT 10SM CLR M01/M02 A2995 RMK AO2 SLP170 T10111022
KMLT 221053Z AUTO 00000KT 9SM CLR M05/M06 A2997 RMK AO2 SLP160 I1000 T10501056 TSNO
KMLU 221053Z AUTO 01013KT 10SM CLR 09/07 A3018 RMK AO2 SLP219 T00890067
KMMH 221055Z AUTO 32003KT 10SM CLR 00/M01 A3049 RMK AO2 T00001013
KMMI 221055Z AUTO 33005KT 10SM CLR 02/01 A3009 RMK
KMMK 221053Z AUTO 00000KT 10SM CLR 05/04 A2992 RMK AO2 SLP134 T00500044
KMML 221056Z AUTO 19003KT 10SM CLR M12/M14 A3031 RMK AO2 SLP289 T11221144 FZRANO
KMMT 221058Z 27005KT 1/2SM R32/2800FT FG OVC002 13/13 A2996 RMK AO2A SLP148 T01270127 $
KMMU 221035Z AUTO 00000KT 10SM SCT040 BKN046 BKN060 03/02 A2992 RMK AO2 LTG DSNT S
KMMV 221108Z AUTO 12005KT 2SM RA BR BKN041 OVC050 13/13 A3002 RMK AO2 P0003 T01330133
KMNE 221055Z AUTO 01006KT 10SM CLR 10/04 A3021 RMK AO2 T00980040
KMNH 221049Z AUTO 21007KT 10SM SCT110 02/M04 A3030 RMK AO2
KMNI 221055Z 1SM BR OVC002 11/10 A2996 RMK AO2
KMNM 221056Z AUTO VRB04KT 10SM OVC040 M04/M10 A3028 RMK AO2 SNB0958E44 SLP275 P0000 T10391100 FZRANO $
KMNN 221053Z AUTO 33008KT 10SM OVC038 01/M03 A3017 RMK AO2 SLP223 T00061033
KMNV 221055Z AUTO 35006KT 10SM FEW050 FEW055 07/01 A3008 RMK A01
KMNZ 221055Z AUTO 35010KT 10SM CLR 06/M01 A3032 RMK AO2 T00641013
KMOB 221056Z AUTO 01009KT 10SM CLR 12/05 A3005 RMK AO2 SLP173 T01170050
KMOD 221053Z AUTO 00000KT 2 1/2SM BR CLR 10/09 A3015 RMK AO2 SLP210 T01000089
KMOP 221055Z AUTO 28006KT 10SM OVC046 M01/M08 A3021 RMK AO2 T10111081
KMOR 221055Z AUTO 33006KT 10SM FEW036 SCT043 SCT049 07/00 A3008 RMK A01
KMOT 221054Z AUTO 12008KT 10SM BKN110 M09/M13 A2999 RMK AO2 SLP190 T10891128
KMOX 221053Z AUTO 17004KT 10SM CLR M13/M14 A3027 RMK AO2
KMPO 221053Z AUTO 00000KT 7SM BKN095 02/02 A2987 RMK AO2 SLP128 T00170017
KMPV 221051Z AUTO 20007KT 10SM FEW095 04/M02 A2993 RMK AO2 SLP145 T00441022
KMPZ 221055Z AUTO 29004KT 10SM CLR M07/M11 A3039 RMK AO2 T10751106
KMQB 221055Z AUTO 31007KT 10SM CLR M07/M08 A3040 RMK AO2 T10661084
KMQE 221056Z AUTO 16010KT 10/08 A2995 RMK AO1 SLP152 T01000083
KMQI 221045Z AUTO 15003KT 3SM RA BKN055 BKN070 OVC095 15/15 A2992 RMK AO2 P0022 T01520151
KMQJ 221057Z AUTO 30005KT 10SM CLR M05/M05 A3025 RMK AO1
KMQS 221055Z AUTO VRB05KT 6SM -RA FEW025 SCT037 BKN046 10/09 A2991 RMK AO2 P0004
KMQY 221056Z AUTO 33008KT 10SM CLR 03/M02 A3022 RMK AO2 SLP212 T00281017
KMRB 221053Z AUTO 27009KT 10SM OVC080 12/00 A2993 RMK AO2 SLP137 T01170000
KMRC 221055Z AUTO 35006KT 10SM OVC034 03/M01 A3018 RMK A01
KMRF 221056Z AUTO 36012KT 10SM CLR 04/M06 A3039 RMK AO2 SLP267 T00391056
KMRH 221104Z AUTO 31006KT 1 1/4SM BR BKN002 14/14 A2988 RMK AO2 T01440144 TSNO
KMRJ 221055Z AUTO 00000KT 10SM CLR M07/M09 A3030 RMK AO2
KMRN 221045Z AUTO 36004KT 1SM BR BKN001 BKN045 BKN120 03/03 A3002 RMK AO2 T00320032
KMRT 221053Z AUTO 35007KT 10SM OVC038 01/M04 A3017 RMK AO2 T00051036
KMRY 221054Z AUTO 07004KT 10SM CLR 14/11 A3009 RMK AO2 SLP201 T01440106 TSNO
KMSL 221053Z AUTO 02008KT 10SM CLR 06/01 A3017 RMK AO2 SLP217 T00560006
KMSN 221053Z AUTO 35006KT 10SM CLR M08/M12 A3031 RMK AO2 SLP278 T10781117
KMSO 221053Z AUTO 00000KT 6SM BR FEW042 BKN049 OVC060 03/03 A3016 RMK AO2 RAB08E20 SLP233 P0000 T00330028
KMSP 221053Z 00000KT 10SM CLR M09/M12 A3033 RMK AO2 SLP284 T10891122
KMSS 221053Z AUTO 19004KT 2SM -SN BR BKN007 OVC010 01/01 A2996 RMK AO2 SLP150 P0003 T00060006 $
KMSV 220956Z AUTO 04005KT 10SM CLR 01/M01 A2989 RMK AO2 SLP132 T00061006 FZRANO
KMSY 221053Z 02007KT 10SM FEW100 OVC160 16/10 A3005 RMK AO2 SLP178 T01560100
KMTC 221056Z AUTO 32011KT 10SM OVC034 M01/M05 A3017 RMK AO2 UPB25E41 SLP227 P0000 T10081054 $
KMTH 221053Z AUTO 05005KT 10SM SCT025 23/22 A2990 RMK AO2 SLP124 T02330217
KMTJ 221053Z AUTO 17006KT 10SM CLR 00/M02 A3048 RMK AO2 SLP300 T00001022
KMTN 221045Z 00000KT 6SM RA OVC070 0/09 A2992
KMTO 221053Z AUTO 32007KT 10SM CLR M06/M07 A3031 RMK AO2 SLP272 T10561067
KMTP 221054Z AUTO 28005KT 13/12 A2996 RMK AO1 SLP146 P0007 T01330117
KMTV 221055Z AUTO 35004KT 10SM CLR 05/05 A3000 RMK AO2 T00470045
KMTW 221056Z AUTO 29006KT 10SM OVC032 M04/M09 A3030 RMK AO2 SLP285 T10441094 FZRANO
KMUI 221056Z AUTO 00000KT 10SM SCT065 OVC080 03/03 A2991 RMK AO2 SLP135 T00280027 TSNO $
KMUO 221058Z AUTO 11012KT 10SM SCT090 OVC110 11/11 A3027 RMK AO2 SLP248 T01070107 $
KMUT 221055Z AUTO 32005KT 10SM CLR M07/M10 A3039 RMK AO2
KMVE 221052Z AUTO 00000KT 10SM CLR M12/M14 A3031 RMK AO2
KMVH 221100Z AUTO 29004G13KT 10SM CLR 12/02 A2997 RMK AO2
KMVL 221054Z AUTO 00000KT 10SM CLR M02/M03 A2990 RMK AO2 SLP133 T10171028 TSNO
KMVN 221056Z AUTO 00000KT 10SM CLR M03/M06 A3035 RMK AO2 SLP282 T10331061 FZRANO TSNO
KMVY 221053Z AUTO 17014KT 10SM BKN075 14/13 A2996 RMK AO2 SLP147 T01390128
KMWA 221055Z AUTO 34003KT 10SM CLR M01/M05 A3036 RMK AO2 T10151055
KMWC 221055Z AUTO 32004KT 10SM CLR M07/M12 A3031 RMK AO2
KMWH 221052Z AUTO 14003KT 4SM BR FEW003 BKN110 04/04 A3009 RMK AO2 SLP196 T00390039
KMWK 221105Z AUTO 30004KT 10SM CLR 06/05 A3001 RMK AO2 T00610045
KMWL 221053Z AUTO 34012KT 10SM CLR 04/M06 A3035 RMK AO2 SLP275 T00391061
KMWM 221055Z AUTO 00000KT 10SM CLR M12/M18 A3031 RMK AO2 PWINO TSNO
KMWN 221053Z 25036KT 65SM FEW050 FEW070 SCT120 BKN180 M04/M07 RMK
KMWO 221055Z AUTO 31005KT 10SM BKN036 M01/M04 A3023 RMK AO2 PWINO T10131040
KMWT 221053Z AUTO 00000KT 10SM CLR 02/M01 A3029 RMK AO2 SLP260 T00171006
KMXF 221056Z AUTO 00000KT 10SM CLR 07/05 A3002 RMK AO2 SLP169 T00680046
KMXO 221055Z AUTO 27003KT 10SM CLR M09/M11 A3035 RMK AO2
KMYF 221053Z AUTO 00000KT 10SM CLR 19/03 A3002 RMK AO2 SLP161 T01890033
KMYJ 221035Z AUTO 00000KT 10SM CLR M06/M09 A3039 RMK AO2
KMYL 221058Z AUTO 00000KT 1/2SM -RA FG OVC002 05/04 A3027 RMK AO2 P0001 T00500044 TSNO
KMYP 221054Z AUTO 24017KT 10SM CLR M04/M05 A3064 RMK AO2
KMYR 221056Z 33007KT 10SM BKN005 OVC027 16/15 A2994 RMK AO2 SLP138 T01560150
KMYV 221101Z AUTO 00000KT 1/4SM FG VV002 08/07 A3018 RMK AO2 T00830072
KMYZ 221055Z AUTO 00000KT 10SM CLR M08/M11 A3041 RMK AO2
KMZG 221055Z AUTO 02029G35KT 10SM SCT018 OVC023 20/16 A3003 RMK A01
KMZH 221055Z AUTO 24003KT 10SM CLR M12/M13 A3026 RMK AO2
KMZZ 221055Z AUTO 31007KT 10SM SCT035 M02/M04 A3024 RMK AO2 T10171040
KN03 221055Z AUTO 31006KT 10SM RA BKN012 OVC025 05/03 A2991 RMK AO2
KN38 221055Z AUTO 33018KT 10SM OVC037 04/01 A2989 RMK AO2
KN60 221052Z AUTO 17010KT M07/M11 A3000 RMK AO1 SLP197 T10721106
KNAK 221054Z AUTO 00000KT 10SM FEW026 SCT070 OVC100 12/12 A2992 RMK AO2 RAE30 SLP132 P0001 T01220117
KNBC 221056Z AUTO 29003KT 2SM BR OVC002 16/16 A2996 RMK AO2 SLP147 T01610161
KNBG 220955Z AUTO 01005KT CLR 14/12 A3003 RMK AO2 SLP167 T01440122 $
KNBT 221056Z AUTO 01003KT 10SM A2986 RMK AO2 RAEMM SLP117 PNO $
KNCA 221104Z AUTO 27007KT 2SM BR BKN002 OVC110 14/14 A2991 RMK AO2 T01440144
KNDZ 221056Z AUTO 35010KT 10SM BKN032 13/04 A3001 RMK AO2 SLP150 T01280044 $
KNEL 221000Z AUTO 00000KT 3SM -RA BR FEW070 OVC085 11/11 A2989 RMK AO2 RAE0920B0956 PNO $
KNEW 221053Z AUTO 03014KT 10SM CLR 16/11 A3005 RMK AO2 SLP170 T01560106
KNFE 221056Z AUTO 14004KT 10SM CLR 17/15 A2989 RMK AO2 RAE20 SLP125 P0000 T01670150
KNFG 221057Z AUTO 00000KT 10SM CLR 09/03 A3002 RMK AO2 SLP163 T00890028 $
KNFL 221056Z AUTO 00000KT 10SM CLR 04/02 A3032 RMK AO2 SLP226 T00440017
KNFW 221052Z AUTO 34011KT 10SM CLR 07/M07 A3035 RMK AO2 SLP259 T00671072 $
KNGP 221056Z AUTO 01018G26KT 10SM FEW065 SCT080 19/16 A3008 RMK AO2 PK WND 02031/1020 SLP185 T01890156
KNGU 221059Z 17005KT 10SM SCT035 BKN100 OVC150 16/14 A2991 RMK SLP126 T01610139
KNHK 221052Z 20004KT 10SM -RA FEW025 BKN040 OVC070 12/12 A2990 RMK AO2 SLP127 P0010 T01220117 $
KNID 221056Z AUTO 00000KT 10SM CLR 06/M05 A3025 RMK AO2 SLP240 T00611050 $
KNIP 221053Z 31003KT 10SM FEW010 BKN250 16/16 A2995 RMK AO2 SLP138 T01610156 $
KNJK 221056Z AUTO 24005KT 10SM CLR 14/M05 A3006 RMK AO2 SLP193 T01441050
KNKT 220929Z 06005KT 5SM -RA BR BKN003 OVC110 16/16 A2990 RMK AO2 P0002 T01560156
KNKX 221055Z 04005KT 10SM CLR 20/03 A3002 RMK AO2 SLP158 T02000028 $
KNLC 221056Z AUTO 31008KT 2 1/2SM -SN CLR A3016 RMK AO2 SNB05 SLPNO P0000 $
KNMM 221056Z AUTO 34003KT 10SM CLR 07/02 A3009 RMK AO2 SLP199 T00670022
KNOG 221056Z AUTO 35013KT 10SM CLR 15/13 A3015 RMK AO2 SLP188 T01500128 PNO $
KNOW 221055Z AUTO 23004KT 7SM -RA OVC110 09/09 A2989 RMK AO2 P0002 T00900085
KNPA 221056Z AUTO 35007KT CLR 12/06 A3000 RMK AO2 SLP161 T01220056 $
KNQA 221055Z AUTO 35008G16KT 10SM CLR 02/M03 A3029 RMK A01
KNQI 221056Z AUTO 35015G22KT 10SM OVC070 18/15 A3011 RMK AO2 SLP191 T01780150 $
KNQX 221101Z 03005KT 10SM FEW020 FEW060 23/23 A2990 RMK AO2 T02330233 $
KNRB 221052Z 31003KT 10SM CLR 16/14 A2994 RMK AO2 SLP137 T01560144
KNRS 221056Z 06007KT 5SM HZ CLR 17/05 A3001 RMK AO2 SLP163 T01720050 $
KNSE 221056Z AUTO 36005KT 10SM FEW030 11/06 A3001 RMK AO2 SLP151 T01060061 $
KNSI 221057Z AUTO 31008KT 10SM CLR 19/M01 A3003 RMK AO2 SLP164 T01891006 PWINO $
KNTD 221056Z AUTO 02008KT 10SM 17/05 A3002 RMK AO2 SLP166 T01720050 PWINO $
KNTU 221056Z 15006KT 10SM FEW006 BKN110 OVC140 16/14 A2989 RMK AO2 RAB03E15 SLP125 P0000 T01610144
KNUI 221053Z AUTO 19003KT 6SM -RA BR FEW029 BKN048 OVC080 12/11 A2991 RMK AO2 SLP127 P0008 T01170111 $
KNUQ 221056Z 21003KT 9SM CLR 12/12 A3014 RMK AO2 SLP207 T01220117
KNUW 221056Z 16013G18KT 6SM -RA BR SCT007 BKN012 OVC045 16/13 A2993 RMK AO2 RAB56 SLP134 P0000 T01560128 $
KNXF 221056Z AUTO 32005KT 10SM CLR 16/10 A3002 RMK AO2 SLP250 T01610100 $
KNXP 221056Z AUTO 29006KT 10SM CLR 16/M03 A3026 RMK AO2 SLP219 T01561028
KNY0 221055Z AUTO 07004KT 10SM BKN080 OVC090 02/M01 A2986 RMK AO2
KNYC 221051Z AUTO 00000KT 10SM BKN020 BKN070 OVC095 12/09 A2992 RMK AO2 SLP124 T01220089 $
KNYG 221108Z AUTO 00000KT FEW007 OVC100 11/11 A2994 RMK AO2 T01110106 $
KNYL 221057Z AUTO 01004KT 10SM CLR 19/M06 A3003 RMK AO2 SLP167 T01891061
KNZY 221052Z 00000KT 10SM CLR 14/09 A3001 RMK SLP162 T01440094
KO22 221055Z AUTO 00000KT 10SM CLR 10/10 A3021 RMK AO1
KO69 221055Z AUTO 08003KT 4SM BR OVC037 11/11 A3014 RMK A01
KO86 221055Z AUTO 00000KT 1 1/4SM OVC003 09/08 A3025 RMK AO1
KOAJ 221108Z AUTO 00000KT 3SM BR OVC003 14/14 A2992 RMK AO2
KOAK 221053Z COR 00000KT 6SM BR CLR 12/12 A3013 RMK AO2 SLP202 T01220117
KOBE 221055Z AUTO 00000KT 1/4SM FG OVC002 16/16 A2992 RMK AO2 P0001 LTG DSNT SW
KOCF 221110Z AUTO 00000KT 1 3/4SM BR CLR 13/12 A2996 RMK AO2
KOCH 221056Z AUTO 35006KT 10SM CLR 11/09 A3020 RMK AO2 SLP231 T01060089
KOCQ 221055Z AUTO 32005KT 10SM OVC038 M04/M11 A3029 RMK AO1 T10411110
KOCW 221105Z AUTO 00000KT 3/4SM BR OVC003 13/12 A2991 RMK AO2 T01270122
KODO 221053Z AUTO 04007KT 10SM 03/M03 A3040 RMK AO2 SLP273 T00331033 PWINO $
KODX 221053Z AUTO 12004KT 10SM CLR M07/M09 A3027 RMK AO2 SLP281 T10721094
KOEB 221054Z AUTO 34009KT 10SM OVC030 M01/M07 A3021 RMK AO2 T10071072
KOEO 221055Z AUTO 23003KT 10SM CLR M10/M12 A3034 RMK AO2 T11041125
KOFF 221056Z AUTO 00000KT 10SM CLR M09/M13 A3039 RMK AO2 SLP312 T10941129 $
KOFK 221056Z AUTO 21007KT 10SM CLR M12/M13 A3033 RMK AO2 SLP300 T11171133
KOFP 221054Z AUTO 17004KT 7SM SCT070 OVC085 11/11 A2993 RMK AO2 RAB03E43 SLP135 P0013 T01110111 $
KOGA 221055Z AUTO 00000KT 10SM CLR M03/M04 A3018 RMK AO2 T10261045
KOGB 221053Z AUTO 34003KT 1/2SM FG VV002 12/12 A2997 RMK AO2 SLP147 T01220122
KOGD 221053Z AUTO 18006KT 10SM OVC048 09/04 A3038 RMK AO2 SLP266 T00940039
KOGS 221055Z AUTO 00000KT 1 1/2SM -SN OVC006 01/00 A2995 RMK AO2 T00060002
KOJA 221055Z AUTO 33004KT 10SM CLR M02/M08 A3043 RMK AO2
KOJC 221053Z AUTO 35005KT 10SM CLR M06/M10 A3040 RMK AO2 SLP307 T10611100
KOKB 221052Z AUTO 00000KT 10SM CLR 12/05 A3001 RMK AO2 SLP162 T01220050
KOKC 221052Z 03007KT 10SM SCT250 M01/M09 A3040 RMK AO2 SLP297 T10111094 $
KOKK 221056Z AUTO 30009KT 10SM SCT035 M03/M06 A3025 RMK AO2 SLP257 T10281056 FZRANO
KOKM 221055Z AUTO 01006KT 10SM CLR M02/M08 A3042 RMK AO2 T10181080
KOKV 221055Z AUTO 28008KT 10SM SCT070 OVC080 11/01 A2995 RMK AO2
KOKZ 221055Z AUTO 35003KT 3SM BR OVC001 10/10 A2999 RMK AO2 T00950095
KOLE 221055Z AUTO 31003KT 5SM -SN BKN005 OVC009 M01/M01 A2995 RMK AO2
KOLF 221053Z AUTO 00000KT 10SM BKN090 BKN110 M07/M13 A2987 RMK AO2 SLP148 T10721128
KOLG 221055Z AUTO 00000KT 10SM CLR M12/M13 A3027 RMK AO1
KOLM 221054Z AUTO 21006KT 10SM FEW012 OVC034 15/14 A2996 RMK AO2 SLP144 T01500144
KOLS 221054Z AUTO 03008KT 10SM CLR 11/M07 A3019 RMK AO2 SLP172 T01111067
KOLU 221056Z AUTO 25007KT 10SM CLR M09/M12 A3038 RMK AO2 SLP313 T10891117 FZRANO
KOLY 221055Z AUTO 33006KT 10SM CLR M03/M06 A3033 RMK AO2 T10311061
KOLZ 221055Z AUTO 31006KT 10SM CLR M10/M10 A3035 RMK AO2
KOMA 221052Z 00000KT 10SM FEW250 M09/M13 A3040 RMK AO2 SLP308 T10891128
KOMH 221055Z AUTO 00000KT 10SM OVC090 07/07 A2993 RMK AO2
KOMK 221053Z AUTO 18005KT 10SM OVC011 04/04 A3007 RMK AO2 SLP191 T00390039
KONA 221052Z AUTO 32005KT 10SM CLR M08/M12 A3036 RMK AO2
KONL 221055Z AUTO 15005KT 10SM CLR M08/M10 A3025 RMK AO2 T10801099
KONM 221055Z AUTO 00000KT 10SM CLR 01/M08 A3037 RMK AO2 T00111077
KONO 221053Z AUTO 24004KT 4SM BR FEW006 OVC085 08/08 A3028 RMK AO2 RAB11E23 SLP260 P0000 T00830078 TSNO
KONP 221055Z AUTO 19015G23KT 5SM -RA SCT009 BKN020 OVC049 15/14 A3002 RMK AO2 P0006
KONT 221053Z 34005KT 10SM FEW250 17/03 A3006 RMK AO2 SLP162 T01720033
KONX 221100Z AUTO 00000KT 10SM RA SCT090 OVC110 16/16 A2991 RMK AO2 T01600156
KONZ 221052Z AUTO 34009KT 10SM OVC034 00/M06 A3019 RMK AO2 T00001064
KOOA 221055Z AUTO 30004KT 10SM CLR M09/M11 A3041 RMK AO2 T10951111
KOPF 221053Z AUTO 00000KT 10SM CLR 20/20 A2992 RMK AO2 SLP132 T02000200 $
KOPL 221055Z AUTO 35004KT 10SM CLR 10/10 A3010 RMK AO2 T01000097
KOPN 221055Z AUTO 01003KT 4SM BR SCT010 11/08 A3001 RMK AO2
KOQT 221053Z AUTO 02003KT 10SM CLR 04/03 A3011 RMK AO2 SLP200 T00440033
KORB 221053Z AUTO 00000KT 10SM CLR M16/M18 A3019 RMK AO2
KORC 221055Z AUTO 00000KT 10SM CLR M11/M13 A3034 RMK AO2
KORD 221051Z 31005KT 10SM CLR M05/M09 A3031 RMK AO2 SLP271 T10501094
KORE 221052Z AUTO 00000KT 10SM CLR 00/00 A2993 RMK AO2 SLP139 T00000000 TSNO
KORF 221051Z 17005KT 10SM FEW036 SCT110 16/15 A2990 RMK AO2 SLP124 T01560150
KORG 221055Z AUTO 01006KT 10SM BKN075 OVC090 13/12 A3014 RMK AO2 LTG DSNT S T01330122
KORH 221054Z AUTO 20004KT 10SM SCT036 BKN080 OVC090 07/04 A2994 RMK AO2 SLP143 T00670039
KORL 221053Z AUTO 06005KT 1/2SM R07/2000V6000FT FG OVC002 18/18 A2994 RMK AO2 SLP144 T01830183
KORS 221055Z AUTO 35003KT 4SM -RA FEW010 BKN017 OVC065 14/14 A2989 RMK AO2
KOSA 221055Z AUTO 34009KT 10SM CLR 07/01 A3030 RMK AO1 T00710012
KOSC 221054Z AUTO 00000KT 10SM SCT050 M06/M09 A3018 RMK AO2 T10601091
KOSH 221053Z AUTO 29005KT 10SM CLR M08/M12 A3029 RMK AO2 SLP278 T10831117
KOSU 221053Z AUTO 33012G19KT 10SM OVC041 01/M03 A3016 RMK AO2 SLP220 T00111033
KOTG 221056Z AUTO 18005KT 10SM CLR M11/M14 A3031 RMK AO2 SLP298 T11111139 FZRANO
KOTH 221056Z AUTO 13003KT 5SM BR BKN075 BKN090 14/14 A3001 RMK AO2 SLP160 T01390139
KOTM 221053Z AUTO 30008KT 10SM CLR M08/M12 A3040 RMK AO2 SLP307 T10831117
KOUN 221055Z AUTO 03008KT 10SM CLR M02/M10 A3038 RMK AO2 T10161095
KOVE 221108Z AUTO 09003KT 2SM BR FEW002 11/11 A3017 RMK AO2 T01060106
KOVL 221053Z AUTO 21004KT 10SM CLR M12/M14 A3031 RMK AO2
KOVS 221053Z AUTO 00000KT 10SM CLR M09/M12 A3037 RMK AO2 SLP295 T10891117
KOWA 221054Z AUTO 00000KT 10SM CLR M12/M13 A3032 RMK AO2
KOWB 221056Z AUTO 34005KT 10SM CLR M02/M04 A3030 RMK AO2 SLP274 T10171044
KOWD 221053Z AUTO 00000KT 10SM OVC070 09/06 A2996 RMK AO2 SLP145 T00890061
KOWI 221055Z AUTO 00000KT 10SM CLR M07/M10 A3041 RMK AO2
KOWP 221055Z AUTO 03005KT 10SM CLR M01/M08 A3042 RMK AO2 T10101082
KOWX 221056Z AUTO 31006KT 10SM OVC034 00/ A3022 RMK AO1
KOXB 221053Z AUTO 28003KT 10SM -RA FEW018 BKN030 OVC035 15/14 A2992 RMK AO2 RAB32 SLP130 P0000 T01500144
KOXC 221051Z AUTO 00000KT 10SM SCT120 07/06 A2992 RMK AO2 SLP146 T00720056
KOXI 221055Z AUTO 27008KT 10SM OVC031 M02/M05 A3026 RMK AO1
KOXR 221051Z AUTO 02007KT 10SM CLR 19/03 A3002 RMK AO2 SLP164 T01940033 $
KOXV 221055Z AUTO 34004KT 10SM CLR M08/M12 A3037 RMK AO2
KOZA 221055Z AUTO 01005KT 10SM CLR 02/M02 A3039 RMK AO2
KOZR 221056Z AUTO 32004KT 10SM FEW029 SCT110 14/09 A2998 RMK AO2 SLP154 T01360092 $
KOZS 221055Z AUTO 35005KT 10SM CLR M03/M08 A3039 RMK AO2
KOZW 221054Z AUTO 32007KT 10SM OVC034 M02/M08 A3020 RMK AO2 T10181083
KP28 221056Z AUTO 25004KT M05/M10 A3042 RMK AO1 SLP313 T10501100
KP53 221056Z AUTO 32007KT M02/M06 A3019 RMK AO1 SLP234 T10171056
KP58 221051Z AUTO 30016G22KT M01/M08 A3015 RMK AO1 PK WND 30027/0958 SLP220 T10111078
KP59 220851Z AUTO 35014KT M02/M06 A3018 RMK AO1 SLP234 T10221061 51018 $
KP60 221056Z AUTO 27008KT 230V300 03/02 A3036 RMK AO1 SLP272 T00280022 $
KP68 221053Z AUTO 20008KT 03/00 A3043 RMK AO1 SLP267 T00330000
KP69 221052Z AUTO 34005KT 05/05 A3025 RMK AO1 SLP254 P0004 T00500050
KP92 221053Z AUTO VRB05KT M17/ A3003 RMK AO1 SLP169 T1172 $
KPAE 221053Z AUTO 14010KT 10SM BKN009 OVC016 14/14 A2996 RMK AO2 RAB14E52 CIG 006V012 SLP144 P0001 T01440139
KPAH 221053Z AUTO 36007KT 10SM CLR M02/M07 A3031 RMK AO2 SLP265 T10171067
KPAM 221056Z AUTO 01006KT 10SM BKN013 16/15 A2996 RMK AO2 SLP148 T01610153 TSNO $
KPAN 221055Z AUTO 06006KT 10SM 12/M04 A3033 RMK AO2
KPBF 221053Z AUTO 36009KT 10SM CLR 06/M01 A3028 RMK AO2 SLP253 T00611011
KPBG 221053Z AUTO 00000KT 10SM OVC055 03/M02 A2988 RMK AO2 SLP119 T00281017
KPBH 221055Z AUTO 00000KT 10SM OVC027 M10/M12 A3024 RMK AO2 T11011125
KPBI 221053Z 00000KT 6SM BR FEW024 FEW250 21/20 A2992 RMK AO2 SLP132 T02060194 $
KPBX 221055Z AUTO 33007KT 10SM CLR 04/00 A3010 RMK AO2 T00440000
KPCD 221055Z AUTO 33006KT 10SM CLR M02/M06 A3038 RMK AO2 T10221065 PWINO
KPCM 221055Z AUTO 00000KT 4SM BR CLR 17/16 A2996 RMK AO2
KPCZ 221055Z AUTO 26004KT 10SM SCT031 M06/M10 A3031 RMK AO2 T10651105
KPDC 221055Z AUTO 00000KT 10SM CLR M07/M11 A3036 RMK AO2 T10681115
KPDK 221053Z AUTO 00000KT 10SM CLR 09/08 A3001 RMK AO2 SLP160 T00890083
KPDT 221053Z AUTO 00000KT 5SM -RA BR OVC065 07/07 A3009 RMK AO2 RAB43 SLP188 P0001 T00670067
KPDX 221053Z 11012KT 10SM OVC050 10/09 A3001 RMK AO2 SLP162 T01000089
KPEA 221055Z AUTO 32004KT 10SM CLR M08/M11 A3041 RMK AO2 T10841113
KPEO 221053Z AUTO A2997 RMK AO2 RAEMM SLPNO P0002 PWINO FZRANO RVRNO $
KPEQ 221055Z AUTO 00000KT 10SM CLR 03/M04 A3043 RMK AO2 T00261042
KPEX 221054Z AUTO 00000KT 10SM CLR M13/M13 A3030 RMK AO2 T11261131
KPGA 221053Z AUTO 00000KT 10SM CLR 06/M06 A3037 RMK AO2 SLP263 T00611056 TSNO
KPGD 221053Z 07003KT 3/4SM BR VV002 15/14 A2994 RMK AO2 SLP140 T01500144
KPGV 221105Z AUTO 00000KT 10SM SCT017 SCT038 BKN055 12/11 A2993 RMK AO2
KPHD 221053Z AUTO 29005KT 10SM BKN020 OVC050 02/M01 A3012 RMK AO2 SLP206 T00171006
KPHF 221054Z 32005KT 10SM CLR 13/12 A2991 RMK AO2 SLP128 T01330117
KPHL 221054Z 18006KT 10SM -RA SCT030 BKN040 OVC080 11/09 A2991 RMK AO2 RAB39 SLP128 P0001 T01110089
KPHN 221056Z AUTO 33009G17KT 10SM SCT035 OVC043 M01/M08 A3017 RMK AO2
KPHP 221055Z AUTO 00000KT 10SM CLR M06/M07 A3010 RMK AO2 SLP217 T10611072
KPHT 221055Z AUTO 36007KT 10SM CLR M01/M04 A3027 RMK A01
KPHX 221051Z 11005KT 10SM FEW250 14/01 A3008 RMK AO2 SLP177 T01440011
KPIA 221054Z 32003KT 10SM CLR M07/M09 A3037 RMK AO2 SLP291 T10671094 $
KPIB 221056Z AUTO 36006KT 10SM CLR 08/04 A3009 RMK AO2 SLP189 T00830044
KPIE 221103Z 07005KT 8SM BKN005 19/18 A2994 RMK AO2 T01890178
KPIH 221053Z AUTO 03003KT 7SM FEW060 FEW080 BKN100 04/04 A3035 RMK AO2 SLP275 T00440044
KPIL 221053Z AUTO 34015KT 10SM FEW013 18/17 A3003 RMK AO2 PK WND 34027/1004 LTG DSNT E SLP167 T01780167
KPIM 221055Z AUTO 02003KT 10SM CLR 12/11 A3001 RMK AO2 T01170107 PWINO
KPIR 221053Z AUTO 14010KT 10SM CLR M07/M11 A3015 RMK AO2 SLP236 T10721111
KPIT 221109Z 31009KT 9SM -DZ BKN006 OVC010 02/02 A3006 RMK AO2 DZB09 P0000 T00220017
KPKB 221053Z AUTO VRB05KT 10SM FEW012 OVC035 03/01 A3015 RMK AO2 SLP213 T00280011
KPKD 221053Z AUTO 00000KT 10SM CLR M13/M16 A3022 RMK AO2 SLP268 T11331161
KPKV 221055Z AUTO 01014G20KT 10SM SCT016 SCT036 16/13 A3011 RMK AO2 T01550134
KPLN 221054Z AUTO 34008KT 10SM BKN048 OVC055 M03/M08 A3018 RMK AO2 SLP232 T10281078
KPLR 221055Z AUTO 00000KT 5SM BR CLR 01/01 A3008 RMK A01
KPLU 221055Z AUTO 18005KT 10SM BKN041 OVC050 17/14 A2996 RMK AO2
KPMD 221053Z AUTO 00000KT 10SM CLR 09/M09 A3025 RMK AO2 SLP230 T00891089 TSNO
KPMP 221053Z AUTO 00000KT 7SM CLR 21/21 A2992 RMK AO2 SLP132 T02110206
KPMU 221055Z AUTO 02007KT 10SM CLR 05/M03 A3024 RMK AO2 T00481029
KPMV 221055Z AUTO 27004KT 10SM CLR M09/M12 A3040 RMK AO2 T10941117
KPNA 221055Z AUTO 00000KT 10SM OVC026 00/00 A3041 RMK AO2
KPNC 221053Z AUTO 36004KT 10SM CLR M05/M10 A3043 RMK AO2 SLP310 T10501100
KPNE 221054Z AUTO 00000KT 10SM OVC033 11/08 A2992 RMK AO2 SLP130 T01060083
KPNM 221054Z AUTO 00000KT 10SM CLR M13/M14 A3030 RMK AO2
KPNS 221053Z AUTO 35010KT 10SM CLR 13/06 A3001 RMK AO2 SLP164 T01280056
KPNT 221055Z AUTO 30003KT 10SM CLR M06/M07 A3035 RMK AO2 T10581070
KPOB 221056Z AUTO 00000KT 10SM FEW041 FEW049 SCT055 12/11 A2992 RMK AO2 RAE16DZB16E28 SLP135 P0001 T01180110
KPOE 221058Z AUTO 35005KT 10SM BKN035 11/09 A3014 RMK AO2 SLP209 T01050094
KPOF 221053Z AUTO 35009KT 10SM CLR M01/M07 A3036 RMK AO2 SLP284 T10061067
KPOU 221053Z AUTO 00000KT 10SM CLR 01/M01 A2990 RMK AO2 SLP121 T00111011
KPOV 221052Z AUTO 33009KT 5SM DZ BKN014 OVC021 00/M01 A3010 RMK AO2 T00001010
KPOY 221055Z AUTO 12011KT 10SM CLR 02/M02 A3012 RMK AO2
KPPA 221055Z AUTO 00000KT 10SM CLR 00/M04 A3039 RMK AO2 T00001043
KPPF 221052Z AUTO 34003KT 10SM CLR M06/M09 A3044 RMK AO2 SLP314 T10611089
KPPO 221055Z AUTO 36007KT 10SM OVC030 00/M05 A3026 RMK AO2 T00001053
KPPQ 221055Z AUTO 31004KT 10SM CLR M05/M08 A3039 RMK AO2 T10551084
KPQI 221056Z AUTO 00000KT 9SM CLR M04/M04 A2994 RMK AO2 SLP186 T10391044 FZRANO
KPQL 221053Z AUTO 36004KT 10SM CLR 10/07 A3005 RMK AO2 SLP177 T01000067
KPQN 221054Z AUTO 18004KT 10SM CLR M13/M16 A3028 RMK AO2
KPRB 221053Z AUTO 00000KT 10SM CLR 08/03 A3013 RMK AO2 SLP199 T00780033
KPRC 221053Z AUTO 19008KT 10SM CLR 06/M02 A3033 RMK AO2 SLP216 T00611022
KPRG 221055Z AUTO 33005KT 10SM CLR M05/M06 A3032 RMK AO2 T10501065
KPRN 221056Z AUTO 34004KT 10SM CLR 08/03 A3002 RMK AO2 SLP165 T00780028
KPRO 221055Z AUTO 28006KT 10SM CLR M11/M12 A3039 RMK AO2 T11071125
KPRS 221055Z AUTO 02007KT 10SM CLR 12/M04 A3036 RMK AO2 T01161040
KPRX 221056Z AUTO 35011KT 10SM CLR 04/M06 A3031 RMK AO2 SLP282 T00441061
KPSC 221053Z AUTO 16007KT 5SM -RA BR BKN070 OVC100 07/06 A3010 RMK AO2 RAB41 SLP195 P0000 T00670061
KPSF 221054Z AUTO 02004KT 10SM CLR 03/00 A2989 RMK AO2 SLP118 T00280000
KPSK 221055Z AUTO 29006KT 10SM CLR 08/01 A3001 RMK AO2 T00750008
KPSM 221056Z 32003KT 10SM BKN100 OVC200 05/02 A2995 RMK AO2A SLP145 T00450024 $
KPSN 221055Z AUTO 34007KT 10SM CLR 09/04 A3025 RMK AO2 T00940046
KPSO 221055Z AUTO 00000KT 10SM CLR M02/M06 A3043 RMK AO2 T10181063
KPSP 221053Z AUTO VRB03KT 10SM CLR 21/02 A3010 RMK AO2 SLP190 T02060017
KPSX 221053Z AUTO 02013KT 10SM CLR 16/14 A3010 RMK AO2 SLP190 T01560144
KPTB 221056Z AUTO 30005KT 10SM BKN029 OVC037 A2994 RMK AO2
KPTK 221053Z 30011KT 10SM OVC034 M02/M08 A3017 RMK AO2 SNE0957 SLP228 P0000 T10171078 $
KPTN 221056Z AUTO 03006KT 10SM CLR 13/12 A3005 RMK AO2 SLP178 T01330122
KPTS 221055Z AUTO 00000KT 10SM CLR M03/M07 A3041 RMK AO2 T10341072
KPTT 221055Z AUTO 28005KT 10SM CLR M06/M10 A3040 RMK AO2 T10611105
KPTV 221056Z AUTO 14004KT 9SM CLR 07/06 A3016 RMK AO2 SLP226 T00720056
KPTW 221054Z AUTO 00000KT 8SM -RA OVC075 07/07 A2991 RMK AO2 RAB13 SLP128 P0000 T00720072
KPUB 221053Z AUTO 28003KT 10SM CLR M02/M04 A3027 RMK AO2 SLP251 T10221039
KPUC 221053Z AUTO 01006KT 10SM CLR 02/M04 A3043 RMK AO2 SLP302 T00171039
KPUJ 221055Z AUTO 32006KT 10SM CLR 10/08 A3003 RMK AO2
KPUW 221053Z AUTO 11007KT 10SM FEW047 BKN065 OVC120 09/08 A3013 RMK AO2 RAE00B39E49 SLP213 P0000 T00940078
KPVB 221055Z AUTO 28004KT 10SM CLR M07/M10 A3033 RMK AO1 T10751096
KPVC 221110Z AUTO 14004KT 10SM BKN027 OVC034 12/11 A2999 RMK AO2
KPVD 221051Z 17007KT 4SM RA BR BKN055 OVC070 12/12 A2996 RMK AO2 SLP144 P0013 T01170117
KPVE 221055Z AUTO 36008G16KT 10SM OVC037 02/M03 A3024 RMK A01
KPVF 221055Z AUTO 10005KT 10SM CLR 16/06 A3023 RMK AO1
KPVJ 221055Z AUTO 02008KT 10SM CLR 00/M09 A3040 RMK AO2 T00001088
KPVU 221056Z AUTO 00000KT 10SM CLR 05/02 A3043 RMK AO2 SLP291 T00500017
KPVW 221055Z AUTO 00000KT 10SM CLR M03/M06 A3038 RMK AO2 T10271061
KPWA 221053Z AUTO 03008KT 10SM CLR M01/M08 A3041 RMK AO2 SLP302 T10111083
KPWC 221053Z AUTO 00000KT 10SM CLR M14/M16 A3028 RMK AO2
KPWG 221056Z AUTO 35013G20KT 10SM CLR 09/01 A3029 RMK AO2 SLP271 T00890006
KPWK 221052Z AUTO 32004KT 10SM CLR M06/M09 A3032 RMK AO2 SLP278 T10561089
KPWM 221051Z 17005KT 10SM OVC200 02/01 A2998 RMK AO2 SLP150 T00220011
KPWT 221104Z AUTO 20010KT 10SM -RA OVC006 14/13 A2995 RMK AO2 RAB1058 CIG 003V008 P0000
KPXE 221055Z AUTO 00000KT 7SM BR SCT005 BKN010 OVC028 12/11 A3000 RMK AO2 T01170115
KPYM 221052Z AUTO 00000KT 3SM -RA BR FEW026 BKN034 OVC041 13/12 A2998 RMK AO2 SLP151 P0013 T01330117 $
KPYX 221055Z AUTO 23006KT 10SM CLR M04/M07 A3037 RMK AO2 T10411071
KPZQ 221055Z AUTO 31006KT 10SM BKN024 BKN030 OVC050 M03/M07 A3018 RMK AO2 T10331073
KRAC 221053Z AUTO 28005KT 10SM CLR M07/M10 A3032 RMK AO2 SLP278 T10671100
KRAL 221053Z AUTO 09005KT 10SM CLR 18/03 A3006 RMK AO2 SLP164 T01830033
KRAP 221052Z AUTO 00000KT 10SM CLR M02/M06 A3004 RMK AO2 SLP205 T10171056
KRAW 221055Z AUTO 00000KT 10SM CLR A3040 RMK AO2
KRBD 221053Z AUTO 36010KT 10SM CLR 07/M06 A3030 RMK AO2 SLP258 T00721061
KRBG 221053Z AUTO 18008KT 10SM FEW055 SCT075 BKN110 21/12 A3001 RMK AO2 RAB03E34 SLP158 P0000 T02060117
KRBL 221054Z AUTO 32003KT 10SM CLR 10/09 A3018 RMK AO2 SLP218 T01000094
KRBO 221055Z AUTO 36010KT 10SM SCT065 BKN085 17/13 A3012 RMK AO2 T01660133
KRBW 221055Z AUTO 29004KT 1/4SM FG OVC002 14/14 A2998 RMK AO2
KRCA 221056Z AUTO 27005KT 10SM BKN150 M01/M05 A3003 RMK AO2 SLP202 T10091046 $
KRCM 221135Z AUTO 32003KT 10SM CLR M05/M09 A3042 RMK AO2
KRCR 221055Z AUTO 28005KT 10SM OVC037 00/M03 A3025 RMK AO2
KRCV 221050Z AUTO 00000KT 10SM CLR 00/M08 A3045 RMK AO2 T00041081
KRCX 221055Z AUTO 00000KT 10SM CLR M10/M12 A3029 RMK AO2 T11001122
KRCZ 221100Z AUTO 00000KT 7SM OVC003 12/12 A2995 RMK AO2 T01150115
KRDD 221100Z AUTO 00000KT 1/4SM FG VV002 10/09 A3017 RMK AO2 T01000094
KRDG 221054Z AUTO 34003KT 10SM OVC090 05/04 A2990 RMK AO2 SLP131 T00500044
KRDK 221055Z AUTO 00000KT 10SM CLR M11/M13 A3040 RMK AO2
KRDM 221056Z AUTO 19007KT 10SM FEW075 SCT110 13/08 A3014 RMK AO2 SLP197 T01280083
KRDR 221056Z AUTO 23006KT 10SM CLR M13/M16 A3020 RMK AO2 SNB09E27 SLP252 P0000 T11311159 $
KRDU 221051Z 00000KT 9SM -RA FEW013 BKN050 BKN070 BKN170 BKN250 11/11 A2996 RMK AO2 RAB50 SLP144 P0000 T01060106
KREG 221055Z AUTO 02004KT 10SM CLR 13/09 A3006 RMK AO2 T01340085
KREO 221052Z AUTO 00000KT 07/06 A3026 RMK AO1 SLP237 T00720056
KRFD 221054Z 31005KT 10SM FEW250 M07/M11 A3035 RMK AO2 SLP289 T10721106
KRFI 221055Z AUTO 35006KT 10SM CLR 10/06 A3024 RMK AO2 T00960060
KRGA 221055Z AUTO 32005KT 10SM SCT019 BKN032 00/M02 A3020 RMK AO2
KRGK 221055Z AUTO 00000KT 10SM CLR M11/M14 A3035 RMK AO2
KRHI 221053Z AUTO 31003KT 10SM OVC027 M08/M11 A3021 RMK AO2 SLP260 T10781111
KRHP 221100Z AUTO 00000KT 1/4SM FG OVC002 02/02 A3005 RMK AO2 T00160016
KRHV 220547Z 00000KT 10SM FEW070 14/13 A3013 RMK LAST
KRIC 221054Z 32003KT 4SM -RA BR SCT024 OVC050 11/11 A2993 RMK AO2 RAB45 SLP138 P0002 T01110106
KRID 221115Z AUTO 27004KT 10SM OVC028 M02/M03 A3021 RMK AO2
KRIL 221053Z AUTO 00000KT 10SM CLR M01/M02 A3046 RMK AO2 SLP312 T10111022
KRIV 221058Z AUTO 31004KT 10SM CLR 16/M01 A3010 RMK AO2 SLP180 T01561006
KRIW 221053Z AUTO 26006KT 10SM CLR 04/M02 A3020 RMK AO2 SLP221 T00441017
KRKD 221056Z AUTO 23003KT 10SM CLR 08/05 A2998 RMK AO2 SLP155 T00780050
KRKP 221053Z AUTO 01015KT 9SM OVC029 17/15 A3009 RMK AO2 SLP192 T01670150
KRKR 221055Z AUTO 36006KT 10SM CLR 02/M07 A3037 RMK AO2
KRKS 221054Z AUTO 24015KT 10SM FEW031 OVC070 06/01 A3039 RMK AO2 SLP269 T00560011
KRLD 221055Z AUTO 00000KT 5SM -RA SCT070 OVC120 07/07 A3011 RMK AO2 P0001 T00710066
KRME 221106Z AUTO 29005KT 10SM BKN014 BKN020 OVC024 05/02 A2992 RMK AO2 T00500022
KRMG 221053Z AUTO 35006KT 10SM CLR 08/04 A3006 RMK AO2 SLP175 T00780044
KRMN 221055Z AUTO 30007KT 2 1/2SM BR SCT075 OVC090 08/08 A2996 RMK AO2 T00800080
KRMY 221054Z AUTO 30006KT 10SM OVC032 M01/M08 A3022 RMK AO2 T10151084
KRNC 221055Z AUTO 01005KT 10SM CLR 03/01 A3014 RMK A01
KRND 221056Z AUTO 35015G21KT 10SM CLR 12/04 A3023 RMK AO2 SLP234 T01200037
KRNH 221055Z AUTO 21003KT 10SM CLR M11/M13 A3031 RMK AO2 T11101128
KRNM 221053Z AUTO A3007 RMK AO2 SLPNO PWINO PNO $
KRNO 221055Z 00000KT 10SM CLR 06/04 A3034 RMK AO2 SLP248 T00610039
KRNP 221055Z AUTO 29004KT 10SM OVC045 M01/M08 A3022 RMK AO2 T10101081
KRNT 221053Z AUTO 13003KT 9SM -RA SCT030 BKN036 OVC044 13/13 A2995 RMK AO2 SLP146 P0001 T01280128
KRNV 221055Z AUTO 36009KT 10SM CLR 06/00 A3022 RMK AO2 T00550000
KROA 221054Z 33005KT 10SM CLR 10/02 A2999 RMK AO2 SLP154 T01000022 $
KROC 221054Z 26004KT 9SM -SNDZ FEW007 OVC032 02/02 A3001 RMK AO2 RAE08DZB08 SLP169 P0002 T00170017
KROG 221058Z AUTO 05004KT 10SM CLR M03/M07 A3037 RMK AO2 SLP290 T10331072 $
KROS 221059Z AUTO 26003KT 10SM CLR M11/M13 A3032 RMK AO2
KROW 221051Z AUTO 00000KT 10SM CLR M01/M06 A3039 RMK AO2 SLP266 T10111056
KROX 221055Z AUTO 21005KT 10SM CLR M13/M15 A3018 RMK AO2
KRPD 221055Z AUTO 00000KT 10SM OVC019 M11/M12 A3031 RMK AO2 T11061125
KRPH 221055Z AUTO 33005KT 10SM 02/M07 A3038 RMK AO2 T00171066
KRPJ 221055Z AUTO 32004KT 10SM CLR M07/M09 A3034 RMK AO2 T10711095
KRQB 221055Z AUTO 30004KT 10SM OVC034 M02/M08 A3021 RMK AO2 T10221081
KRQE 221053Z AUTO 00000KT 10SM CLR M03/M08 A3043 RMK AO2 SLP255 T10331083 TSNO
KRQO 221055Z AUTO 32004KT 10SM M04/M09 A3043 RMK AO2 T10361088
KRRL 221055Z AUTO 00000KT 10SM BKN029 M09/M12 A3025 RMK AO2 T10861123
KRRT 221054Z AUTO 22005KT 10SM CLR M13/M16 A3018 RMK AO2
KRSL 221053Z AUTO 21003KT 10SM CLR M07/M10 A3036 RMK AO2 SLP301 T10721100
KRSN 221055Z AUTO 36007KT 10SM CLR 08/05 A3022 RMK AO2 T00810045
KRST 221054Z 29005KT 10SM CLR M11/M12 A3032 RMK AO2 SLP292 T11111122
KRSV 221055Z AUTO 34005KT 10SM CLR M03/M06 A3033 RMK AO2 T10351063
KRSW 221053Z 00000KT 10SM CLR 18/18 A2991 RMK AO2 SLP127 T01830183
KRTN 221053Z AUTO 03005KT 10SM CLR M04/M06 A3034 RMK AO2 SLP268 T10391061
KRTS 221050Z AUTO 00000KT 10SM CLR 03/02 A3037 RMK AO2
KRUE 221053Z AUTO 36005KT 10SM CLR 04/M06 A3035 RMK AO2 SLP273 T00391061
KRUG 221055Z AUTO 15010KT 10SM FEW120 M12/M14 A3006 RMK AO2
KRUQ 221105Z AUTO 00000KT 1 1/2SM BR BKN002 06/06 A2996 RMK AO2 T00600060
KRUT 221056Z AUTO 10005KT 10SM BKN100 02/M03 A2988 RMK AO2 SLP141 T00171033 FZRANO $
KRVS 221053Z AUTO 01007KT 10SM CLR M01/M08 A3044 RMK AO2 SLP313 T10111083
KRWF 221053Z AUTO 21004KT 10SM CLR M11/M14 A3032 RMK AO2 SLP288 T11111144
KRWI 221053Z AUTO 00000KT 10SM OVC011 12/12 A2994 RMK AO2 SLP139 T01220117
KRWL 221053Z AUTO 25018KT 10SM FEW027 05/02 A3034 RMK AO2 SLP242 T00500017
KRWV 221055Z AUTO 35012KT 10SM CLR 11/06 A3023 RMK AO2 T01100056
KRXE 221053Z AUTO 07004KT 5SM BR OVC027 04/03 A3034 RMK AO2 SLP286 T00390033
KRYV 221055Z AUTO 00000KT 10SM CLR M08/M10 A3031 RMK AO2 T10781105
KRYW 221055Z AUTO 36013G19KT 10SM CLR 10/02 A3027 RMK AO2 T00990020
KRYY 221048Z AUTO 31005KT 10SM CLR 09/06 A3003 RMK AO2 SLP891 T00940061
KRZL 221055Z AUTO 29006KT 10SM CLR M05/M09 A3029 RMK AO2
KRZN 221055Z AUTO 00000KT 10SM CLR M12/M13 A3030 RMK AO2 T11171133
KRZR 221055Z AUTO 00000KT 9SM FEW035 FEW044 FEW050 02/02 A3007 RMK A01
KRZT 221055Z AUTO 32006KT 10SM CLR 00/M01 A3018 RMK AO2
KS25 221055Z AUTO 12007KT 10SM OVC060 M07/M12 A2992 RMK AO2
KS32 221055Z AUTO 18008KT 10SM CLR M13/M15 A3018 RMK AO2
KS33 221055Z AUTO 18010KT 10SM OVC075 17/17 A3010 RMK AO2
KS39 221055Z AUTO 17009KT 10SM FEW070 BKN095 15/08 A3015 RMK AO2
KS52 221055Z AUTO 01003KT 5SM -RA BR SCT075 BKN090 00/00 A3009 RMK AO2 T00030001
KSAA 221055Z AUTO 24010G16KT 10SM SCT048 BKN090 05/01 A3038 RMK AO2
KSAC 221101Z AUTO 36003KT 1/4SM FG VV001 09/09 A3016 RMK AO2 T00940094
KSAD 221051Z AUTO 11009KT 10SM CLR 14/M08 A3026 RMK AO2 SLP212 T01441078
KSAF 221053Z AUTO 35005KT 10SM CLR M01/M04 A3040 RMK AO2 SLP258 T10111039
KSAN 221051Z 30003KT 10SM CLR 16/06 A3003 RMK AO2 SLP168 T01610056 $
KSAR 221055Z AUTO 32005KT 10SM CLR M02/M07 A3038 RMK AO2 T10251066
KSAT 221051Z 36016G27KT 10SM CLR 12/03 A3023 RMK AO2 PK WND 36027/1045 SLP224 T01220028
KSAV 221053Z 28005KT 1/2SM R10/5500VP6000FT BR VV002 16/16 A2998 RMK AO2 SFC VIS 3/4 SLP150 T01560156
KSAW 221056Z AUTO 29005KT 10SM OVC027 M06/M09 A3019 RMK AO2 T10601086
KSAZ 221053Z AUTO 00000KT 10SM CLR M13/M14 A3026 RMK AO2
KSBA 221053Z AUTO 00000KT 10SM CLR 12/08 A3003 RMK AO2 SLP167 T01170083
KSBD 221059Z AUTO 07006KT 10SM CLR 16/00 A3009 RMK AO2 T01560000
KSBM 221053Z AUTO 31004KT 10SM BKN033 M07/M10 A3029 RMK AO2 SLP270 T10671100 TSNO
KSBN 221054Z 33010KT 10SM OVC032 M01/M05 A3025 RMK AO2 SLP252 T10061050
KSBO 221055Z AUTO 00000KT M1/4SM FG OVC003 11/11 A3000 RMK AO2
KSBP 221056Z 28003KT 10SM CLR 11/07 A3007 RMK AO2 SLP179 T01110067 $
KSBS 221054Z AUTO 00000KT 10SM OVC048 00/00 A3043 RMK AO1 T00040001
KSBY 221054Z 13005KT 10SM FEW037 SCT055 BKN085 13/13 A2990 RMK AO2 RAE01 SLP125 P0000 T01330133
KSCD 221055Z AUTO 00000KT 10SM CLR 04/04 A3006 RMK AO2 T00370037
KSCF 221055Z AUTO 04022G27KT 10SM BKN046 17/12 A3004 RMK A01
KSCK 221102Z AUTO 30003KT 1/2SM FG VV004 09/09 A3015 RMK AO2 T00890089 RVRNO
KSCR 221100Z AUTO 00000KT 5SM BR OVC070 10/10 A2996 RMK AO2 T01010101
KSDA 221055Z AUTO 00000KT 10SM CLR M10/M11 A3042 RMK AO2
KSDB 221053Z AUTO 07015KT 10SM CLR 18/M02 A3030 RMK AO2 SLP211 T01831022 $
KSDF 221056Z 36011KT 10SM CLR 00/M05 A3026 RMK AO2 SLP249 T00001050
KSDL 221053Z AUTO 00000KT 10SM CLR 14/01 A3011 RMK AO2 SLP180 T01390006
KSDM 221053Z AUTO 12008KT 9SM CLR 16/04 A3003 RMK AO2 SLP164 T01610039
KSDY 221056Z AUTO 18007KT 10SM SCT075 M06/M09 A2991 RMK AO2 SLP166 T10611094 FZRANO
KSEA 221053Z 17004KT 5SM -RA BR BKN030 BKN039 OVC050 14/13 A2995 RMK AO2 RAE17B42 SLP149 P0003 T01390133
KSEE 221055Z AUTO 00000KT 10SM CLR 13/03 A3003 RMK AO2
KSEF 221055Z AUTO 00000KT M1/4SM FG OVC001 18/17 A2993 RMK AO2 T01820172
KSEG 221053Z AUTO 00000KT 10SM OVC075 03/02 A2992 RMK AO2 SLP135 T00280017
KSEM 221055Z AUTO 00000KT 10SM CLR 04/03 A3006 RMK AO2 TSNO
KSEP 221055Z AUTO 34008G15KT 10SM CLR 05/M03 A3036 RMK AO2 T00511035
KSET 221054Z AUTO 33008KT 10SM CLR M03/M08 A3039 RMK AO2 SLP294 T10331078
KSEZ 221055Z AUTO 04011G15KT 10SM CLR 15/M01 A3031 RMK AO2
KSFB 221053Z AUTO 28003KT 1/4SM FG VV004 17/16 A2994 RMK AO2 SLP140 T01670161
KSFF 221053Z AUTO 00000KT 10SM FEW080 SCT100 11/08 A3007 RMK AO2 SLP188 T01060083
KSFM 221056Z AUTO 35003KT 10SM 00/M01 A2997 RMK AO2 SLP154 T00001006 FZRANO $
KSFO 221056Z 15003KT 10SM FEW200 13/11 A3012 RMK AO2 SLP201 T01330106
KSFQ 221055Z AUTO 00000KT 10SM SCT031 SCT043 SCT100 13/13 A2991 RMK AO2 T01330130
KSFY 221055Z AUTO 00000KT 10SM CLR M06/M10 A3036 RMK AO2 T10621098
KSFZ 221108Z AUTO 16003KT 4SM RA BR SCT002 BKN060 OVC075 10/09 A2995 RMK AO2 P0001
KSGF 221052Z 01005KT 10SM CLR M05/M08 A3036 RMK AO2 SLP290 T10501083
KSGH 221056Z AUTO 30007KT 10SM OVC030 M01/M02 A3018 RMK AO2 SLP231 T10111022 FZRANO $
KSGJ 221056Z 32003KT 9SM CLR 14/14 A2996 RMK AO2 SLP144 T01440139
KSGR 221053Z AUTO 02009KT 10SM OVC042 17/13 A3013 RMK AO2 SLP204 T01670128
KSGS 221053Z AUTO 00000KT 10SM CLR M09/M12 A3033 RMK AO2 T10951121
KSGT 220956Z AUTO 02009KT 10SM CLR 06/00 A3027 RMK AO2 SLP250 T00560000
KSGU 221056Z AUTO 24005KT 10SM CLR 06/M09 A3033 RMK AO2 SLP263 T00611094
KSHD 221055Z AUTO 00000KT 10SM OVC070 04/04 A2997 RMK AO2 T00430036
KSHL 221055Z AUTO 00000KT 10SM CLR M13/M15 A3032 RMK AO2
KSHM 221058Z AUTO 01004KT 10SM CLR 01/M02 A3027 RMK AO2 SLP266 T00091023
KSHN 221107Z AUTO 00000KT 5SM BR OVC025 14/14 A2993 RMK AO2 RAE04 P0000 T01390139
KSHR 221053Z AUTO 00000KT 10SM CLR 00/M02 A3003 RMK AO2 SLP190 T00001017
KSHV 221056Z 02011KT 10SM CLR 11/04 A3021 RMK AO2 SLP229 T01060044
KSIF 221105Z AUTO 00000KT 1 1/2SM BR VV007 06/05 A2998 RMK AO2 T00630047
KSIK 221055Z AUTO 34005KT 10SM CLR 00/M05 A3034 RMK AO2
KSIY 221053Z AUTO 02007KT 10SM CLR 07/07 A3019 RMK AO2 SLP228 T00720067
KSJC 221053Z AUTO 14003KT 10SM CLR 11/11 A3013 RMK AO2 SLP202 T01110106
KSJN 221054Z AUTO 00000KT 10SM CLR 00/M09 A3039 RMK AO2 SLP253 T00001089 TSNO
KSJS 221055Z AUTO 34005KT 10SM OVC023 05/02 A3012 RMK AO2 T00530020
KSJT 221051Z AUTO 35006KT 10SM CLR 06/M02 A3036 RMK AO2 SLP278 T00611017
KSJX 221057Z AUTO 31008KT 10SM SCT023 BKN029 BKN035 M02/M06 A3020 RMK AO2 T10221063
KSKA 221058Z 22006KT 10SM FEW080 BKN140 08/08 A3006 RMK AO2A SLP193 T00770077 CHINO RWY05 $
KSKF 221056Z AUTO 01017KT 10SM CLR 12/03 A3021 RMK AO2 SLP228 T01240031 $
KSKX 221056Z AUTO 01003KT 10SM CLR M03/M08 A3045 RMK AO2 SLP303 T10331078 FZRANO $
KSLB 221055Z AUTO 00000KT 10SM CLR M12/M14 A3034 RMK AO2
KSLC 221054Z 14006KT 10SM FEW040 FEW120 07/04 A3039 RMK AO2 SLP268 T00720039 $
KSLE 221056Z AUTO 00000KT 5SM -RA BR OVC060 14/13 A3001 RMK AO2 RAE08B24 SLP161 P0004 T01440133
KSLG 221056Z AUTO 03004KT 10SM CLR M03/M07 A3037 RMK AO2 SLP292 T10331072 FZRANO
KSLH 221054Z AUTO 27003KT 10SM SCT024 SCT028 OVC050 M03/M06 A3017 RMK AO2 T10351061
KSLI 221058Z AUTO 00000KT 10SM CLR 15/07 A3001 RMK AO2 SLP165 T01530073
KSLK 221051Z AUTO 24003KT 10SM BKN044 OVC060 03/00 A2985 RMK AO2 SLP120 T00330000
KSLN 221053Z AUTO 00000KT 10SM CLR M05/M11 A3042 RMK AO2 SLP313 T10501106
KSLO 221055Z AUTO 33006KT 10SM CLR M03/M06 A3035 RMK AO2 T10291060
KSLR 221055Z AUTO 35014G18KT 10SM CLR 07/M04 A3032 RMK AO2 T00691041
KSME 221055Z AUTO 36010G15KT 10SM CLR 01/M01 A3019 RMK AO2
KSMF 221053Z 35003KT 1/8SM R16R/1200FT FG BKN002 09/09 A3016 RMK AO2 SFC VIS 1/2 SLP212 T00890089
KSMN 221056Z AUTO 00000KT 4SM -RA BR FEW009 OVC055 03/02 A3030 RMK AO2 SLP285 P0000 T00280017
KSMO 221051Z AUTO 36003KT 10SM CLR 17/09 A3002 RMK AO2 SLP165 T01720094
KSMP 221056Z AUTO 05004KT 4SM HZ BKN020 OVC027 04/00 A3002 RMK AO2 SLP182 T00440000 $
KSMQ 221053Z AUTO 00000KT 10SM OVC042 04/03 A2989 RMK AO2 SLP124 T00440028
KSMS 221055Z AUTO 00000KT 4SM BR BKN003 OVC007 13/13 A2995 RMK AO2
KSMX 221051Z AUTO 13004KT 10SM CLR 12/09 A3006 RMK AO2 SLP180 T01170089
KSNA 221053Z AUTO 00000KT 10SM CLR 16/09 A3002 RMK AO2 SLP164 T01560094
KSNC 221055Z AUTO 00000KT 7SM -DZ BKN007 BKN012 OVC037 10/09 A2993 RMK AO2
KSNH 221055Z AUTO 36004KT 10SM OVC034 02/M01 A3021 RMK A01
KSNK 221055Z AUTO 02008KT 10SM CLR 03/M04 A3039 RMK AO2 T00331036
KSNL 221055Z AUTO 03008KT 10SM CLR M02/M09 A3040 RMK AO2 T10211091
KSNS 221053Z AUTO 11004KT 10SM CLR 11/09 A3010 RMK AO2 SLP200 T01110089 $
KSNT 221051Z AUTO 00000KT 03/03 A3037 RMK AO1 SLP251 P0002 T00330028
KSNY 221053Z AUTO 25005KT 10SM CLR 01/M01 A3018 RMK AO2 SLP231 T00111011
KSOA 221055Z AUTO 00000KT 10SM CLR 06/M01 A3038 RMK AO2
KSOP 221101Z AUTO 31003KT 3SM BR 10/10 A2995 RMK AO2 $
KSOW 221055Z AUTO 00000KT 10SM CLR 02/M10 A3042 RMK AO2
KSPA 221115Z AUTO 00000KT 3SM BR CLR 06/06 A2998 RMK AO2
KSPB 221053Z AUTO 00000KT 8SM OVC045 11/10 A3001 RMK AO2 SLP162 T01060100 $
KSPD 221056Z AUTO 22008KT M01/M03 A3027 RMK AO1 SLP243 T10061033
KSPF 221115Z AUTO 26012KT 10SM FEW070 09/M03 A3003 RMK AO2
KSPG 221053Z AUTO 09006KT 1/2SM FG VV002 18/18 A2992 RMK AO2 SLP131 T01830183
KSPI 221052Z AUTO 32006KT 10SM CLR M05/M08 A3036 RMK AO2 SLP288 T10501078
KSPR 221055Z AUTO 05027KT 4SM HZ BKN014 OVC018 18/15 A2998 RMK A01
KSPS 221052Z 36013KT 10SM CLR 02/M11 A3040 RMK AO2 SLP295 T00171106
KSPW 221053Z AUTO 16003KT 10SM CLR M13/M14 A3034 RMK AO2 SLP299 T11281144
KSQI 221056Z AUTO 30003KT 10SM CLR M08/M09 A3036 RMK AO2 SLP303 T10781094 FZRANO
KSQL 221055Z AUTO 00000KT 10SM CLR 12/11 A3013 RMK AO2
KSRB 221055Z AUTO 33004KT 10SM BKN028 OVC034 03/01 A3014 RMK A01
KSRC 221056Z AUTO 35009KT 10SM CLR 03/M06 A3034 RMK AO2 SLP285 T00331056
KSRQ 221104Z 08004KT 6SM BR SCT002 16/16 A2992 RMK AO2 T01610161
KSRR 221055Z AUTO 00000KT 10SM CLR 02/M04 A3042 RMK AO2
KSSC 221106Z AUTO 30004KT 1 1/2SM R04/4000FT BR OVC001 13/12 A2993 RMK AO2 VIS 7/8V1 1/2 VIS 5/8 RWY22 SLP136 $
KSSF 221053Z AUTO 01014G19KT 10SM CLR 13/04 A3021 RMK AO2 SLP224 T01330039 $
KSSI 221053Z AUTO 33006KT 10SM CLR 14/14 A2996 RMK AO2 SLP147 T01440139
KSTC 221053Z AUTO 18003KT 10SM CLR M12/M13 A3030 RMK AO2 SLP290 T11171133
KSTE 221055Z AUTO 31003KT 10SM BKN027 M08/M13 A3030 RMK AO2 T10851130
KSTF 221115Z AUTO 35005KT 10SM CLR 03/02 A3014 RMK AO2
KSTJ 221053Z AUTO 00000KT 10SM CLR M08/M11 A3043 RMK AO2 SLP315 T10831111 $
KSTK 221050Z AUTO 20008KT 10SM CLR M01/M02 A3020 RMK AO2
KSTL 221051Z 33007KT 10SM BKN250 M03/M07 A3038 RMK AO2 SLP296 T10331072
KSTP 221053Z AUTO 23003KT 10SM CLR M09/M12 A3035 RMK AO2 SLP286 T10891122
KSTS 221053Z AUTO 00000KT 1/4SM FG VV002 11/11 A3013 RMK AO2 SLP196 T01060106
KSUA 221035Z AUTO 00000KT 10SM CLR 20/20 A2993 RMK AO2 LTG DSNT W
KSUE 221056Z AUTO 33010KT 10SM -SN OVC034 M04/M11 A3027 RMK AO2 SNB09E39B56 SLP278 P0000 T10391106 FZRANO
KSUN 221055Z AUTO 33008KT 10SM OVC080 05/03 A3037 RMK AO2
KSUS 221054Z AUTO 33006KT 10SM CLR M03/M07 A3039 RMK AO2 SLP296 T10331072
KSUT 221045Z AUTO 34003KT 1/2SM FG OVC001 15/15 A2993 RMK AO2 T01500150
KSUU 221058Z 03006KT 6SM BR CLR 09/09 A3015 RMK AO2A SLP217 T00920089
KSUW 221055Z AUTO 26004KT 10SM CLR M10/M12 A3029 RMK AO2 T11031125
KSUX 221052Z 00000KT 10SM CLR M11/M13 A3038 RMK AO2 SLP306 T11111133
KSVC 221055Z AUTO 03003KT 10SM CLR 02/M07 A3038 RMK AO2 T00201075
KSVE 221055Z AUTO 28004KT 9SM CLR 04/04 A3033 RMK AO2
KSVH 221105Z AUTO 31003KT 1/2SM FG OVC001 05/04 A2996 RMK AO2 T00500036
KSVN 221056Z AUTO 29003KT 7/8SM R10/2400V2600FT BR VV001 16/15 A2994 RMK AO2 CIG 000 RWY28 SLP142 T01560148 $
KSWF 221045Z 00000KT 10SM BKN080 03/02 A2990
KSWO 221053Z AUTO 03004KT 10SM CLR M03/M09 A3043 RMK AO2 SLP306 T10331094
KSWW 221055Z AUTO 33009KT 10SM CLR 03/M02 A3042 RMK AO2 T00271025
KSXS 221058Z AUTO 36009KT 10SM M 13/08 A2999 RMK AO2 SLP156 T01300080 $
KSXT 221056Z AUTO 15019G26KT 9SM OVC070 11/08 A3011 RMK AO2 PK WND 15026/1056 PRESFR SLP173 T01110078
KSXU 221055Z AUTO 22004KT 10SM CLR 00/M04 A3037 RMK AO2 T10021038
KSYF 221055Z AUTO 19008KT 10SM CLR M02/M05 A3023 RMK AO2 T10181046
KSYI 221055Z AUTO 36010KT 10SM FEW033 02/01 A3016 RMK A01
KSYM 221050Z AUTO 33007G14KT 10SM OVC019 02/M03 A3019 RMK AO2
KSYN 221052Z AUTO 00000KT 10SM CLR M10/M12 A3033 RMK AO2 T11001121
KSYR 221054Z 31014KT 9SM -RA SCT011 OVC020 03/M01 A2995 RMK AO2 SLP142 P0002 T00331011 $
KSZL 221056Z 34004KT 10SM CLR M06/M10 A3037 RMK AO2A SLP296 T10591098
KSZT 221055Z AUTO 19006KT 10SM SCT019 OVC027 06/06 A3006 RMK AO2
KT20 221055Z AUTO 35013G18KT 10SM OVC035 14/06 A3020 RMK AO2 T01370061
KT35 221055Z AUTO 36010G17KT 10SM CLR 11/03 A3026 RMK AO2 T01050027
KT65 221055Z AUTO 36012G16KT 7SM SCT020 17/14 A3007 RMK AO2 T01700135
KT82 221055Z AUTO 36010G14KT 10SM CLR 07/00 A3029 RMK AO2 T00731002
KTAD 221054Z AUTO 26012KT 10SM CLR 03/M02 A3029 RMK AO2 SLP242 T00331022
KTAN 221103Z AUTO 16004KT 2 1/2SM +RA BR BKN038 OVC048 12/12 A2996 RMK AO2 P0007 T01220117
KTAZ 221055Z AUTO 33007KT 10SM CLR M05/M07 A3036 RMK AO2 T10461074
KTBN 221056Z AUTO 35005KT 10SM CLR M04/M09 A3035 RMK AO2 SLP289 T10431086
KTBR 221055Z AUTO 00000KT 1/4SM FG OVC003 14/14 A2998 RMK AO2 T01350135
KTBX 221055Z AUTO 18012G17KT 10SM CLR 05/00 A3030 RMK AO2
KTCC 221053Z AUTO 23006KT 10SM CLR M02/M05 A3036 RMK AO2 SLP272 T10171050
KTCL 221053Z AUTO 36007KT 10SM CLR 06/03 A3009 RMK AO2 SLP188 T00560033
KTCM 221058Z AUTO 14006KT 10SM BKN041 OVC050 15/15 A2995 RMK AO2 SLP146 T01510151 $
KTCS 221053Z AUTO 00000KT 10SM CLR 04/M08 A3036 RMK AO2 SLP237 T00441078
KTDF 221100Z AUTO 00000KT 10SM OVC070 10/08 A2997 RMK AO2
KTDR 221109Z AUTO 02008KT 10SM FEW004 BKN013 BKN220 16/15 A2996 RMK AO2 CIG 013V220 BKN V SCT SLP149 $
KTDZ 221053Z AUTO 34005KT 10SM OVC032 01/M06 A3021 RMK AO2 SLP234 T00061061
KTEB 221051Z 00000KT 10SM SCT026 BKN041 BKN095 08/04 A2989 RMK AO2 SLP123 T00780044
KTEW 221054Z AUTO 34010G14KT 10SM OVC030 M01/M07 A3022 RMK AO2 T10111071
KTEX 221055Z AUTO 12004KT 10SM CLR 01/M05 A3054 RMK AO2 T00101054
KTGI 221056Z AUTO 31012G15KT 10SM BKN009 BKN027 OVC085 13/12 A2993 RMK AO1
KTHA 221055Z AUTO 36010KT 10SM CLR 03/01 A3013 RMK A01
KTHV 221053Z AUTO 30003KT 10SM OVC065 06/04 A2991 RMK AO2 SLP133 T00560044
KTIF 221055Z AUTO 21006KT 10SM CLR 00/M08 A3019 RMK AO2 T10051077
KTIK 221056Z AUTO 03009KT 10SM CLR M02/M10 A3039 RMK AO2 SLP304 T10161097
KTIP 221055Z AUTO 32005KT 10SM CLR M04/M06 A3032 RMK AO2 T10421065
KTIW 221053Z AUTO 18008KT 10SM BKN030 OVC042 15/14 A2996 RMK AO2 RAB15E44 SLP144 P0001 T01500139
KTKC 220959Z AUTO 00000KT 10SM CLR M10/M13 A3032 RMK AO2
KTKI 221053Z AUTO 01012KT 10SM CLR 05/M08 A3031 RMK AO2 SLP272 T00501078
KTKV 221055Z AUTO 00000KT 10SM BKN029 M10/M13 A3025 RMK AO2 T10981128
KTKX 221055Z AUTO 36010KT 10SM CLR 00/M04 A3034 RMK AO2
KTLH 221053Z 01005KT 1/2SM FG OVC001 15/15 A2996 RMK AO2 SLP145 T01500150
KTMA 221055Z AUTO 00000KT 4SM HZ SCT003 OVC038 A2998 RMK AO2
KTMB 221109Z AUTO 00000KT 1 3/4SM BR CLR 17/17 A2992 RMK AO2 T01720172
KTME 221055Z AUTO 01008KT 10SM FEW013 SCT041 OVC065 15/13 A3016 RMK AO2
KTMK 221055Z AUTO 18010KT 7SM -DZ BKN020 OVC026 A3000 RMK AO2
KTMT 221055Z AUTO 00000KT 10SM CLR M02/M03 A3043 RMK AO2 T10161029
KTNB 221055Z AUTO 30011G20KT 10SM CLR 06/04 A2998 RMK AO2 T00610037
KTNU 221055Z AUTO 00000KT 10SM CLR M09/M11 A3039 RMK AO2 PWINO
KTOB 221054Z AUTO 00000KT 10SM CLR M11/M13 A3031 RMK AO2
KTOC 221055Z AUTO 00000KT 10SM CLR 09/08 A2999 RMK AO2 T00880082
KTOI 221053Z AUTO 00000KT 10SM OVC043 13/09 A3002 RMK AO2 SLP162 T01330089
KTOL 221052Z 34011KT 10SM OVC034 01/M06 A3021 RMK AO2 SLP235 T00061061
KTOP 221053Z AUTO 00000KT 10SM CLR M07/M10 A3043 RMK AO2 SLP313 T10721100
KTOR 221053Z AUTO 03003KT 10SM CLR M01/M03 A3015 RMK AO2 SLP219 T10061028
KTPA 221053Z 06004KT 9SM FEW250 18/17 A2994 RMK AO2 SLP138 T01830167
KTPF 221055Z AUTO 07003KT 4SM HZ A2994 RMK AO2
KTPH 221056Z AUTO 02008KT 10SM CLR 04/M01 A3042 RMK AO2 SLP266 T00441011
KTPL 221051Z AUTO 35011KT 10SM CLR 09/01 A3028 RMK AO2 SLP268 T00890011
KTQE 221054Z AUTO 21004KT 10SM CLR M13/M16 A3039 RMK AO2 SLP305 T11331156
KTQH 221055Z AUTO 04004KT 10SM CLR M02/M07 A3037 RMK AO2
KTRI 221053Z 31004KT 10SM SCT250 07/02 A3006 RMK AO2 SLP167 T00670022
KTRK 221055Z AUTO 00000KT 1/4SM FZFG OVC002 00/00 A3041 RMK AO2
KTRL 221053Z AUTO 35009G18KT 10SM CLR 07/M08 A3031 RMK AO2 SLP260 T00721078
KTRM 221052Z AUTO 36009KT 10SM CLR 17/02 A3003 RMK AO2 SLP170 T01670017
KTSP 221055Z AUTO 13006KT 10SM CLR 07/M02 A3030 RMK AO2
KTTA 221105Z AUTO 00000KT 7SM SCT075 11/10 A2993 RMK AO2 T01050102
KTTD 221053Z AUTO 08011KT 10SM OVC055 10/08 A3003 RMK AO2 SLP167 T01000078
KTTF 221051Z AUTO 34006KT 10SM OVC034 01/M06 A3019 RMK AO2 T00051065
KTTN 221053Z 00000KT 10SM BKN025 OVC031 09/07 A2990 RMK AO2 SLP120 T00890067
KTTS 221058Z AUTO 01004KT 10SM CLR 19/19 A2992 RMK AO2 SLP136 T01890189
KTUL 221053Z 35009KT 10SM BKN250 M02/M08 A3044 RMK AO2 SLP308 T10171078
KTUP 221053Z AUTO 35010KT 10SM CLR 05/00 A3017 RMK AO2 SLP217 T00500000
KTUS 221053Z 16008KT 10SM CLR 13/M06 A3015 RMK AO2 SLP178 T01281056
KTVC 221108Z AUTO 32006KT 8SM -SN FEW021 SCT028 OVC040 M02/M06 A3021 RMK AO2 P0000 T10171061
KTVF 221101Z AUTO 21007KT 10SM CLR M13/M15 A3021 RMK AO2 SLP259 T11331150 FZRANO
KTVI 221055Z AUTO 34003KT OVC002 16/16 A2999 RMK AO2 PWINO
KTVK 221055Z AUTO 00000KT 10SM M08/M10 A3040 RMK AO2
KTVL 221053Z AUTO 16003KT 3/4SM BR VV002 01/M01 A3041 RMK AO2 SNB20E49 SLP276 P0000 T00061006
KTVR 221053Z AUTO 01013KT 10SM CLR 09/06 A3014 RMK AO2 SLP212 T00890061
KTVY 221115Z AUTO 00000KT 10SM CLR 04/02 A3040 RMK AO2
KTWF 221053Z AUTO 15005KT 10SM FEW080 OVC100 08/07 A3032 RMK AO2 SLP242 T00780072
KTWM 221054Z AUTO 23003KT 10SM CLR M11/M14 A3023 RMK AO2
KTXK 221053Z AUTO 02008KT 10SM CLR 07/03 A3027 RMK AO2 SLP247 T00670033
KTYQ 221055Z AUTO 31007KT 10SM BKN031 M04/M07 A3026 RMK AO2 T10431068
KTYR 221053Z AUTO 35009KT 10SM CLR 08/02 A3026 RMK AO2 SLP244 T00830017
KTYS 221053Z 04005KT 10SM CLR 06/03 A3008 RMK AO2 SLP185 T00610033
KTZR 221055Z AUTO 30005KT 10SM OVC040 00/M02 A3017 RMK AO2 T10031020
KU42 221055Z AUTO 19008KT 10SM CLR 08/04 A3040 RMK AO1 T00820040
KU68 221055Z AUTO 14005KT 10SM CLR 03/M02 A3015 RMK AO2
KUAO 221053Z AUTO 00000KT 7SM -RA FEW044 OVC055 14/14 A3002 RMK AO2 RAB06E34B52 SLP164 P0002 T01390139
KUBE 221055Z AUTO 00000KT 10SM BKN017 M11/M13 A3028 RMK AO2
KUCP 221056Z AUTO 33008KT 10SM BKN012 OVC019 02/01 A3008 RMK AO2 SLP207 T00170006
KUCY 221055Z AUTO 35007KT 10SM CLR M02/M04 A3031 RMK A01
KUDG 221056Z AUTO 01003KT 8SM BKN065 11/10 A2995 RMK AO2 SLP148 T01060100
KUES 221055Z AUTO 32003KT 10SM CLR M08/M11 A3031 RMK AO2
KUGN 221055Z AUTO 30004KT 10SM CLR M07/M10 A3030 RMK AO2 SLP277 T10671100
KUIL 221105Z AUTO 18012G25KT 150V220 3SM -RA BR OVC003 13/13 A2988 RMK AO2 P0000 T01330133 $
KUIN 221054Z AUTO 32005KT 10SM CLR M06/M09 A3038 RMK AO2 SLP295 T10611089
KUKF 221055Z AUTO 00000KT 10SM SCT045 03/03 A3003 RMK AO2
KUKI 221056Z AUTO 00000KT 1/4SM FG VV001 12/11 A3014 RMK AO2 SLP202 T01170111
KUKT 221055Z AUTO 00000KT 10SM SCT075 05/04 A2990 RMK AO1
KULM 221054Z AUTO 00000KT 10SM CLR M13/M15 A3034 RMK AO2
KUNI 221055Z AUTO 00000KT 10SM BKN013 OVC018 03/02 A3014 RMK AO2 T00280019
KUNO 221053Z AUTO 02007KT 10SM CLR M03/M08 A3034 RMK AO2 SLP280 T10281083
KUNU 221055Z AUTO 31004KT 10SM CLR M08/M11 A3031 RMK AO2 T10801111
KUNV 221053Z 28012KT 10SM BKN055 BKN070 OVC110 08/00 A2992
KUOX 221055Z AUTO 01008G13KT 10SM SCT037 BKN043 04/M01 A3022 RMK AO2
KUSE 221100Z AUTO 32006KT 10SM OVC029 M00/M04 A3021 RMK AO2
KUTA 221055Z AUTO 35010G16KT 10SM A3028 RMK AO2 TSNO
KUTS 221053Z AUTO VRB04KT 8SM FEW010 13/12 A3019 RMK AO2 SLP219 T01280117
KUUU 221106Z AUTO 00000KT 10SM BKN014 OVC019 12/12 A2995 RMK AO2 T01220122
KUVA 221055Z AUTO 31003KT 10SM CLR 09/01 A3028 RMK AO2 T00870012
KUXL 221055Z AUTO 36009KT 10SM CLR 13/11 A3012 RMK AO2 T01300110
KUYF 221055Z AUTO 30006KT 10SM OVC028 01/00 A3017 RMK AO2
KUZA 221108Z AUTO 33005KT 1SM BR VV003 08/08 A2997 RMK AO2 T00830083
KVAD 221058Z AUTO 03004KT 1/2SM R18/1600V1800FT FG VV002 15/15 A2996 RMK AO2 SLP147 $
KVAF 221055Z AUTO 03010G18KT 9SM FEW021 SCT026 BKN047 23/18 A2996 RMK A01
KVAY 221054Z AUTO 00000KT 7SM -RA FEW046 FEW065 OVC085 09/09 A2990 RMK AO2 RAB54 SLP126 P0000 T00940094 $
KVBG 221058Z AUTO 12007KT 10SM CLR 15/08 A3006 RMK AO2 SLP181 T01520079 CHINO RWY12 $
KVBT 221056Z AUTO 04005KT 10SM CLR M03/M07 A3038 RMK AO2 SLP297 T10281067 FZRANO
KVBW 221055Z AUTO 00000KT 10SM SCT060 BKN070 02/02 RMK AO2 T00240022
KVCB 221053Z AUTO 00000KT 8SM CLR 09/09 A3018 RMK AO2 SLP217 T00940094
KVCT 221051Z AUTO 01009KT 10SM BKN017 BKN028 16/13 A3014 RMK AO2 SLP204 T01610133
KVCV 221055Z AUTO 00000KT 10SM CLR 09/M08 A3025 RMK AO2
KVDF 221055Z AUTO 00000KT 1/4SM FG OVC003 15/15 A2995 RMK AO2
KVDI 221055Z AUTO 00000KT 1/4SM FG OVC002 13/13 A2999 RMK AO2
KVEL 221053Z AUTO 31003KT 10SM OVC100 05/M01 A3040 RMK AO2 SLP274 T00501006
KVER 221055Z AUTO 32003KT 10SM CLR M04/M09 A3040 RMK AO2 T10441091
KVES 221055Z AUTO 33005KT 10SM OVC029 00/M02 A3020 RMK AO2
KVGT 221053Z AUTO 29006KT 10SM CLR 12/01 A3024 RMK AO2 SLP248 T01220006
KVIH 221053Z AUTO 34005KT 10SM CLR M06/M08 A3037 RMK AO2 SLP293 T10561083
KVIS 221056Z AUTO 00000KT 4SM BR CLR 08/07 A3016 RMK AO2 SLP221 T00830072
KVJI 221055Z AUTO 31003KT 10SM CLR 08/01 A3005 RMK AO2 T00760007
KVKS 221055Z AUTO 36005KT 10SM CLR 05/05 A3014 RMK A01
KVKY 221055Z AUTO 04016G21KT 10SM FEW080 OVC120 19/12 A3002 RMK A01
KVLD 221053Z AUTO 00000KT 3/4SM BR OVC002 16/16 A2997 RMK AO2 SLP157 T01560156
KVLL 221054Z AUTO 32010KT 10SM OVC034 01/M07 A3020 RMK AO2 T00051072
KVNC 221115Z AUTO 07004KT 10SM CLR 17/17 A2993 RMK AO2
KVNY 221051Z 33003KT 10SM CLR 22/M03 A3005 RMK AO2 SLP166 T02171028
KVOA 221055Z AUTO 01012KT 9SM FEW024 FEW030 20/12 A2999 RMK A01
KVOK 221056Z AUTO 30005KT 10SM CLR M12/M14 A3032 RMK AO2 SLP288 T11181138
KVPC 221053Z AUTO 00000KT 8SM CLR 07/07 A3005 RMK AO2 SLP172 T00670067
KVPS 221055Z 01006KT 10SM BKN044 14/06 A2999 RMK AO2A SLP162 T01370063 $
KVPZ 221056Z AUTO 28005KT 10SM OVC031 M01/M06 A3027 RMK AO2 SLP258 T10111061
KVQQ 221035Z AUTO BKN002 13/13 A2995 RMK AO2
KVQT 221055Z AUTO 06016G21KT 10SM SCT021 SCT026 BKN033 21/16 A3000 RMK A01
KVRB 221053Z AUTO 33004KT 1/4SM FG VV002 18/18 A2992 RMK AO2 SLP129 T01780178
KVSF 221054Z AUTO 00000KT 10SM CLR M04/M04 A2993 RMK AO2 SLP143 I1000 T10391044
KVTA 221054Z AUTO 32007KT 10SM BKN043 02/M03 A3015 RMK AO2 SLP212 T00171028
KVTI 221115Z AUTO 27004KT 10SM CLR M09/M11 A3038 RMK AO2 T10861109
KVTN 221052Z AUTO 00000KT 10SM CLR M04/M08 A3015 RMK AO2 SLP242 T10441078
KVTP 221054Z AUTO 21021G28KT 10SM BKN100 OVC120 M01/M05 RMK AO2
KVUJ 221105Z AUTO 00000KT 10SM CLR 09/09 A3000 RMK AO2 LTG DSNT E AND SW T00890085
KVUO 221053Z AUTO 11005KT 10SM OVC050 10/09 A3001 RMK AO2 SLP162 T01000094
KVVG 221050Z AUTO 00000KT 5SM BR 16/16 A2985 RMK A01
KVVV 221053Z 10SM CLR M13/M15 A3028 RMK AO2
KVWU 221049Z AUTO 20003KT 10SM CLR M13/M14 A3019 RMK AO2
KVYS 221055Z AUTO 31005KT 10SM CLR M07/M10 A3035 RMK AO2 T10751096
KW13 221055Z AUTO 23006KT 10SM OVC060 10/07 A2995 RMK AO1 T00970070
KW22 221100Z AUTO 30009KT 10SM BKN024 OVC033 06/02 A3004 RMK AO2
KW29 221040Z AUTO 21003KT 10SM -RA SCT014 BKN070 OVC085 11/10 A2992 RMK AO2 LTG DSNT E P0003
KW31 221055Z AUTO 00000KT 10SM SCT018 SCT037 OVC055 10/10 A2993 RMK AO1 P0003 T01020102
KW43 221055Z AUTO 23009KT 10SM CLR 06/M03 A3005 RMK AO2
KW63 221055Z AUTO 00000KT 10SM BKN070 OVC095 09/09 A2994 RMK AO1
KW75 221055Z AUTO 00000KT 10SM SCT018 BKN023 OVC090 11/11 A2991 RMK AO1 T01130113
KW78 221055Z AUTO 00000KT 10SM OVC070 09/09 A2995 RMK AO1 T00920085
KW81 221055Z AUTO 00000KT 4SM SCT038 BKN060 OVC070 10/10 A2993 RMK AO1 T00960096
KW96 221055Z AUTO 00000KT 5SM BR BKN035 BKN041 OVC070 10/10 A2992 RMK AO1 T01000100
KW99 221055Z AUTO 00000KT 10SM BKN055 06/01 A2997 RMK AO2 T00640010
KWAL 221054Z AUTO 18008KT 10SM FEW022 SCT041 SCT049 15/14 A2991 RMK AO2 SLP125 T01500144
KWDG 221055Z AUTO 00000KT 10SM CLR M03/M07 A3043 RMK AO2
KWDR 221055Z AUTO 32004KT 4SM BR SCT021 10/08 A3003 RMK AO1
KWJF 221056Z AUTO 20005KT 10SM CLR 06/M09 A3025 RMK AO2 SLP240 T00561094
KWLD 221054Z AUTO 00000KT 10SM CLR M06/M09 A3043 RMK AO2 SLP314 T10561094 $
KWMC 221056Z AUTO 04003KT 10SM CLR 04/01 A3033 RMK AO2 SLP253 T00390011
KWRB 221056Z AUTO 35003KT 10SM OVC003 11/11 A2999 RMK AO2 SLP158 T01130110
KWRI 221107Z AUTO 00000KT 5SM -RA BR BKN034 11/10 A2988 RMK AO2 RAB07 SLP118 $
KWRL 221053Z AUTO 19006KT 10SM CLR M03/M03 A3016 RMK AO2 SLP237 T10281028
KWST 221107Z AUTO 22004KT 3SM RA BR FEW038 OVC050 13/12 A2995 RMK AO2 LTG DSNT SW P0004 T01280122
KWVI 221053Z AUTO 27004KT 10SM CLR 13/13 A3011 RMK AO2 SLP193 T01280128
KWVL 221056Z AUTO 22003KT 10SM CLR 02/01 A2993 RMK AO2 SLP166 T00220006 FZRANO
KWWR 221055Z AUTO 00000KT 10SM CLR M05/M09 A3043 RMK AO2
KWYS 221055Z AUTO 23008KT 10SM OVC008 04/03 A3033 RMK AO2
KX60 221055Z AUTO 00000KT 1/4SM FG VV002 15/14 A2995 RMK A01
KXBP 221055Z AUTO 36007KT 10SM CLR 04/M08 A3039 RMK AO2 T00421083
KXIH 221055Z AUTO 06023KT 8SM BKN015 OVC038 16/14 A3007 RMK A01
KXLL 221055Z AUTO 00000KT 10SM OVC100 03/02 A2991 RMK AO2
KXMR 221108Z AUTO 35003KT 10SM SCT018 20/19 A2992 RMK AO2 SLP135 $
KXNA 221053Z AUTO 05004KT 10SM CLR M03/M07 A3036 RMK AO2 SLP285 T10331072
KXVG 221056Z AUTO 24003KT 10SM CLR M14/M16 A3024 RMK AO2
KY19 221055Z AUTO 17010KT 10SM CLR M11/M15 A3007 RMK AO2
KY23 221055Z AUTO 00000KT BKN021 M12/M13 A3031 RMK AO2 T11211135 PWINO
KY31 221054Z AUTO 32003KT 10SM SCT030 OVC050 M03/M07 A3017 RMK AO2 T10301066
KY49 221055Z AUTO 21003KT 10SM CLR M14/M15 A3022 RMK AO2 T11381154
KY50 221056Z AUTO 00000KT 10SM CLR M09/M12 A3032 RMK AO2 SLP296 T10941122
KY51 221055Z AUTO 35006KT 10SM CLR M08/M10 A3030 RMK AO1 T10851105
KY63 221057Z AUTO 11005KT 10SM CLR M14/M16 A3027 RMK AO2 T11451157
KY70 221056Z AUTO 32003KT 10SM OVC034 M02/M08 A3023 RMK AO2 T10181083
KYIP 221053Z 34014KT 10SM OVC031 00/M07 A3020 RMK AO2 SLP231 T00001067
KYKM 221053Z AUTO 24003KT 3SM BR FEW049 BKN100 05/04 A3009 RMK AO2 SLP196 T00500039
KYKN 221056Z AUTO 13003KT 10SM CLR M11/M13 A3033 RMK AO2 SLP307 T11111128 FZRANO
KYNG 221051Z 32011KT 9SM -SN SCT007 BKN012 OVC020 01/M01 A3007 RMK AO2 SLP190 P0000 T00111006
KZPH 221135Z AUTO 00000KT 1/4SM FG OVC001 16/16 A2996 RMK AO2 T01580158
KZZV 221053Z AUTO 31009KT 10SM OVC043 02/M01 A3014 RMK AO2 SLP208 T00221011